Darstellungsparameter: Aktuell verwendete Einstellungen:
Skalierung der Graphiken ... ?
xyx+y,   Skalierungsfaktor:      Skalierung: Modus: x, Faktor: 1
Darstellungszeitraum ... ?
Vom - - bis: - -   Zeitraum: 15.02.2006 - 14.08.2006
Min/Max/Avg-Anzeige ... ?
Zeige MMA aktuell
Zeige MMA Monat
Zeige MMA alles
Zeige --A aktuell
Zeige --A Monat
Zeige --A alles
Keine MMA-Anzeige
MMA:
Keine MMA-Graphiken
MMA-Basis: 15.02.2006 - 14.08.2006
Quicknavigation für Darstellung... ?
Tage:      1T, 2T, 3T, 5T -1T -2T -3T -5T +1T +2T +3T +5T
Wochen: 1W, 2W, 3W -1W -2W -3W +1W +2W +3W
Monate: 1M, 3M, 6M -1M -3M -6M +1M +3M +6M
Jahre:    1J, 3J, 5J, 10J -1J -3J -5J -10J +1J +3J +5J +10J
Nutze für die Darstellung ... ?
Originaldaten oder Mittelwerte auf ...
Stundenbasis Tagesbasis Wochenbasis
Monatsbasis Jahresbasis      Datenbasis: Original-Daten
Darstellen als:
Statistik (Auto) Statistik J:M      Darstellung:
Zur Graphik,    zurück zur Übersicht aller Sensoren.
 
Tabellarische Datenbersicht: ?
 
Sensor: Nr:Datum:Temp:Feuchte:Taupunkt:
Aussen-T/F 1 15-02-2006 00:09:18 4.5 C 86 % 2.37 C
2 15-02-2006 00:19:18 4.5 C 86 % 2.37 C
3 15-02-2006 00:29:18 4.5 C 86 % 2.37 C
4 15-02-2006 00:39:18 4.5 C 86 % 2.37 C
5 15-02-2006 00:49:18 4.5 C 86 % 2.37 C
6 15-02-2006 00:59:18 4.5 C 86 % 2.37 C
7 15-02-2006 01:09:18 4.4 C 86 % 2.27 C
8 15-02-2006 01:19:18 4.3 C 86 % 2.17 C
9 15-02-2006 01:29:18 4.7 C 88 % 2.89 C
10 15-02-2006 01:39:18 4.9 C 88 % 3.08 C
11 15-02-2006 01:49:18 5 C 86 % 2.86 C
12 15-02-2006 01:59:18 5 C 85 % 2.69 C
13 15-02-2006 02:09:18 4.8 C 86 % 2.66 C
14 15-02-2006 02:19:18 4.6 C 85 % 2.3 C
15 15-02-2006 02:29:18 4.3 C 85 % 2.01 C
16 15-02-2006 02:39:18 3.8 C 86 % 1.68 C
17 15-02-2006 02:50:20 3.7 C 86 % 1.58 C
18 15-02-2006 03:00:20 3.7 C 87 % 1.74 C
19 15-02-2006 03:10:20 3.4 C 87 % 1.45 C
20 15-02-2006 03:20:20 3.3 C 87 % 1.35 C
21 15-02-2006 03:30:20 3.6 C 88 % 1.8 C
22 15-02-2006 03:40:20 3.8 C 88 % 2 C
23 15-02-2006 03:50:20 4.1 C 88 % 2.3 C
24 15-02-2006 04:00:20 4.4 C 88 % 2.59 C
25 15-02-2006 04:10:20 4.3 C 88 % 2.49 C
Sensor: Nr:Datum:Temp:Feuchte:Taupunkt:
Aussen-T/F 26 15-02-2006 04:20:20 4.4 C 88 % 2.59 C
27 15-02-2006 04:30:20 4.4 C 87 % 2.43 C
28 15-02-2006 04:40:21 4.3 C 87 % 2.33 C
29 15-02-2006 04:50:20 4.4 C 87 % 2.43 C
30 15-02-2006 05:00:20 4.5 C 86 % 2.37 C
31 15-02-2006 05:10:20 4.6 C 84 % 2.14 C
32 15-02-2006 05:20:20 4.6 C 84 % 2.14 C
33 15-02-2006 05:30:20 4.6 C 83 % 1.97 C
34 15-02-2006 05:40:20 4.6 C 83 % 1.97 C
35 15-02-2006 05:50:20 4.5 C 83 % 1.87 C
36 15-02-2006 06:00:20 4.4 C 82 % 1.6 C
37 15-02-2006 06:10:20 4.3 C 82 % 1.51 C
38 15-02-2006 06:20:20 4.3 C 83 % 1.67 C
39 15-02-2006 06:30:20 4.4 C 83 % 1.77 C
40 15-02-2006 06:40:20 4.5 C 83 % 1.87 C
41 15-02-2006 06:50:20 4.6 C 83 % 1.97 C
42 15-02-2006 07:00:20 4.9 C 82 % 2.09 C
43 15-02-2006 07:10:20 5 C 80 % 1.84 C
44 15-02-2006 07:20:20 5.1 C 79 % 1.77 C
45 15-02-2006 07:30:20 5.2 C 79 % 1.86 C
46 15-02-2006 07:40:20 5.3 C 79 % 1.96 C
47 15-02-2006 07:50:20 5.3 C 78 % 1.78 C
48 15-02-2006 08:00:20 5.4 C 78 % 1.88 C
49 15-02-2006 08:10:20 5.5 C 77 % 1.8 C
50 15-02-2006 08:20:21 5.5 C 77 % 1.8 C
Sensor: Nr:Datum:Temp:Feuchte:Taupunkt:
Aussen-T/F 51 15-02-2006 08:30:21 5.6 C 76 % 1.71 C
52 15-02-2006 08:40:20 5.7 C 76 % 1.81 C
53 15-02-2006 08:50:20 5.4 C 78 % 1.88 C
54 15-02-2006 09:00:20 5.3 C 80 % 2.14 C
55 15-02-2006 09:10:21 5.2 C 82 % 2.39 C
56 15-02-2006 09:20:20 5.1 C 83 % 2.46 C
57 15-02-2006 09:30:20 5.1 C 84 % 2.63 C
58 15-02-2006 09:40:20 5.2 C 84 % 2.72 C
59 15-02-2006 09:50:21 5.2 C 84 % 2.72 C
60 15-02-2006 10:00:21 5.2 C 84 % 2.72 C
61 15-02-2006 10:10:20 5.1 C 84 % 2.63 C
62 15-02-2006 10:20:20 5.1 C 85 % 2.79 C
63 15-02-2006 10:30:20 5.1 C 84 % 2.63 C
64 15-02-2006 10:40:21 5.2 C 84 % 2.72 C
65 15-02-2006 10:50:20 5.3 C 83 % 2.65 C
66 15-02-2006 11:00:20 5.3 C 83 % 2.65 C
67 15-02-2006 11:10:21 5.4 C 83 % 2.75 C
68 15-02-2006 11:20:21 5.6 C 83 % 2.95 C
69 15-02-2006 11:30:21 5.8 C 82 % 2.97 C
70 15-02-2006 11:40:20 6 C 82 % 3.17 C
71 15-02-2006 11:50:21 6.1 C 81 % 3.09 C
72 15-02-2006 12:00:21 6.2 C 81 % 3.19 C
73 15-02-2006 12:10:21 5.9 C 81 % 2.9 C
74 15-02-2006 12:20:20 5.9 C 81 % 2.9 C
75 15-02-2006 12:30:20 5.9 C 81 % 2.9 C
Sensor: Nr:Datum:Temp:Feuchte:Taupunkt:
Aussen-T/F 76 15-02-2006 12:40:20 6 C 79 % 2.64 C
77 15-02-2006 12:50:20 6 C 78 % 2.46 C
78 15-02-2006 13:00:20 6.1 C 77 % 2.38 C
79 15-02-2006 13:10:21 6.3 C 74 % 2.02 C
80 15-02-2006 13:20:21 6.3 C 74 % 2.02 C
81 15-02-2006 13:30:21 6.4 C 73 % 1.92 C
82 15-02-2006 13:40:21 6.8 C 72 % 2.12 C
83 15-02-2006 13:50:21 6.8 C 72 % 2.12 C
84 15-02-2006 14:00:21 7.2 C 70 % 2.11 C
85 15-02-2006 14:10:21 7.4 C 68 % 1.89 C
86 15-02-2006 14:20:20 7.6 C 67 % 1.88 C
87 15-02-2006 14:30:20 8.1 C 64 % 1.71 C
88 15-02-2006 14:40:21 8.5 C 62 % 1.65 C
89 15-02-2006 14:50:21 8.7 C 62 % 1.84 C
90 15-02-2006 15:00:21 8.7 C 61 % 1.61 C
91 15-02-2006 15:10:21 8.9 C 61 % 1.8 C
92 15-02-2006 15:20:21 9 C 59 % 1.43 C
93 15-02-2006 15:30:21 9.1 C 59 % 1.52 C
94 15-02-2006 15:40:21 9 C 59 % 1.43 C
95 15-02-2006 15:50:21 8.9 C 61 % 1.8 C
96 15-02-2006 16:00:21 8.6 C 63 % 1.97 C
97 15-02-2006 16:10:21 8.9 C 63 % 2.25 C
98 15-02-2006 16:20:21 8.9 C 64 % 2.47 C
99 15-02-2006 16:30:21 8.6 C 64 % 2.19 C
100 15-02-2006 16:40:21 8.2 C 66 % 2.24 C
Sensor: Nr:Datum:Temp:Feuchte:Taupunkt:
Aussen-T/F 101 15-02-2006 16:50:21 8.1 C 68 % 2.56 C
102 15-02-2006 17:00:21 8 C 69 % 2.67 C
103 15-02-2006 17:10:22 7.9 C 71 % 2.98 C
104 15-02-2006 17:20:21 7.8 C 71 % 2.88 C
105 15-02-2006 17:30:21 7.8 C 72 % 3.08 C
106 15-02-2006 17:40:21 7.6 C 75 % 3.46 C
107 15-02-2006 17:50:21 7.4 C 77 % 3.64 C
108 15-02-2006 18:00:21 7.5 C 77 % 3.74 C
109 15-02-2006 18:10:21 7.6 C 77 % 3.83 C
110 15-02-2006 18:20:21 7.6 C 78 % 4.02 C
111 15-02-2006 18:30:21 7.6 C 78 % 4.02 C
112 15-02-2006 18:40:21 7.6 C 79 % 4.2 C
113 15-02-2006 18:50:21 7.7 C 79 % 4.3 C
114 15-02-2006 19:00:21 7.6 C 79 % 4.2 C
115 15-02-2006 19:10:22 7.8 C 78 % 4.21 C
116 15-02-2006 19:20:21 7.8 C 77 % 4.03 C
117 15-02-2006 19:30:21 7.7 C 77 % 3.93 C
118 15-02-2006 19:40:21 7.6 C 77 % 3.83 C
119 15-02-2006 19:50:21 7.9 C 77 % 4.12 C
120 15-02-2006 20:00:21 7.9 C 76 % 3.94 C
121 15-02-2006 20:10:21 7.9 C 76 % 3.94 C
122 15-02-2006 20:20:21 7.9 C 76 % 3.94 C
123 15-02-2006 20:30:21 7.8 C 76 % 3.84 C
124 15-02-2006 20:40:22 7.9 C 76 % 3.94 C
125 15-02-2006 20:50:22 8.1 C 74 % 3.75 C
Sensor: Nr:Datum:Temp:Feuchte:Taupunkt:
Aussen-T/F 126 15-02-2006 21:00:22 8.2 C 73 % 3.66 C
127 15-02-2006 21:10:21 8.2 C 73 % 3.66 C
128 15-02-2006 21:20:22 8.1 C 73 % 3.56 C
129 15-02-2006 21:30:22 8.2 C 72 % 3.46 C
130 15-02-2006 21:40:22 8 C 73 % 3.46 C
131 15-02-2006 21:50:21 7.8 C 77 % 4.03 C
132 15-02-2006 22:00:21 7.6 C 78 % 4.02 C
133 15-02-2006 22:10:21 7.4 C 77 % 3.64 C
134 15-02-2006 22:20:22 7.1 C 78 % 3.53 C
135 15-02-2006 22:30:22 7.1 C 77 % 3.35 C
136 15-02-2006 22:40:22 7 C 78 % 3.43 C
137 15-02-2006 22:50:22 7 C 79 % 3.61 C
138 15-02-2006 23:00:22 6.8 C 82 % 3.95 C
139 15-02-2006 23:10:22 6.8 C 83 % 4.12 C
140 15-02-2006 23:20:22 6.6 C 84 % 4.1 C
141 15-02-2006 23:30:22 6.5 C 85 % 4.17 C
142 15-02-2006 23:40:21 6.7 C 86 % 4.53 C
143 15-02-2006 23:50:22 6.7 C 87 % 4.69 C
144 16-02-2006 00:00:22 6.7 C 88 % 4.86 C
145 16-02-2006 00:10:22 6.7 C 88 % 4.86 C
146 16-02-2006 00:20:22 6.7 C 88 % 4.86 C
147 16-02-2006 00:30:22 6.6 C 88 % 4.76 C
148 16-02-2006 00:40:22 6.5 C 89 % 4.82 C
149 16-02-2006 00:50:21 6.5 C 89 % 4.82 C
150 16-02-2006 01:00:21 6.5 C 89 % 4.82 C
Sensor: Nr:Datum:Temp:Feuchte:Taupunkt:
Aussen-T/F 151 16-02-2006 01:10:23 6.4 C 89 % 4.72 C
152 16-02-2006 01:20:23 6.4 C 89 % 4.72 C
153 16-02-2006 01:30:23 6.3 C 89 % 4.62 C
154 16-02-2006 01:40:22 6.3 C 89 % 4.62 C
155 16-02-2006 01:50:23 6.3 C 89 % 4.62 C
156 16-02-2006 02:00:23 6.2 C 89 % 4.53 C
157 16-02-2006 02:10:22 6.2 C 90 % 4.69 C
158 16-02-2006 02:20:22 6.2 C 90 % 4.69 C
159 16-02-2006 02:30:22 6.1 C 90 % 4.59 C
160 16-02-2006 02:40:22 6.1 C 90 % 4.59 C
161 16-02-2006 02:51:23 6.1 C 90 % 4.59 C
162 16-02-2006 03:01:23 6.1 C 90 % 4.59 C
163 16-02-2006 03:11:24 6.1 C 90 % 4.59 C
164 16-02-2006 03:21:24 6.1 C 90 % 4.59 C
165 16-02-2006 03:31:24 6.1 C 90 % 4.59 C
166 16-02-2006 03:41:24 6 C 90 % 4.49 C
167 16-02-2006 03:51:24 6 C 90 % 4.49 C
168 16-02-2006 04:01:24 5.9 C 91 % 4.55 C
169 16-02-2006 04:11:24 5.9 C 91 % 4.55 C
170 16-02-2006 04:21:24 5.9 C 91 % 4.55 C
171 16-02-2006 04:31:25 5.9 C 91 % 4.55 C
172 16-02-2006 04:41:25 5.8 C 91 % 4.45 C
173 16-02-2006 04:51:24 5.8 C 91 % 4.45 C
174 16-02-2006 05:01:25 5.8 C 91 % 4.45 C
175 16-02-2006 05:11:25 5.8 C 91 % 4.45 C
Sensor: Nr:Datum:Temp:Feuchte:Taupunkt:
Aussen-T/F 176 16-02-2006 05:21:24 5.7 C 91 % 4.35 C
177 16-02-2006 05:31:24 5.8 C 92 % 4.6 C
178 16-02-2006 05:41:24 5.8 C 92 % 4.6 C
179 16-02-2006 05:51:24 5.8 C 92 % 4.6 C
180 16-02-2006 06:01:24 5.8 C 92 % 4.6 C
181 16-02-2006 06:11:24 5.7 C 92 % 4.5 C
182 16-02-2006 06:21:24 5.8 C 92 % 4.6 C
183 16-02-2006 06:31:24 5.8 C 92 % 4.6 C
184 16-02-2006 06:41:24 5.8 C 92 % 4.6 C
185 16-02-2006 06:51:24 5.8 C 92 % 4.6 C
186 16-02-2006 07:01:24 5.8 C 92 % 4.6 C
187 16-02-2006 07:11:24 5.8 C 92 % 4.6 C
188 16-02-2006 07:21:24 5.8 C 92 % 4.6 C
189 16-02-2006 07:31:25 5.8 C 92 % 4.6 C
190 16-02-2006 07:41:25 5.8 C 92 % 4.6 C
191 16-02-2006 07:51:24 5.8 C 92 % 4.6 C
192 16-02-2006 08:01:25 5.9 C 92 % 4.7 C
193 16-02-2006 08:11:25 5.9 C 92 % 4.7 C
194 16-02-2006 08:21:24 6 C 91 % 4.65 C
195 16-02-2006 08:31:24 6.1 C 91 % 4.74 C
196 16-02-2006 08:41:24 6.2 C 90 % 4.69 C
197 16-02-2006 08:51:24 6.2 C 90 % 4.69 C
198 16-02-2006 09:01:24 6.3 C 89 % 4.62 C
199 16-02-2006 09:11:24 6.5 C 89 % 4.82 C
200 16-02-2006 09:21:24 6.5 C 88 % 4.66 C
Sensor: Nr:Datum:Temp:Feuchte:Taupunkt:
Aussen-T/F 201 16-02-2006 09:31:25 6.5 C 86 % 4.33 C
202 16-02-2006 09:41:25 6.8 C 85 % 4.46 C
203 16-02-2006 09:51:24 6.9 C 84 % 4.39 C
204 16-02-2006 10:01:25 7.1 C 83 % 4.41 C
205 16-02-2006 10:11:25 7.3 C 79 % 3.91 C
206 16-02-2006 10:21:25 7.3 C 77 % 3.54 C
207 16-02-2006 10:31:24 7.8 C 75 % 3.65 C
208 16-02-2006 10:41:24 8 C 70 % 2.87 C
209 16-02-2006 10:51:24 8.2 C 69 % 2.86 C
210 16-02-2006 11:01:24 8.2 C 69 % 2.86 C
211 16-02-2006 11:11:24 8.3 C 70 % 3.16 C
212 16-02-2006 11:21:25 8.5 C 69 % 3.15 C
213 16-02-2006 11:31:25 8.5 C 68 % 2.94 C
214 16-02-2006 11:41:25 8.4 C 70 % 3.26 C
215 16-02-2006 11:51:25 8.6 C 71 % 3.65 C
216 16-02-2006 12:01:25 8.8 C 69 % 3.44 C
217 16-02-2006 12:11:25 8.9 C 68 % 3.32 C
218 16-02-2006 12:21:25 9.3 C 66 % 3.28 C
219 16-02-2006 12:31:24 9.5 C 64 % 3.04 C
220 16-02-2006 12:41:24 9.4 C 62 % 2.5 C
221 16-02-2006 12:51:25 9.7 C 61 % 2.55 C
222 16-02-2006 13:01:24 10 C 59 % 2.37 C
223 16-02-2006 13:11:24 9.4 C 60 % 2.04 C
224 16-02-2006 13:21:25 9.4 C 59 % 1.81 C
225 16-02-2006 13:31:25 9.7 C 58 % 1.85 C
Sensor: Nr:Datum:Temp:Feuchte:Taupunkt:
Aussen-T/F 226 16-02-2006 13:41:25 10.2 C 56 % 1.83 C
227 16-02-2006 13:51:25 10.2 C 55 % 1.58 C
228 16-02-2006 14:01:25 10 C 57 % 1.89 C
229 16-02-2006 14:11:25 9.9 C 57 % 1.79 C
230 16-02-2006 14:21:25 10.5 C 55 % 1.85 C
231 16-02-2006 14:31:24 10.9 C 54 % 1.97 C
232 16-02-2006 14:41:24 10.4 C 54 % 1.51 C
233 16-02-2006 14:51:25 9.6 C 60 % 2.23 C
234 16-02-2006 15:01:25 9.1 C 69 % 3.72 C
235 16-02-2006 15:11:25 8.8 C 70 % 3.64 C
236 16-02-2006 15:21:25 9.3 C 68 % 3.71 C
237 16-02-2006 15:31:25 9.7 C 66 % 3.67 C
238 16-02-2006 15:41:25 9.7 C 65 % 3.45 C
239 16-02-2006 15:51:25 9.7 C 65 % 3.45 C
240 16-02-2006 16:01:25 9.7 C 64 % 3.23 C
241 16-02-2006 16:11:25 9.7 C 65 % 3.45 C
242 16-02-2006 16:21:25 9.6 C 63 % 2.91 C
243 16-02-2006 16:31:25 9.4 C 63 % 2.72 C
244 16-02-2006 16:41:25 9.3 C 63 % 2.63 C
245 16-02-2006 16:51:25 9.3 C 63 % 2.63 C
246 16-02-2006 17:01:25 9.1 C 64 % 2.66 C
247 16-02-2006 17:11:25 8.9 C 66 % 2.9 C
248 16-02-2006 17:21:25 8.9 C 67 % 3.12 C
249 16-02-2006 17:31:25 8.8 C 66 % 2.81 C
250 16-02-2006 17:41:25 8.8 C 66 % 2.81 C
Sensor: Nr:Datum:Temp:Feuchte:Taupunkt:
Aussen-T/F 251 16-02-2006 17:51:25 8.6 C 66 % 2.62 C
252 16-02-2006 18:01:25 8.6 C 66 % 2.62 C
253 16-02-2006 18:11:25 8.2 C 68 % 2.66 C
254 16-02-2006 18:21:26 7.8 C 70 % 2.68 C
255 16-02-2006 18:31:25 7.6 C 71 % 2.69 C
256 16-02-2006 18:41:25 7.6 C 72 % 2.88 C
257 16-02-2006 18:51:25 7.6 C 73 % 3.08 C
258 16-02-2006 19:01:26 7.7 C 73 % 3.18 C
259 16-02-2006 19:11:26 7.7 C 72 % 2.98 C
260 16-02-2006 19:21:25 7.7 C 72 % 2.98 C
261 16-02-2006 19:31:25 7.5 C 73 % 2.98 C
262 16-02-2006 19:41:25 7.3 C 73 % 2.79 C
263 16-02-2006 19:51:25 7.2 C 73 % 2.69 C
264 16-02-2006 20:01:26 7.1 C 74 % 2.79 C
265 16-02-2006 20:11:26 7.2 C 74 % 2.89 C
266 16-02-2006 20:21:26 7.3 C 73 % 2.79 C
267 16-02-2006 20:31:26 7.2 C 75 % 3.07 C
268 16-02-2006 20:41:26 7 C 78 % 3.43 C
269 16-02-2006 20:51:25 6.9 C 80 % 3.7 C
270 16-02-2006 21:01:26 6.8 C 82 % 3.95 C
271 16-02-2006 21:11:26 6.7 C 84 % 4.19 C
272 16-02-2006 21:21:26 6.9 C 84 % 4.39 C
273 16-02-2006 21:31:26 6.7 C 84 % 4.19 C
274 16-02-2006 21:41:26 6.6 C 84 % 4.1 C
275 16-02-2006 21:51:25 6.5 C 83 % 3.83 C
Sensor: Nr:Datum:Temp:Feuchte:Taupunkt:
Aussen-T/F 276 16-02-2006 22:01:27 6.4 C 83 % 3.73 C
277 16-02-2006 22:11:27 6.5 C 83 % 3.83 C
278 16-02-2006 22:21:26 6.4 C 83 % 3.73 C
279 16-02-2006 22:31:25 6.4 C 83 % 3.73 C
280 16-02-2006 22:41:25 6.5 C 83 % 3.83 C
281 16-02-2006 22:51:26 6.5 C 83 % 3.83 C
282 16-02-2006 23:01:26 6.4 C 82 % 3.56 C
283 16-02-2006 23:11:26 6 C 81 % 2.99 C
284 16-02-2006 23:21:26 5.8 C 82 % 2.97 C
285 16-02-2006 23:31:25 5.6 C 83 % 2.95 C
286 16-02-2006 23:41:25 5.6 C 84 % 3.12 C
287 16-02-2006 23:51:26 5.4 C 85 % 3.09 C
288 17-02-2006 00:01:26 5.4 C 86 % 3.25 C
289 17-02-2006 00:11:26 5.2 C 86 % 3.05 C
290 17-02-2006 00:21:26 5.3 C 87 % 3.32 C
291 17-02-2006 00:31:26 5.3 C 87 % 3.32 C
292 17-02-2006 00:41:26 5.3 C 88 % 3.48 C
293 17-02-2006 00:51:26 5 C 87 % 3.02 C
294 17-02-2006 01:01:26 4.2 C 86 % 2.07 C
295 17-02-2006 01:11:26 4.1 C 87 % 2.14 C
296 17-02-2006 01:21:26 3.9 C 88 % 2.1 C
297 17-02-2006 01:31:25 4 C 88 % 2.2 C
298 17-02-2006 01:41:25 4.1 C 89 % 2.45 C
299 17-02-2006 01:51:26 4.1 C 89 % 2.45 C
300 17-02-2006 02:01:26 4.1 C 89 % 2.45 C
Sensor: Nr:Datum:Temp:Feuchte:Taupunkt:
Aussen-T/F 301 17-02-2006 02:11:26 4 C 89 % 2.36 C
302 17-02-2006 02:21:26 3.8 C 89 % 2.16 C
303 17-02-2006 02:31:26 3.6 C 89 % 1.96 C
304 17-02-2006 02:41:26 3.7 C 90 % 2.22 C
305 17-02-2006 02:52:28 3.5 C 90 % 2.02 C
306 17-02-2006 03:02:28 3.5 C 90 % 2.02 C
307 17-02-2006 03:12:28 3.4 C 90 % 1.92 C
308 17-02-2006 03:22:28 3.4 C 90 % 1.92 C
309 17-02-2006 03:32:28 3.4 C 90 % 1.92 C
310 17-02-2006 03:42:28 3.8 C 91 % 2.47 C
311 17-02-2006 03:52:28 4.2 C 91 % 2.87 C
312 17-02-2006 04:02:28 4.4 C 90 % 2.91 C
313 17-02-2006 04:12:28 4.6 C 88 % 2.79 C
314 17-02-2006 04:22:27 4.7 C 86 % 2.56 C
315 17-02-2006 04:32:28 4.6 C 85 % 2.3 C
316 17-02-2006 04:42:28 4.5 C 85 % 2.2 C
317 17-02-2006 04:52:28 4.2 C 84 % 1.74 C
318 17-02-2006 05:02:28 4.1 C 85 % 1.81 C
319 17-02-2006 05:12:28 3.9 C 86 % 1.78 C
320 17-02-2006 05:22:28 3.8 C 86 % 1.68 C
321 17-02-2006 05:32:28 3.4 C 86 % 1.29 C
322 17-02-2006 05:42:28 3.3 C 86 % 1.19 C
323 17-02-2006 05:52:28 3.4 C 87 % 1.45 C
324 17-02-2006 06:02:28 3.3 C 88 % 1.51 C
325 17-02-2006 06:12:29 3.2 C 88 % 1.41 C
Sensor: Nr:Datum:Temp:Feuchte:Taupunkt:
Aussen-T/F 326 17-02-2006 06:22:28 3.1 C 88 % 1.31 C
327 17-02-2006 06:32:28 3.2 C 88 % 1.41 C
328 17-02-2006 06:42:28 3.4 C 89 % 1.76 C
329 17-02-2006 06:52:28 3.6 C 88 % 1.8 C
330 17-02-2006 07:02:29 3.7 C 86 % 1.58 C
331 17-02-2006 07:12:29 3.8 C 84 % 1.35 C
332 17-02-2006 07:22:28 4 C 81 % 1.04 C
333 17-02-2006 07:32:28 4 C 79 % 0.7 C
334 17-02-2006 07:42:28 3.7 C 80 % 0.58 C
335 17-02-2006 07:52:28 3.7 C 79 % 0.4 C
336 17-02-2006 08:02:29 3.9 C 79 % 0.6 C
337 17-02-2006 08:12:29 3.8 C 80 % 0.68 C
338 17-02-2006 08:22:28 4.2 C 79 % 0.89 C
339 17-02-2006 08:32:28 4.6 C 78 % 1.1 C
340 17-02-2006 08:42:29 4.5 C 78 % 1.01 C
341 17-02-2006 08:52:28 4.5 C 78 % 1.01 C
342 17-02-2006 09:02:28 4.7 C 77 % 1.02 C
343 17-02-2006 09:12:28 4.8 C 76 % 0.94 C
344 17-02-2006 09:22:28 4.9 C 76 % 1.03 C
345 17-02-2006 09:32:29 5.2 C 74 % 0.95 C
346 17-02-2006 09:42:29 5.4 C 72 % 0.77 C
347 17-02-2006 09:52:28 5.6 C 70 % 0.57 C
348 17-02-2006 10:02:29 5.8 C 69 % 0.56 C
349 17-02-2006 10:12:29 6 C 67 % 0.35 C
350 17-02-2006 10:22:28 6.2 C 67 % 0.54 C
Sensor: Nr:Datum:Temp:Feuchte:Taupunkt:
Aussen-T/F 351 17-02-2006 10:32:28 6.4 C 68 % 0.94 C
352 17-02-2006 10:42:28 7 C 65 % 0.88 C
353 17-02-2006 10:52:28 7.2 C 63 % 0.64 C
354 17-02-2006 11:02:28 7.2 C 61 % 0.2 C
355 17-02-2006 11:12:28 7.1 C 59 % -0.36 C
356 17-02-2006 11:22:28 7.2 C 59 % -0.26 C
357 17-02-2006 11:32:29 7.5 C 58 % -0.21 C
358 17-02-2006 11:42:29 7.8 C 58 % 0.07 C
359 17-02-2006 11:52:28 7.5 C 61 % 0.48 C
360 17-02-2006 12:02:29 7.9 C 60 % 0.63 C
361 17-02-2006 12:12:29 7.6 C 65 % 1.45 C
362 17-02-2006 12:22:29 7.4 C 64 % 1.05 C
363 17-02-2006 12:32:28 7.3 C 67 % 1.59 C
364 17-02-2006 12:42:28 6.7 C 68 % 1.22 C
365 17-02-2006 12:52:29 7.1 C 68 % 1.61 C
366 17-02-2006 13:02:28 7.4 C 66 % 1.48 C
367 17-02-2006 13:12:28 7.3 C 67 % 1.59 C
368 17-02-2006 13:22:28 7.3 C 67 % 1.59 C
369 17-02-2006 13:32:29 7.8 C 63 % 1.21 C
370 17-02-2006 13:42:29 8.3 C 59 % 0.77 C
371 17-02-2006 13:52:29 8.5 C 57 % 0.48 C
372 17-02-2006 14:02:29 8.9 C 56 % 0.61 C
373 17-02-2006 14:12:29 9.1 C 53 % 0.04 C
374 17-02-2006 14:22:29 9 C 52 % -0.31 C
375 17-02-2006 14:32:29 8.3 C 61 % 1.23 C
Sensor: Nr:Datum:Temp:Feuchte:Taupunkt:
Aussen-T/F 376 17-02-2006 14:42:29 8 C 60 % 0.72 C
377 17-02-2006 14:52:29 8.2 C 57 % 0.2 C
378 17-02-2006 15:02:29 8.6 C 56 % 0.33 C
379 17-02-2006 15:12:29 9 C 53 % -0.05 C
380 17-02-2006 15:22:29 9.2 C 53 % 0.13 C
381 17-02-2006 15:32:29 9 C 52 % -0.31 C
382 17-02-2006 15:42:29 8.3 C 55 % -0.2 C
383 17-02-2006 15:52:29 8.1 C 57 % 0.11 C
384 17-02-2006 16:02:29 8.2 C 55 % -0.29 C
385 17-02-2006 16:12:29 8.2 C 55 % -0.29 C
386 17-02-2006 16:22:29 7.8 C 56 % -0.41 C
387 17-02-2006 16:32:29 7.8 C 57 % -0.17 C
388 17-02-2006 16:42:29 7.8 C 57 % -0.17 C
389 17-02-2006 16:52:29 7.6 C 57 % -0.36 C
390 17-02-2006 17:02:30 7.5 C 57 % -0.45 C
391 17-02-2006 17:12:30 7.4 C 59 % -0.07 C
392 17-02-2006 17:22:30 7.4 C 59 % -0.07 C
393 17-02-2006 17:32:30 7.2 C 63 % 0.64 C
394 17-02-2006 17:42:30 6.9 C 65 % 0.79 C
395 17-02-2006 17:52:29 7 C 64 % 0.67 C
396 17-02-2006 18:02:29 7.2 C 61 % 0.2 C
397 17-02-2006 18:12:29 7.3 C 60 % 0.06 C
398 17-02-2006 18:22:29 7.3 C 60 % 0.06 C
399 17-02-2006 18:32:29 7.3 C 60 % 0.06 C
400 17-02-2006 18:42:29 7.3 C 60 % 0.06 C
Sensor: Nr:Datum:Temp:Feuchte:Taupunkt:
Aussen-T/F 401 17-02-2006 18:52:30 7.4 C 59 % -0.07 C
402 17-02-2006 19:02:29 7.4 C 59 % -0.07 C
403 17-02-2006 19:12:29 7.5 C 58 % -0.21 C
404 17-02-2006 19:22:29 7.5 C 57 % -0.45 C
405 17-02-2006 19:32:29 7.4 C 57 % -0.55 C
406 17-02-2006 19:42:29 7.5 C 57 % -0.45 C
407 17-02-2006 19:52:29 7.5 C 56 % -0.7 C
408 17-02-2006 20:02:29 7.5 C 56 % -0.7 C
409 17-02-2006 20:12:29 7.5 C 56 % -0.7 C
410 17-02-2006 20:22:30 7.4 C 56 % -0.79 C
411 17-02-2006 20:32:30 7.4 C 56 % -0.79 C
412 17-02-2006 20:42:30 7.4 C 56 % -0.79 C
413 17-02-2006 20:52:30 7.4 C 56 % -0.79 C
414 17-02-2006 21:02:30 7.4 C 55 % -1.03 C
415 17-02-2006 21:12:30 7.3 C 56 % -0.88 C
416 17-02-2006 21:22:29 7.2 C 56 % -0.98 C
417 17-02-2006 21:32:29 7.2 C 56 % -0.98 C
418 17-02-2006 21:42:29 7.3 C 56 % -0.88 C
419 17-02-2006 21:52:30 7.1 C 55 % -1.31 C
420 17-02-2006 22:02:30 7.2 C 55 % -1.22 C
421 17-02-2006 22:12:30 7.2 C 54 % -1.47 C
422 17-02-2006 22:22:30 7.1 C 54 % -1.56 C
423 17-02-2006 22:32:30 7.1 C 54 % -1.56 C
424 17-02-2006 22:42:30 6.9 C 56 % -1.26 C
425 17-02-2006 22:52:30 6.6 C 58 % -1.06 C
Sensor: Nr:Datum:Temp:Feuchte:Taupunkt:
Aussen-T/F 426 17-02-2006 23:02:29 6.4 C 59 % -1.01 C
427 17-02-2006 23:12:29 6.2 C 60 % -0.97 C
428 17-02-2006 23:22:30 6.4 C 60 % -0.78 C
429 17-02-2006 23:32:30 6.5 C 60 % -0.69 C
430 17-02-2006 23:42:30 6.5 C 60 % -0.69 C
431 17-02-2006 23:52:30 6.2 C 61 % -0.75 C
432 18-02-2006 00:02:30 6.1 C 61 % -0.84 C
433 18-02-2006 00:12:30 6.1 C 61 % -0.84 C
434 18-02-2006 00:22:30 6.2 C 61 % -0.75 C
435 18-02-2006 00:32:30 6.3 C 60 % -0.88 C
436 18-02-2006 00:42:30 6.4 C 60 % -0.78 C
437 18-02-2006 00:52:30 6.6 C 59 % -0.83 C
438 18-02-2006 01:02:30 6.5 C 59 % -0.92 C
439 18-02-2006 01:12:30 6.4 C 59 % -1.01 C
440 18-02-2006 01:22:30 6.5 C 59 % -0.92 C
441 18-02-2006 01:32:30 6.5 C 58 % -1.15 C
442 18-02-2006 01:42:30 6.5 C 58 % -1.15 C
443 18-02-2006 01:52:30 6.4 C 59 % -1.01 C
444 18-02-2006 02:02:30 6.2 C 60 % -0.97 C
445 18-02-2006 02:12:30 6.1 C 61 % -0.84 C
446 18-02-2006 02:22:30 6 C 61 % -0.94 C
447 18-02-2006 02:32:30 6 C 61 % -0.94 C
448 18-02-2006 02:42:30 5.7 C 64 % -0.56 C
449 18-02-2006 02:53:31 5.6 C 65 % -0.45 C
450 18-02-2006 03:03:31 5.6 C 64 % -0.66 C
Sensor: Nr:Datum:Temp:Feuchte:Taupunkt:
Aussen-T/F 451 18-02-2006 03:13:31 5.4 C 64 % -0.85 C
452 18-02-2006 03:23:31 5.2 C 63 % -1.25 C
453 18-02-2006 03:33:31 4.9 C 65 % -1.11 C
454 18-02-2006 03:43:31 4.9 C 69 % -0.3 C
455 18-02-2006 03:53:31 5 C 69 % -0.2 C
456 18-02-2006 04:03:31 4.8 C 72 % 0.19 C
457 18-02-2006 04:13:31 4.6 C 73 % 0.19 C
458 18-02-2006 04:23:31 4.5 C 74 % 0.28 C
459 18-02-2006 04:33:31 4 C 74 % -0.2 C
460 18-02-2006 04:43:31 3.9 C 76 % 0.07 C
461 18-02-2006 04:53:31 3.9 C 77 % 0.25 C
462 18-02-2006 05:03:31 4.1 C 77 % 0.44 C
463 18-02-2006 05:13:32 4.2 C 77 % 0.54 C
464 18-02-2006 05:23:31 4.2 C 76 % 0.36 C
465 18-02-2006 05:33:31 4.3 C 76 % 0.45 C
466 18-02-2006 05:43:31 4.2 C 75 % 0.17 C
467 18-02-2006 05:53:31 4.1 C 75 % 0.08 C
468 18-02-2006 06:03:31 4.1 C 75 % 0.08 C
469 18-02-2006 06:13:31 4.3 C 74 % 0.09 C
470 18-02-2006 06:23:32 4.4 C 73 % 0 C
471 18-02-2006 06:33:32 4.5 C 72 % -0.1 C
472 18-02-2006 06:43:32 4.6 C 71 % -0.19 C
473 18-02-2006 06:53:32 4.7 C 70 % -0.29 C
474 18-02-2006 07:03:32 4.8 C 70 % -0.2 C
475 18-02-2006 07:13:33 4.8 C 70 % -0.2 C
Sensor: Nr:Datum:Temp:Feuchte:Taupunkt:
Aussen-T/F 476 18-02-2006 07:23:31 4.7 C 71 % -0.1 C
477 18-02-2006 07:33:31 4.6 C 71 % -0.19 C
478 18-02-2006 07:43:31 4.6 C 72 % 0 C
479 18-02-2006 07:53:31 4.6 C 72 % 0 C
480 18-02-2006 08:03:32 4.6 C 72 % 0 C
481 18-02-2006 08:13:32 4.8 C 73 % 0.38 C
482 18-02-2006 08:23:32 4.8 C 73 % 0.38 C
483 18-02-2006 08:33:32 4.9 C 73 % 0.48 C
484 18-02-2006 08:43:32 5.1 C 72 % 0.48 C
485 18-02-2006 08:53:32 5.1 C 72 % 0.48 C
486 18-02-2006 09:03:32 4.8 C 76 % 0.94 C
487 18-02-2006 09:13:32 4.5 C 79 % 1.18 C
488 18-02-2006 09:23:31 4.5 C 81 % 1.53 C
489 18-02-2006 09:33:32 4.4 C 82 % 1.6 C
490 18-02-2006 09:43:32 4.3 C 84 % 1.84 C
491 18-02-2006 09:53:32 4.3 C 84 % 1.84 C
492 18-02-2006 10:03:33 4.2 C 85 % 1.91 C
493 18-02-2006 10:13:33 4.2 C 85 % 1.91 C
494 18-02-2006 10:23:32 4.2 C 85 % 1.91 C
495 18-02-2006 10:33:31 4.5 C 85 % 2.2 C
496 18-02-2006 10:43:31 5 C 83 % 2.36 C
497 18-02-2006 10:53:32 5.1 C 81 % 2.12 C
498 18-02-2006 11:03:32 5.7 C 81 % 2.7 C
499 18-02-2006 11:13:32 5.9 C 77 % 2.19 C
500 18-02-2006 11:23:32 6.2 C 73 % 1.73 C
Sensor: Nr:Datum:Temp:Feuchte:Taupunkt:
Aussen-T/F 501 18-02-2006 11:33:32 6.3 C 74 % 2.02 C
502 18-02-2006 11:43:32 6.2 C 73 % 1.73 C
503 18-02-2006 11:53:32 6.6 C 73 % 2.12 C
504 18-02-2006 12:03:32 6.8 C 72 % 2.12 C
505 18-02-2006 12:13:32 7 C 70 % 1.91 C
506 18-02-2006 12:23:32 7.3 C 69 % 2 C
507 18-02-2006 12:33:32 7.6 C 66 % 1.67 C
508 18-02-2006 12:43:32 7.8 C 67 % 2.07 C
509 18-02-2006 12:53:32 7.8 C 67 % 2.07 C
510 18-02-2006 13:03:32 7.5 C 70 % 2.39 C
511 18-02-2006 13:13:32 7.3 C 73 % 2.79 C
512 18-02-2006 13:23:32 7.1 C 74 % 2.79 C
513 18-02-2006 13:33:32 7 C 75 % 2.88 C
514 18-02-2006 13:43:32 6.8 C 77 % 3.06 C
515 18-02-2006 13:53:33 6.8 C 78 % 3.24 C
516 18-02-2006 14:03:33 7 C 77 % 3.25 C
517 18-02-2006 14:13:33 6.5 C 76 % 2.58 C
518 18-02-2006 14:23:32 6.8 C 77 % 3.06 C
519 18-02-2006 14:33:33 7 C 75 % 2.88 C
520 18-02-2006 14:43:33 6.7 C 77 % 2.96 C
521 18-02-2006 14:53:32 6.5 C 80 % 3.31 C
522 18-02-2006 15:03:32 6.6 C 81 % 3.58 C
523 18-02-2006 15:13:33 6.7 C 80 % 3.5 C
524 18-02-2006 15:23:32 6.7 C 80 % 3.5 C
525 18-02-2006 15:33:32 7 C 79 % 3.61 C
Sensor: Nr:Datum:Temp:Feuchte:Taupunkt:
Aussen-T/F 526 18-02-2006 15:43:32 8 C 74 % 3.66 C
527 18-02-2006 15:53:33 8.1 C 75 % 3.94 C
528 18-02-2006 16:03:32 7.8 C 71 % 2.88 C
529 18-02-2006 16:13:32 7.7 C 69 % 2.38 C
530 18-02-2006 16:23:32 7.8 C 71 % 2.88 C
531 18-02-2006 16:33:32 8.1 C 67 % 2.35 C
532 18-02-2006 16:43:32 8.6 C 64 % 2.19 C
533 18-02-2006 16:53:33 8.7 C 61 % 1.61 C
534 18-02-2006 17:03:32 8.3 C 63 % 1.68 C
535 18-02-2006 17:13:32 7.7 C 65 % 1.55 C
536 18-02-2006 17:23:32 7.2 C 68 % 1.7 C
537 18-02-2006 17:33:33 7 C 68 % 1.51 C
538 18-02-2006 17:43:33 6.9 C 68 % 1.41 C
539 18-02-2006 17:53:33 6.3 C 69 % 1.04 C
540 18-02-2006 18:03:33 6 C 71 % 1.15 C
541 18-02-2006 18:13:33 5.8 C 74 % 1.53 C
542 18-02-2006 18:23:33 5.6 C 76 % 1.71 C
543 18-02-2006 18:33:33 5.7 C 75 % 1.62 C
544 18-02-2006 18:43:33 5.7 C 75 % 1.62 C
545 18-02-2006 18:53:32 5.7 C 74 % 1.44 C
546 18-02-2006 19:03:33 5.8 C 73 % 1.34 C
547 18-02-2006 19:13:33 5.9 C 71 % 1.06 C
548 18-02-2006 19:23:33 6 C 68 % 0.55 C
549 18-02-2006 19:33:32 6.1 C 67 % 0.44 C
550 18-02-2006 19:43:32 6.2 C 66 % 0.33 C
Sensor: Nr:Datum:Temp:Feuchte:Taupunkt:
Aussen-T/F 551 18-02-2006 19:53:32 6.2 C 67 % 0.54 C
552 18-02-2006 20:03:33 6.2 C 66 % 0.33 C
553 18-02-2006 20:13:33 6.1 C 67 % 0.44 C
554 18-02-2006 20:23:33 5.9 C 70 % 0.86 C
555 18-02-2006 20:33:33 5.8 C 72 % 1.15 C
556 18-02-2006 20:43:33 5.8 C 72 % 1.15 C
557 18-02-2006 20:53:33 5.7 C 73 % 1.25 C
558 18-02-2006 21:03:33 5.6 C 73 % 1.15 C
559 18-02-2006 21:13:33 5.7 C 72 % 1.06 C
560 18-02-2006 21:23:33 5.8 C 71 % 0.96 C
561 18-02-2006 21:33:33 5.8 C 71 % 0.96 C
562 18-02-2006 21:43:33 5.8 C 70 % 0.76 C
563 18-02-2006 21:53:33 5.6 C 70 % 0.57 C
564 18-02-2006 22:03:33 5.6 C 69 % 0.37 C
565 18-02-2006 22:13:33 5.6 C 69 % 0.37 C
566 18-02-2006 22:23:33 5.6 C 69 % 0.37 C
567 18-02-2006 22:33:33 5.5 C 70 % 0.48 C
568 18-02-2006 22:43:33 5.5 C 70 % 0.48 C
569 18-02-2006 22:53:33 5.4 C 70 % 0.38 C
570 18-02-2006 23:03:33 5.4 C 70 % 0.38 C
571 18-02-2006 23:13:33 5.4 C 70 % 0.38 C
572 18-02-2006 23:23:33 5.4 C 69 % 0.18 C
573 18-02-2006 23:33:33 5.4 C 69 % 0.18 C
574 18-02-2006 23:43:33 5.3 C 69 % 0.09 C
575 18-02-2006 23:53:33 5.3 C 70 % 0.28 C
Sensor: Nr:Datum:Temp:Feuchte:Taupunkt:
Aussen-T/F 576 19-02-2006 00:03:33 5.2 C 70 % 0.19 C
577 19-02-2006 00:13:33 5.2 C 70 % 0.19 C
578 19-02-2006 00:23:33 5.2 C 70 % 0.19 C
579 19-02-2006 00:33:34 5.1 C 71 % 0.29 C
580 19-02-2006 00:43:34 5.1 C 72 % 0.48 C
581 19-02-2006 00:53:34 5.1 C 73 % 0.67 C
582 19-02-2006 01:03:34 5.2 C 72 % 0.58 C
583 19-02-2006 01:13:34 5.2 C 71 % 0.38 C
584 19-02-2006 01:23:34 5.2 C 71 % 0.38 C
585 19-02-2006 01:33:34 5.2 C 71 % 0.38 C
586 19-02-2006 01:43:34 5.2 C 71 % 0.38 C
587 19-02-2006 01:53:34 5.1 C 72 % 0.48 C
588 19-02-2006 02:03:33 5 C 72 % 0.38 C
589 19-02-2006 02:13:33 5 C 72 % 0.38 C
590 19-02-2006 02:23:33 5 C 73 % 0.57 C
591 19-02-2006 02:33:34 5 C 73 % 0.57 C
592 19-02-2006 02:43:34 5.1 C 73 % 0.67 C
593 19-02-2006 02:54:35 5.1 C 73 % 0.67 C
594 19-02-2006 03:04:35 5.1 C 73 % 0.67 C
595 19-02-2006 03:14:35 5.1 C 74 % 0.86 C
596 19-02-2006 03:24:35 5.1 C 74 % 0.86 C
597 19-02-2006 03:34:35 5 C 75 % 0.95 C
598 19-02-2006 03:44:35 5 C 75 % 0.95 C
599 19-02-2006 03:54:35 5 C 76 % 1.13 C
600 19-02-2006 04:04:35 5.1 C 75 % 1.04 C
Sensor: Nr:Datum:Temp:Feuchte:Taupunkt:
Aussen-T/F 601 19-02-2006 04:14:35 4.9 C 77 % 1.22 C
602 19-02-2006 04:24:35 5.1 C 76 % 1.23 C
603 19-02-2006 04:34:35 5.3 C 75 % 1.24 C
604 19-02-2006 04:44:35 5.3 C 75 % 1.24 C
605 19-02-2006 04:54:35 5.2 C 75 % 1.14 C
606 19-02-2006 05:04:35 5.2 C 76 % 1.32 C
607 19-02-2006 05:14:35 5.1 C 76 % 1.23 C
608 19-02-2006 05:24:35 5.1 C 77 % 1.41 C
609 19-02-2006 05:34:35 5.1 C 77 % 1.41 C
610 19-02-2006 05:44:35 5.1 C 77 % 1.41 C
611 19-02-2006 05:54:35 5.2 C 77 % 1.51 C
612 19-02-2006 06:04:35 5.2 C 77 % 1.51 C
613 19-02-2006 06:14:35 5.4 C 75 % 1.33 C
614 19-02-2006 06:24:35 5.5 C 72 % 0.86 C
615 19-02-2006 06:34:36 5.3 C 72 % 0.67 C
616 19-02-2006 06:44:36 5.4 C 72 % 0.77 C
617 19-02-2006 06:54:36 5.3 C 73 % 0.86 C
618 19-02-2006 07:04:35 5.1 C 74 % 0.86 C
619 19-02-2006 07:14:35 5 C 75 % 0.95 C
620 19-02-2006 07:24:35 5 C 76 % 1.13 C
621 19-02-2006 07:34:35 5 C 76 % 1.13 C
622 19-02-2006 07:44:35 5 C 75 % 0.95 C
623 19-02-2006 07:54:36 5 C 75 % 0.95 C
624 19-02-2006 08:04:35 5 C 75 % 0.95 C
625 19-02-2006 08:14:35 4.9 C 75 % 0.85 C
Sensor: Nr:Datum:Temp:Feuchte:Taupunkt:
Aussen-T/F 626 19-02-2006 08:24:35 5.1 C 74 % 0.86 C
627 19-02-2006 08:34:36 5 C 74 % 0.76 C
628 19-02-2006 08:44:36 5 C 74 % 0.76 C
629 19-02-2006 08:54:36 5 C 73 % 0.57 C
630 19-02-2006 09:04:36 5.2 C 71 % 0.38 C
631 19-02-2006 09:14:36 5.4 C 70 % 0.38 C
632 19-02-2006 09:24:36 5.5 C 69 % 0.28 C
633 19-02-2006 09:34:35 5.9 C 69 % 0.66 C
634 19-02-2006 09:44:35 6 C 68 % 0.55 C
635 19-02-2006 09:54:36 6.1 C 67 % 0.44 C
636 19-02-2006 10:04:36 6.3 C 66 % 0.43 C
637 19-02-2006 10:14:36 6.4 C 66 % 0.52 C
638 19-02-2006 10:24:35 6.5 C 65 % 0.41 C
639 19-02-2006 10:34:36 6.6 C 64 % 0.29 C
640 19-02-2006 10:44:36 7 C 62 % 0.23 C
641 19-02-2006 10:54:36 6.8 C 62 % 0.04 C
642 19-02-2006 11:04:36 6.8 C 64 % 0.48 C
643 19-02-2006 11:14:37 7 C 62 % 0.23 C
644 19-02-2006 11:24:36 7.4 C 62 % 0.61 C
645 19-02-2006 11:34:36 7.5 C 61 % 0.48 C
646 19-02-2006 11:44:36 7.8 C 60 % 0.53 C
647 19-02-2006 11:54:36 8.2 C 59 % 0.68 C
648 19-02-2006 12:04:37 8 C 59 % 0.49 C
649 19-02-2006 12:14:37 8.3 C 58 % 0.54 C
650 19-02-2006 12:24:36 8.6 C 58 % 0.82 C
Sensor: Nr:Datum:Temp:Feuchte:Taupunkt:
Aussen-T/F 651 19-02-2006 12:34:36 9 C 56 % 0.71 C
652 19-02-2006 12:44:36 9.3 C 55 % 0.74 C
653 19-02-2006 12:54:36 9.2 C 55 % 0.64 C
654 19-02-2006 13:04:36 9.3 C 54 % 0.48 C
655 19-02-2006 13:14:36 9.5 C 54 % 0.67 C
656 19-02-2006 13:24:36 9.9 C 53 % 0.78 C
657 19-02-2006 13:34:36 10 C 51 % 0.34 C
658 19-02-2006 13:44:36 10 C 51 % 0.34 C
659 19-02-2006 13:54:36 10 C 50 % 0.07 C
660 19-02-2006 14:04:36 10.5 C 50 % 0.53 C
661 19-02-2006 14:14:36 10.7 C 48 % 0.15 C
662 19-02-2006 14:24:36 10.8 C 47 % -0.04 C
663 19-02-2006 14:34:36 11.2 C 46 % 0.02 C
664 19-02-2006 14:44:36 11.5 C 46 % 0.3 C
665 19-02-2006 14:54:36 11.4 C 46 % 0.21 C
666 19-02-2006 15:04:36 10.8 C 47 % -0.04 C
667 19-02-2006 15:14:36 10.6 C 49 % 0.35 C
668 19-02-2006 15:24:37 10.7 C 50 % 0.72 C
669 19-02-2006 15:34:36 10.7 C 49 % 0.44 C
670 19-02-2006 15:44:36 11 C 48 % 0.43 C
671 19-02-2006 15:54:37 10.7 C 49 % 0.44 C
672 19-02-2006 16:04:37 10.7 C 50 % 0.72 C
673 19-02-2006 16:14:37 10.7 C 50 % 0.72 C
674 19-02-2006 16:24:37 10.7 C 50 % 0.72 C
675 19-02-2006 16:34:36 10.5 C 50 % 0.53 C
Sensor: Nr:Datum:Temp:Feuchte:Taupunkt:
Aussen-T/F 676 19-02-2006 16:44:36 10 C 52 % 0.61 C
677 19-02-2006 16:54:36 9.7 C 55 % 1.11 C
678 19-02-2006 17:04:37 9.5 C 55 % 0.92 C
679 19-02-2006 17:14:37 9.4 C 55 % 0.83 C
680 19-02-2006 17:24:37 9.3 C 56 % 0.99 C
681 19-02-2006 17:34:37 9.1 C 56 % 0.8 C
682 19-02-2006 17:44:37 8.9 C 57 % 0.86 C
683 19-02-2006 17:54:37 8.6 C 57 % 0.58 C
684 19-02-2006 18:04:37 8.5 C 58 % 0.72 C
685 19-02-2006 18:14:37 8.5 C 58 % 0.72 C
686 19-02-2006 18:24:37 8.4 C 58 % 0.63 C
687 19-02-2006 18:34:36 8.3 C 58 % 0.54 C
688 19-02-2006 18:44:36 8.2 C 58 % 0.44 C
689 19-02-2006 18:54:37 8.2 C 58 % 0.44 C
690 19-02-2006 19:04:37 8.1 C 58 % 0.35 C
691 19-02-2006 19:14:37 8.1 C 58 % 0.35 C
692 19-02-2006 19:24:37 8 C 58 % 0.25 C
693 19-02-2006 19:34:36 7.9 C 59 % 0.4 C
694 19-02-2006 19:44:36 7.9 C 59 % 0.4 C
695 19-02-2006 19:54:37 7.9 C 59 % 0.4 C
696 19-02-2006 20:04:37 7.9 C 59 % 0.4 C
697 19-02-2006 20:14:38 7.9 C 59 % 0.4 C
698 19-02-2006 20:24:37 7.8 C 58 % 0.07 C
699 19-02-2006 20:34:36 7.8 C 58 % 0.07 C
700 19-02-2006 20:44:36 7.8 C 58 % 0.07 C
Sensor: Nr:Datum:Temp:Feuchte:Taupunkt:
Aussen-T/F 701 19-02-2006 20:54:37 7.5 C 61 % 0.48 C
702 19-02-2006 21:04:39 7.3 C 61 % 0.29 C
703 19-02-2006 21:14:39 7.4 C 61 % 0.38 C
704 19-02-2006 21:24:38 7.5 C 60 % 0.25 C
705 19-02-2006 21:34:38 7.5 C 59 % 0.02 C
706 19-02-2006 21:44:38 7.4 C 59 % -0.07 C
707 19-02-2006 21:54:37 7.3 C 58 % -0.4 C
708 19-02-2006 22:04:39 7.3 C 58 % -0.4 C
709 19-02-2006 22:14:39 7.2 C 59 % -0.26 C
710 19-02-2006 22:24:37 6.9 C 61 % -0.09 C
711 19-02-2006 22:34:37 6.6 C 62 % -0.15 C
712 19-02-2006 22:44:37 6.4 C 62 % -0.34 C
713 19-02-2006 22:54:37 6.3 C 62 % -0.43 C
714 19-02-2006 23:04:37 6.3 C 62 % -0.43 C
715 19-02-2006 23:14:37 6.3 C 61 % -0.65 C
716 19-02-2006 23:24:37 6.2 C 62 % -0.53 C
717 19-02-2006 23:34:37 6.1 C 62 % -0.62 C
718 19-02-2006 23:44:37 6 C 61 % -0.94 C
719 19-02-2006 23:54:37 5.9 C 63 % -0.59 C
720 20-02-2006 00:04:38 5.7 C 64 % -0.56 C
721 20-02-2006 00:14:38 5.6 C 65 % -0.45 C
722 20-02-2006 00:24:38 5.6 C 65 % -0.45 C
723 20-02-2006 00:34:37 5.6 C 66 % -0.24 C
724 20-02-2006 00:44:37 5.5 C 66 % -0.33 C
725 20-02-2006 00:54:37 5.5 C 65 % -0.54 C
Sensor: Nr:Datum:Temp:Feuchte:Taupunkt:
Aussen-T/F 726 20-02-2006 01:04:38 5.4 C 66 % -0.43 C
727 20-02-2006 01:14:38 5.3 C 66 % -0.52 C
728 20-02-2006 01:24:38 5.1 C 66 % -0.71 C
729 20-02-2006 01:34:37 5 C 67 % -0.6 C
730 20-02-2006 01:44:37 5 C 67 % -0.6 C
731 20-02-2006 01:54:37 5.2 C 66 % -0.62 C
732 20-02-2006 02:04:37 5.3 C 66 % -0.52 C
733 20-02-2006 02:14:37 5.3 C 64 % -0.94 C
734 20-02-2006 02:24:37 5.1 C 65 % -0.92 C
735 20-02-2006 02:34:37 4.8 C 67 % -0.8 C
736 20-02-2006 02:44:37 4.7 C 68 % -0.69 C
737 20-02-2006 02:55:39 4.5 C 68 % -0.88 C
738 20-02-2006 03:05:39 4.5 C 69 % -0.68 C
739 20-02-2006 03:15:40 4.5 C 69 % -0.68 C
740 20-02-2006 03:25:40 4.6 C 69 % -0.58 C
741 20-02-2006 03:35:39 4.6 C 69 % -0.58 C
742 20-02-2006 03:45:39 4.6 C 69 % -0.58 C
743 20-02-2006 03:55:39 4.7 C 69 % -0.49 C
744 20-02-2006 04:05:39 4.7 C 69 % -0.49 C
745 20-02-2006 04:15:39 4.7 C 69 % -0.49 C
746 20-02-2006 04:25:39 4.8 C 69 % -0.39 C
747 20-02-2006 04:35:39 4.9 C 68 % -0.5 C
748 20-02-2006 04:45:40 5 C 66 % -0.81 C
749 20-02-2006 04:55:40 5 C 66 % -0.81 C
750 20-02-2006 05:05:39 4.9 C 68 % -0.5 C
Sensor: Nr:Datum:Temp:Feuchte:Taupunkt:
Aussen-T/F 751 20-02-2006 05:15:39 4.7 C 69 % -0.49 C
752 20-02-2006 05:25:39 4.5 C 75 % 0.46 C
753 20-02-2006 05:35:40 4.3 C 78 % 0.81 C
754 20-02-2006 05:45:39 4.2 C 80 % 1.07 C
755 20-02-2006 05:55:39 4.1 C 82 % 1.31 C
756 20-02-2006 06:05:39 4 C 83 % 1.38 C
757 20-02-2006 06:15:40 4 C 84 % 1.55 C
758 20-02-2006 06:25:40 3.9 C 85 % 1.61 C
759 20-02-2006 06:35:39 3.9 C 85 % 1.61 C
760 20-02-2006 06:45:40 3.8 C 85 % 1.52 C
761 20-02-2006 06:55:40 3.8 C 85 % 1.52 C
762 20-02-2006 07:05:39 3.8 C 85 % 1.52 C
763 20-02-2006 07:15:39 3.8 C 86 % 1.68 C
764 20-02-2006 07:25:39 3.7 C 86 % 1.58 C
765 20-02-2006 07:35:39 3.6 C 86 % 1.48 C
766 20-02-2006 07:45:39 3.5 C 86 % 1.38 C
767 20-02-2006 07:55:39 3.4 C 86 % 1.29 C
768 20-02-2006 08:05:39 3.4 C 87 % 1.45 C
769 20-02-2006 08:15:40 3.4 C 87 % 1.45 C
770 20-02-2006 08:25:40 3.4 C 87 % 1.45 C
771 20-02-2006 08:35:40 3.3 C 87 % 1.35 C
772 20-02-2006 08:45:40 3.3 C 88 % 1.51 C
773 20-02-2006 08:55:40 3.2 C 87 % 1.25 C
774 20-02-2006 09:05:40 3.1 C 87 % 1.15 C
775 20-02-2006 09:15:40 3.1 C 88 % 1.31 C
Sensor: Nr:Datum:Temp:Feuchte:Taupunkt:
Aussen-T/F 776 20-02-2006 09:25:40 3.4 C 88 % 1.61 C
777 20-02-2006 09:35:39 3.3 C 88 % 1.51 C
778 20-02-2006 09:45:39 3.3 C 88 % 1.51 C
779 20-02-2006 09:55:39 3.2 C 88 % 1.41 C
780 20-02-2006 10:05:39 3.2 C 89 % 1.57 C
781 20-02-2006 10:15:40 3.3 C 89 % 1.67 C
782 20-02-2006 10:25:40 3.3 C 89 % 1.67 C
783 20-02-2006 10:35:40 3.5 C 89 % 1.86 C
784 20-02-2006 10:45:40 3.4 C 89 % 1.76 C
785 20-02-2006 10:55:40 3.4 C 89 % 1.76 C
786 20-02-2006 11:05:40 3.6 C 89 % 1.96 C
787 20-02-2006 11:15:40 3.7 C 89 % 2.06 C
788 20-02-2006 11:25:40 3.7 C 89 % 2.06 C
789 20-02-2006 11:35:40 3.7 C 89 % 2.06 C
790 20-02-2006 11:45:40 3.7 C 89 % 2.06 C
791 20-02-2006 11:55:40 3.8 C 89 % 2.16 C
792 20-02-2006 12:05:40 4.1 C 89 % 2.45 C
793 20-02-2006 12:15:40 4.4 C 89 % 2.75 C
794 20-02-2006 12:25:40 4.5 C 89 % 2.85 C
795 20-02-2006 12:35:40 4.7 C 88 % 2.89 C
796 20-02-2006 12:45:40 4.5 C 87 % 2.53 C
797 20-02-2006 12:55:40 4.5 C 86 % 2.37 C
798 20-02-2006 13:05:40 4.5 C 86 % 2.37 C
799 20-02-2006 13:15:40 4.8 C 86 % 2.66 C
800 20-02-2006 13:25:40 4.9 C 86 % 2.76 C
Sensor: Nr:Datum:Temp:Feuchte:Taupunkt:
Aussen-T/F 801 20-02-2006 13:35:40 5 C 84 % 2.53 C
802 20-02-2006 13:45:40 5.1 C 82 % 2.29 C
803 20-02-2006 13:55:40 5 C 81 % 2.02 C
804 20-02-2006 14:05:40 5.1 C 82 % 2.29 C
805 20-02-2006 14:15:41 5.2 C 81 % 2.21 C
806 20-02-2006 14:25:41 5.2 C 81 % 2.21 C
807 20-02-2006 14:35:40 5.4 C 81 % 2.41 C
808 20-02-2006 14:45:41 5.5 C 81 % 2.51 C
809 20-02-2006 14:55:41 5.6 C 81 % 2.6 C
810 20-02-2006 15:05:40 5.6 C 80 % 2.43 C
811 20-02-2006 15:15:40 5.5 C 80 % 2.33 C
812 20-02-2006 15:25:40 5.5 C 80 % 2.33 C
813 20-02-2006 15:35:40 5.4 C 81 % 2.41 C
814 20-02-2006 15:45:40 5.4 C 81 % 2.41 C
815 20-02-2006 15:55:40 5.3 C 81 % 2.31 C
816 20-02-2006 16:05:40 5.3 C 81 % 2.31 C
817 20-02-2006 16:15:41 5.2 C 82 % 2.39 C
818 20-02-2006 16:25:41 5.2 C 82 % 2.39 C
819 20-02-2006 16:35:41 5.1 C 82 % 2.29 C
820 20-02-2006 16:45:41 5 C 83 % 2.36 C
821 20-02-2006 16:55:41 4.9 C 84 % 2.43 C
822 20-02-2006 17:05:40 4.8 C 84 % 2.33 C
823 20-02-2006 17:15:40 4.7 C 84 % 2.23 C
824 20-02-2006 17:25:40 4.4 C 85 % 2.11 C
825 20-02-2006 17:35:40 4.4 C 86 % 2.27 C
Sensor: Nr:Datum:Temp:Feuchte:Taupunkt:
Aussen-T/F 826 20-02-2006 17:45:40 4.3 C 86 % 2.17 C
827 20-02-2006 17:55:40 4.2 C 87 % 2.23 C
828 20-02-2006 18:05:40 4.1 C 87 % 2.14 C
829 20-02-2006 18:15:41 4 C 87 % 2.04 C
830 20-02-2006 18:25:41 3.8 C 87 % 1.84 C
831 20-02-2006 18:35:41 3.7 C 87 % 1.74 C
832 20-02-2006 18:45:41 3.5 C 87 % 1.55 C
833 20-02-2006 18:55:41 3.6 C 87 % 1.64 C
834 20-02-2006 19:05:41 3.7 C 88 % 1.9 C
835 20-02-2006 19:15:40 3.5 C 88 % 1.7 C
836 20-02-2006 19:25:40 3.5 C 88 % 1.7 C
837 20-02-2006 19:35:40 3.6 C 88 % 1.8 C
838 20-02-2006 19:45:41 3.7 C 88 % 1.9 C
839 20-02-2006 19:55:41 3.7 C 89 % 2.06 C
840 20-02-2006 20:05:40 3.7 C 89 % 2.06 C
841 20-02-2006 20:15:40 3.7 C 89 % 2.06 C
842 20-02-2006 20:25:40 3.5 C 89 % 1.86 C
843 20-02-2006 20:35:41 3.5 C 89 % 1.86 C
844 20-02-2006 20:45:41 3.4 C 89 % 1.76 C
845 20-02-2006 20:55:41 3.4 C 89 % 1.76 C
846 20-02-2006 21:05:41 3.4 C 89 % 1.76 C
847 20-02-2006 21:15:41 3.3 C 89 % 1.67 C
848 20-02-2006 21:25:41 3.3 C 89 % 1.67 C
849 20-02-2006 21:35:42 3.2 C 89 % 1.57 C
850 20-02-2006 21:45:41 3.2 C 90 % 1.72 C
Sensor: Nr:Datum:Temp:Feuchte:Taupunkt:
Aussen-T/F 851 20-02-2006 21:55:41 3.1 C 90 % 1.62 C
852 20-02-2006 22:05:41 3 C 90 % 1.52 C
853 20-02-2006 22:15:41 3 C 90 % 1.52 C
854 20-02-2006 22:25:41 2.9 C 91 % 1.58 C
855 20-02-2006 22:35:41 2.9 C 91 % 1.58 C
856 20-02-2006 22:45:41 2.9 C 91 % 1.58 C
857 20-02-2006 22:55:41 2.8 C 91 % 1.48 C
858 20-02-2006 23:05:41 2.8 C 91 % 1.48 C
859 20-02-2006 23:15:41 2.8 C 91 % 1.48 C
860 20-02-2006 23:25:41 2.8 C 91 % 1.48 C
861 20-02-2006 23:35:42 2.8 C 91 % 1.48 C
862 20-02-2006 23:45:41 2.7 C 91 % 1.38 C
863 20-02-2006 23:55:41 2.7 C 91 % 1.38 C
864 21-02-2006 00:05:41 2.7 C 91 % 1.38 C
865 21-02-2006 00:15:41 2.7 C 91 % 1.38 C
866 21-02-2006 00:25:41 2.7 C 92 % 1.53 C
867 21-02-2006 00:35:41 2.7 C 92 % 1.53 C
868 21-02-2006 00:45:41 2.7 C 92 % 1.53 C
869 21-02-2006 00:55:41 2.8 C 92 % 1.63 C
870 21-02-2006 01:05:41 2.6 C 92 % 1.43 C
871 21-02-2006 01:15:42 2.6 C 92 % 1.43 C
872 21-02-2006 01:25:42 2.6 C 92 % 1.43 C
873 21-02-2006 01:35:41 2.7 C 92 % 1.53 C
874 21-02-2006 01:45:42 2.7 C 92 % 1.53 C
875 21-02-2006 01:55:42 2.7 C 92 % 1.53 C
Sensor: Nr:Datum:Temp:Feuchte:Taupunkt:
Aussen-T/F 876 21-02-2006 02:05:42 2.7 C 92 % 1.53 C
877 21-02-2006 02:15:42 2.6 C 92 % 1.43 C
878 21-02-2006 02:25:42 2.6 C 92 % 1.43 C
879 21-02-2006 02:35:41 2.6 C 92 % 1.43 C
880 21-02-2006 02:46:43 2.4 C 92 % 1.24 C
881 21-02-2006 02:56:43 2.3 C 92 % 1.14 C
882 21-02-2006 03:06:43 2.5 C 92 % 1.34 C
883 21-02-2006 03:16:44 2.5 C 92 % 1.34 C
884 21-02-2006 03:26:44 2.5 C 92 % 1.34 C
885 21-02-2006 03:36:43 2.4 C 92 % 1.24 C
886 21-02-2006 03:46:43 2.2 C 92 % 1.04 C
887 21-02-2006 03:56:43 2.3 C 92 % 1.14 C
888 21-02-2006 04:06:44 2.1 C 92 % 0.94 C
889 21-02-2006 04:16:43 1.6 C 92 % 0.44 C
890 21-02-2006 04:26:44 1.7 C 92 % 0.54 C
891 21-02-2006 04:36:43 1.7 C 92 % 0.54 C
892 21-02-2006 04:46:43 1.7 C 92 % 0.54 C
893 21-02-2006 04:56:43 1.9 C 93 % 0.89 C
894 21-02-2006 05:06:43 1.9 C 93 % 0.89 C
895 21-02-2006 05:16:44 1.7 C 93 % 0.69 C
896 21-02-2006 05:26:44 1.8 C 93 % 0.79 C
897 21-02-2006 05:36:43 1.9 C 93 % 0.89 C
898 21-02-2006 05:46:44 1.8 C 93 % 0.79 C
899 21-02-2006 05:56:44 1.8 C 93 % 0.79 C
900 21-02-2006 06:06:44 1.9 C 93 % 0.89 C
Sensor: Nr:Datum:Temp:Feuchte:Taupunkt:
Aussen-T/F 901 21-02-2006 06:16:43 1.8 C 93 % 0.79 C
902 21-02-2006 06:26:44 1.7 C 93 % 0.69 C
903 21-02-2006 06:36:43 1.7 C 93 % 0.69 C
904 21-02-2006 06:46:43 1.7 C 93 % 0.69 C
905 21-02-2006 06:56:44 1.6 C 93 % 0.59 C
906 21-02-2006 07:06:43 1.6 C 94 % 0.74 C
907 21-02-2006 07:16:43 1.6 C 94 % 0.74 C
908 21-02-2006 07:26:43 1.7 C 94 % 0.84 C
909 21-02-2006 07:36:43 1.7 C 94 % 0.84 C
910 21-02-2006 07:46:43 1.8 C 94 % 0.94 C
911 21-02-2006 07:56:43 1.9 C 94 % 1.04 C
912 21-02-2006 08:06:44 2 C 94 % 1.14 C
913 21-02-2006 08:16:44 2.1 C 94 % 1.24 C
914 21-02-2006 08:26:44 2 C 94 % 1.14 C
915 21-02-2006 08:36:43 2 C 94 % 1.14 C
916 21-02-2006 08:46:44 2 C 94 % 1.14 C
917 21-02-2006 08:56:44 2.1 C 94 % 1.24 C
918 21-02-2006 09:06:43 2.2 C 94 % 1.34 C
919 21-02-2006 09:16:43 2.3 C 94 % 1.44 C
920 21-02-2006 09:26:43 2.2 C 94 % 1.34 C
921 21-02-2006 09:36:44 2.2 C 94 % 1.34 C
922 21-02-2006 09:46:43 2.2 C 94 % 1.34 C
923 21-02-2006 09:56:43 2.4 C 94 % 1.54 C
924 21-02-2006 10:06:44 2.6 C 94 % 1.73 C
925 21-02-2006 10:16:44 2.7 C 94 % 1.83 C
Sensor: Nr:Datum:Temp:Feuchte:Taupunkt:
Aussen-T/F 926 21-02-2006 10:26:44 2.8 C 94 % 1.93 C
927 21-02-2006 10:36:44 2.8 C 93 % 1.78 C
928 21-02-2006 10:46:44 3 C 92 % 1.83 C
929 21-02-2006 10:56:44 3.2 C 92 % 2.03 C
930 21-02-2006 11:06:44 3.3 C 91 % 1.98 C
931 21-02-2006 11:16:44 3.4 C 90 % 1.92 C
932 21-02-2006 11:26:44 3.4 C 89 % 1.76 C
933 21-02-2006 11:36:43 3.4 C 88 % 1.61 C
934 21-02-2006 11:46:44 3.5 C 87 % 1.55 C
935 21-02-2006 11:56:44 3.6 C 87 % 1.64 C
936 21-02-2006 12:06:44 3.7 C 86 % 1.58 C
937 21-02-2006 12:16:44 3.7 C 86 % 1.58 C
938 21-02-2006 12:26:44 3.8 C 86 % 1.68 C
939 21-02-2006 12:36:44 3.7 C 85 % 1.42 C
940 21-02-2006 12:46:44 3.7 C 85 % 1.42 C
941 21-02-2006 12:56:44 3.6 C 85 % 1.32 C
942 21-02-2006 13:06:44 3.7 C 85 % 1.42 C
943 21-02-2006 13:16:44 3.7 C 85 % 1.42 C
944 21-02-2006 13:26:44 3.7 C 84 % 1.25 C
945 21-02-2006 13:36:45 3.6 C 84 % 1.16 C
946 21-02-2006 13:46:44 3.7 C 84 % 1.25 C
947 21-02-2006 13:56:44 3.7 C 84 % 1.25 C
948 21-02-2006 14:06:45 3.8 C 84 % 1.35 C
949 21-02-2006 14:16:44 4 C 83 % 1.38 C
950 21-02-2006 14:26:44 4 C 82 % 1.21 C
Sensor: Nr:Datum:Temp:Feuchte:Taupunkt:
Aussen-T/F 951 21-02-2006 14:36:44 4.1 C 81 % 1.14 C
952 21-02-2006 14:46:44 4.1 C 81 % 1.14 C
953 21-02-2006 14:56:44 4.3 C 81 % 1.34 C
954 21-02-2006 15:06:44 4.5 C 80 % 1.36 C
955 21-02-2006 15:16:44 4.6 C 79 % 1.28 C
956 21-02-2006 15:26:44 4.8 C 79 % 1.47 C
957 21-02-2006 15:36:44 4.8 C 77 % 1.12 C
958 21-02-2006 15:46:44 4.7 C 76 % 0.84 C
959 21-02-2006 15:56:44 4.8 C 77 % 1.12 C
960 21-02-2006 16:06:44 4.7 C 75 % 0.66 C
961 21-02-2006 16:16:45 4.6 C 75 % 0.56 C
962 21-02-2006 16:26:45 4.5 C 76 % 0.65 C
963 21-02-2006 16:36:44 4.5 C 77 % 0.83 C
964 21-02-2006 16:46:45 4.4 C 77 % 0.73 C
965 21-02-2006 16:56:45 4.3 C 76 % 0.45 C
966 21-02-2006 17:06:44 4.3 C 77 % 0.63 C
967 21-02-2006 17:16:45 4.2 C 77 % 0.54 C
968 21-02-2006 17:26:45 4.1 C 77 % 0.44 C
969 21-02-2006 17:36:45 4.1 C 78 % 0.62 C
970 21-02-2006 17:46:44 4.1 C 78 % 0.62 C
971 21-02-2006 17:56:44 4 C 77 % 0.34 C
972 21-02-2006 18:06:44 3.8 C 78 % 0.33 C
973 21-02-2006 18:16:45 3.7 C 78 % 0.23 C
974 21-02-2006 18:26:45 3.7 C 78 % 0.23 C
975 21-02-2006 18:36:45 3.6 C 78 % 0.13 C
Sensor: Nr:Datum:Temp:Feuchte:Taupunkt:
Aussen-T/F 976 21-02-2006 18:46:45 3.6 C 78 % 0.13 C
977 21-02-2006 18:56:45 3.6 C 77 % -0.05 C
978 21-02-2006 19:06:45 3.6 C 78 % 0.13 C
979 21-02-2006 19:16:45 3.6 C 77 % -0.05 C
980 21-02-2006 19:26:45 3.6 C 77 % -0.05 C
981 21-02-2006 19:36:44 3.6 C 77 % -0.05 C
982 21-02-2006 19:46:45 3.6 C 76 % -0.22 C
983 21-02-2006 19:56:45 3.5 C 77 % -0.14 C
984 21-02-2006 20:06:44 3.5 C 76 % -0.32 C
985 21-02-2006 20:16:45 3.5 C 76 % -0.32 C
986 21-02-2006 20:26:45 3.4 C 76 % -0.42 C
987 21-02-2006 20:36:45 3.4 C 76 % -0.42 C
988 21-02-2006 20:46:45 3.4 C 76 % -0.42 C
989 21-02-2006 20:56:45 3.4 C 76 % -0.42 C
990 21-02-2006 21:06:45 3.4 C 76 % -0.42 C
991 21-02-2006 21:16:45 3.4 C 75 % -0.6 C
992 21-02-2006 21:26:45 3.4 C 75 % -0.6 C
993 21-02-2006 21:36:44 3.4 C 75 % -0.6 C
994 21-02-2006 21:46:45 3.4 C 76 % -0.42 C
995 21-02-2006 21:56:45 3.3 C 76 % -0.52 C
996 21-02-2006 22:06:45 3.3 C 75 % -0.7 C
997 21-02-2006 22:16:45 3.3 C 75 % -0.7 C
998 21-02-2006 22:26:45 3.2 C 74 % -0.98 C
999 21-02-2006 22:36:45 3.2 C 74 % -0.98 C
1000 21-02-2006 22:46:44 3.2 C 74 % -0.98 C
Sensor: Nr:Datum:Temp:Feuchte:Taupunkt:
Aussen-T/F 1001 21-02-2006 22:56:44 3.2 C 75 % -0.79 C
1002 21-02-2006 23:06:45 3.2 C 75 % -0.79 C
1003 21-02-2006 23:16:45 3.1 C 73 % -1.26 C
1004 21-02-2006 23:26:46 3.1 C 73 % -1.26 C
1005 21-02-2006 23:36:45 3.1 C 73 % -1.26 C
1006 21-02-2006 23:46:45 3 C 72 % -1.54 C
1007 21-02-2006 23:56:45 3 C 72 % -1.54 C
1008 22-02-2006 00:06:45 3 C 71 % -1.73 C
1009 22-02-2006 00:16:45 2.9 C 72 % -1.64 C
1010 22-02-2006 00:26:45 2.9 C 72 % -1.64 C
1011 22-02-2006 00:36:46 2.9 C 72 % -1.64 C
1012 22-02-2006 00:46:46 2.9 C 72 % -1.64 C
1013 22-02-2006 00:56:46 2.9 C 72 % -1.64 C
1014 22-02-2006 01:06:45 2.9 C 72 % -1.64 C
1015 22-02-2006 01:16:46 2.9 C 71 % -1.83 C
1016 22-02-2006 01:26:46 2.8 C 71 % -1.92 C
1017 22-02-2006 01:36:45 2.8 C 71 % -1.92 C
1018 22-02-2006 01:46:45 2.8 C 71 % -1.92 C
1019 22-02-2006 01:56:45 2.8 C 72 % -1.73 C
1020 22-02-2006 02:06:45 2.8 C 71 % -1.92 C
1021 22-02-2006 02:16:46 2.7 C 71 % -2.02 C
1022 22-02-2006 02:26:46 2.7 C 71 % -2.02 C
1023 22-02-2006 02:36:46 2.7 C 71 % -2.02 C
1024 22-02-2006 02:47:47 2.7 C 71 % -2.02 C
1025 22-02-2006 02:57:47 2.6 C 71 % -2.12 C
Sensor: Nr:Datum:Temp:Feuchte:Taupunkt:
Aussen-T/F 1026 22-02-2006 03:07:47 2.6 C 71 % -2.12 C
1027 22-02-2006 03:17:47 2.6 C 71 % -2.12 C
1028 22-02-2006 03:27:47 2.6 C 72 % -1.93 C
1029 22-02-2006 03:37:47 2.6 C 72 % -1.93 C
1030 22-02-2006 03:47:47 2.6 C 72 % -1.93 C
1031 22-02-2006 03:57:47 2.5 C 71 % -2.21 C
1032 22-02-2006 04:07:47 2.5 C 71 % -2.21 C
1033 22-02-2006 04:17:47 2.5 C 71 % -2.21 C
1034 22-02-2006 04:27:47 2.5 C 71 % -2.21 C
1035 22-02-2006 04:37:47 2.5 C 71 % -2.21 C
1036 22-02-2006 04:47:47 2.5 C 71 % -2.21 C
1037 22-02-2006 04:57:47 2.5 C 71 % -2.21 C
1038 22-02-2006 05:07:47 2.5 C 70 % -2.4 C
1039 22-02-2006 05:17:47 2.5 C 71 % -2.21 C
1040 22-02-2006 05:27:47 2.4 C 71 % -2.31 C
1041 22-02-2006 05:37:47 2.4 C 72 % -2.12 C
1042 22-02-2006 05:47:47 2.4 C 72 % -2.12 C
1043 22-02-2006 05:57:47 2.3 C 73 % -2.03 C
1044 22-02-2006 06:07:47 2.3 C 73 % -2.03 C
1045 22-02-2006 06:17:47 2.3 C 73 % -2.03 C
1046 22-02-2006 06:27:47 2.3 C 73 % -2.03 C
1047 22-02-2006 06:37:48 2.3 C 74 % -1.85 C
1048 22-02-2006 06:47:47 2.3 C 73 % -2.03 C
1049 22-02-2006 06:57:47 2.3 C 74 % -1.85 C
1050 22-02-2006 07:07:47 2.3 C 73 % -2.03 C
Sensor: Nr:Datum:Temp:Feuchte:Taupunkt:
Aussen-T/F 1051 22-02-2006 07:17:47 2.4 C 73 % -1.93 C
1052 22-02-2006 07:27:47 2.4 C 72 % -2.12 C
1053 22-02-2006 07:37:48 2.5 C 72 % -2.02 C
1054 22-02-2006 07:47:47 2.5 C 72 % -2.02 C
1055 22-02-2006 07:57:47 2.5 C 72 % -2.02 C
1056 22-02-2006 08:07:47 2.6 C 71 % -2.12 C
1057 22-02-2006 08:17:47 2.6 C 70 % -2.31 C
1058 22-02-2006 08:27:47 2.6 C 70 % -2.31 C
1059 22-02-2006 08:37:48 2.7 C 69 % -2.4 C
1060 22-02-2006 08:47:47 2.7 C 68 % -2.6 C
1061 22-02-2006 08:57:47 2.7 C 67 % -2.8 C
1062 22-02-2006 09:07:48 2.7 C 67 % -2.8 C
1063 22-02-2006 09:17:48 2.7 C 67 % -2.8 C
1064 22-02-2006 09:27:49 2.7 C 65 % -3.21 C
1065 22-02-2006 09:37:47 2.8 C 65 % -3.11 C
1066 22-02-2006 09:47:48 2.7 C 64 % -3.41 C
1067 22-02-2006 09:57:49 2.7 C 64 % -3.41 C
1068 22-02-2006 10:07:47 2.7 C 64 % -3.41 C
1069 22-02-2006 10:17:47 2.7 C 64 % -3.41 C
1070 22-02-2006 10:27:47 2.7 C 64 % -3.41 C
1071 22-02-2006 10:37:48 2.8 C 63 % -3.53 C
1072 22-02-2006 10:47:47 2.7 C 63 % -3.62 C
1073 22-02-2006 10:57:47 2.7 C 63 % -3.62 C
1074 22-02-2006 11:07:48 2.7 C 63 % -3.62 C
1075 22-02-2006 11:17:48 2.7 C 63 % -3.62 C
Sensor: Nr:Datum:Temp:Feuchte:Taupunkt:
Aussen-T/F 1076 22-02-2006 11:27:48 2.8 C 63 % -3.53 C
1077 22-02-2006 11:37:48 2.8 C 63 % -3.53 C
1078 22-02-2006 11:47:48 2.9 C 63 % -3.43 C
1079 22-02-2006 11:57:48 2.8 C 62 % -3.74 C
1080 22-02-2006 12:07:48 2.8 C 62 % -3.74 C
1081 22-02-2006 12:17:48 3 C 61 % -3.77 C
1082 22-02-2006 12:27:48 3.2 C 60 % -3.8 C
1083 22-02-2006 12:37:48 3.4 C 59 % -3.84 C
1084 22-02-2006 12:47:48 3.4 C 58 % -4.06 C
1085 22-02-2006 12:57:48 3.5 C 57 % -4.2 C
1086 22-02-2006 13:07:48 3.6 C 56 % -4.34 C
1087 22-02-2006 13:17:48 3.6 C 56 % -4.34 C
1088 22-02-2006 13:27:48 3.5 C 54 % -4.91 C
1089 22-02-2006 13:37:48 3.7 C 53 % -4.97 C
1090 22-02-2006 13:47:48 3.9 C 53 % -4.79 C
1091 22-02-2006 13:57:48 3.8 C 53 % -4.88 C
1092 22-02-2006 14:07:48 3.9 C 52 % -5.04 C
1093 22-02-2006 14:17:48 3.9 C 52 % -5.04 C
1094 22-02-2006 14:27:48 3.8 C 53 % -4.88 C
1095 22-02-2006 14:37:48 3.5 C 54 % -4.91 C
1096 22-02-2006 14:47:48 3.5 C 54 % -4.91 C
1097 22-02-2006 14:57:48 3.4 C 53 % -5.25 C
1098 22-02-2006 15:07:48 3.3 C 54 % -5.1 C
1099 22-02-2006 15:17:49 3.3 C 54 % -5.1 C
1100 22-02-2006 15:27:49 3.3 C 53 % -5.35 C
Sensor: Nr:Datum:Temp:Feuchte:Taupunkt:
Aussen-T/F 1101 22-02-2006 15:37:48 3.3 C 53 % -5.35 C
1102 22-02-2006 15:47:48 3.1 C 54 % -5.29 C
1103 22-02-2006 15:57:48 3 C 54 % -5.38 C
1104 22-02-2006 16:07:49 2.7 C 55 % -5.42 C
1105 22-02-2006 16:17:48 2.6 C 56 % -5.28 C
1106 22-02-2006 16:27:48 2.5 C 56 % -5.37 C
1107 22-02-2006 16:37:48 2.5 C 56 % -5.37 C
1108 22-02-2006 16:47:48 2.4 C 56 % -5.46 C
1109 22-02-2006 16:57:49 2.4 C 56 % -5.46 C
1110 22-02-2006 17:07:48 2.3 C 56 % -5.56 C
1111 22-02-2006 17:17:48 2.3 C 57 % -5.32 C
1112 22-02-2006 17:27:48 2.1 C 57 % -5.51 C
1113 22-02-2006 17:37:49 2.1 C 58 % -5.28 C
1114 22-02-2006 17:47:49 2.2 C 59 % -4.96 C
1115 22-02-2006 17:57:49 2 C 59 % -5.15 C
1116 22-02-2006 18:07:50 1.9 C 60 % -5.03 C
1117 22-02-2006 18:17:49 1.9 C 60 % -5.03 C
1118 22-02-2006 18:27:49 1.9 C 60 % -5.03 C
1119 22-02-2006 18:37:49 1.8 C 60 % -5.12 C
1120 22-02-2006 18:47:49 1.8 C 60 % -5.12 C
1121 22-02-2006 18:57:49 1.8 C 60 % -5.12 C
1122 22-02-2006 19:07:49 1.8 C 60 % -5.12 C
1123 22-02-2006 19:17:49 1.8 C 60 % -5.12 C
1124 22-02-2006 19:27:49 1.7 C 59 % -5.43 C
1125 22-02-2006 19:37:48 1.6 C 59 % -5.53 C
Sensor: Nr:Datum:Temp:Feuchte:Taupunkt:
Aussen-T/F 1126 22-02-2006 19:47:49 1.7 C 60 % -5.21 C
1127 22-02-2006 19:57:49 1.7 C 59 % -5.43 C
1128 22-02-2006 20:07:49 1.7 C 59 % -5.43 C
1129 22-02-2006 20:17:49 1.7 C 59 % -5.43 C
1130 22-02-2006 20:27:49 1.7 C 59 % -5.43 C
1131 22-02-2006 20:37:48 1.7 C 60 % -5.21 C
1132 22-02-2006 20:47:48 1.6 C 60 % -5.31 C
1133 22-02-2006 20:57:48 1.6 C 60 % -5.31 C
1134 22-02-2006 21:07:49 1.6 C 60 % -5.31 C
1135 22-02-2006 21:17:48 1.6 C 59 % -5.53 C
1136 22-02-2006 21:27:48 1.6 C 59 % -5.53 C
1137 22-02-2006 21:37:48 1.5 C 58 % -5.85 C
1138 22-02-2006 21:47:49 1.5 C 58 % -5.85 C
1139 22-02-2006 21:57:49 1.5 C 58 % -5.85 C
1140 22-02-2006 22:07:49 1.4 C 58 % -5.94 C
1141 22-02-2006 22:17:49 1.4 C 57 % -6.17 C
1142 22-02-2006 22:27:49 1.4 C 58 % -5.94 C
1143 22-02-2006 22:37:49 1.4 C 58 % -5.94 C
1144 22-02-2006 22:47:49 1.3 C 58 % -6.03 C
1145 22-02-2006 22:57:49 1.3 C 58 % -6.03 C
1146 22-02-2006 23:07:49 1.3 C 58 % -6.03 C
1147 22-02-2006 23:17:49 1.3 C 58 % -6.03 C
1148 22-02-2006 23:27:49 1.3 C 59 % -5.81 C
1149 22-02-2006 23:37:49 1.3 C 59 % -5.81 C
1150 22-02-2006 23:47:49 1.2 C 58 % -6.13 C
Sensor: Nr:Datum:Temp:Feuchte:Taupunkt:
Aussen-T/F 1151 22-02-2006 23:57:49 1.2 C 58 % -6.13 C
1152 23-02-2006 00:07:49 1.2 C 58 % -6.13 C
1153 23-02-2006 00:17:49 1.2 C 59 % -5.91 C
1154 23-02-2006 00:27:49 1.2 C 59 % -5.91 C
1155 23-02-2006 00:37:50 1.1 C 59 % -6 C
1156 23-02-2006 00:47:49 1.1 C 59 % -6 C
1157 23-02-2006 00:57:49 1.2 C 60 % -5.69 C
1158 23-02-2006 01:07:50 1.2 C 60 % -5.69 C
1159 23-02-2006 01:17:50 1.1 C 59 % -6 C
1160 23-02-2006 01:27:50 1.1 C 59 % -6 C
1161 23-02-2006 01:37:50 1.1 C 58 % -6.22 C
1162 23-02-2006 01:47:49 1 C 58 % -6.32 C
1163 23-02-2006 01:57:49 1 C 57 % -6.54 C
1164 23-02-2006 02:07:49 1 C 58 % -6.32 C
1165 23-02-2006 02:17:49 1 C 57 % -6.54 C
1166 23-02-2006 02:27:49 1 C 57 % -6.54 C
1167 23-02-2006 02:37:49 0.9 C 58 % -6.41 C
1168 23-02-2006 02:48:51 0.9 C 58 % -6.41 C
1169 23-02-2006 02:58:51 0.9 C 58 % -6.41 C
1170 23-02-2006 03:08:52 0.9 C 58 % -6.41 C
1171 23-02-2006 03:18:51 0.8 C 58 % -6.5 C
1172 23-02-2006 03:28:51 0.8 C 57 % -6.73 C
1173 23-02-2006 03:38:51 0.7 C 57 % -6.82 C
1174 23-02-2006 03:48:51 0.7 C 57 % -6.82 C
1175 23-02-2006 03:58:51 0.7 C 57 % -6.82 C
Sensor: Nr:Datum:Temp:Feuchte:Taupunkt:
Aussen-T/F 1176 23-02-2006 04:08:51 0.7 C 57 % -6.82 C
1177 23-02-2006 04:18:51 0.7 C 57 % -6.82 C
1178 23-02-2006 04:28:51 0.7 C 57 % -6.82 C
1179 23-02-2006 04:38:52 0.6 C 57 % -6.92 C
1180 23-02-2006 04:48:51 0.6 C 57 % -6.92 C
1181 23-02-2006 04:58:51 0.6 C 57 % -6.92 C
1182 23-02-2006 05:08:52 0.5 C 56 % -7.24 C
1183 23-02-2006 05:18:51 0.5 C 56 % -7.24 C
1184 23-02-2006 05:28:51 0.4 C 56 % -7.33 C
1185 23-02-2006 05:38:51 0.4 C 55 % -7.57 C
1186 23-02-2006 05:48:51 0.3 C 55 % -7.66 C
1187 23-02-2006 05:58:51 0.2 C 55 % -7.75 C
1188 23-02-2006 06:08:52 0.2 C 55 % -7.75 C
1189 23-02-2006 06:18:51 0.1 C 55 % -7.85 C
1190 23-02-2006 06:28:51 0.1 C 55 % -7.85 C
1191 23-02-2006 06:38:51 0.1 C 55 % -7.85 C
1192 23-02-2006 06:48:51 0.1 C 56 % -7.61 C
1193 23-02-2006 06:58:51 0.1 C 56 % -7.61 C
1194 23-02-2006 07:08:51 0 C 56 % -7.71 C
1195 23-02-2006 07:18:51 0 C 57 % -7.48 C
1196 23-02-2006 07:28:52 0 C 57 % -7.48 C
1197 23-02-2006 07:38:51 0 C 57 % -7.48 C
1198 23-02-2006 07:48:51 0 C 58 % -7.26 C
1199 23-02-2006 07:58:51 0 C 58 % -7.26 C
1200 23-02-2006 08:08:51 0.1 C 58 % -7.16 C
Sensor: Nr:Datum:Temp:Feuchte:Taupunkt:
Aussen-T/F 1201 23-02-2006 08:18:51 0.1 C 57 % -7.39 C
1202 23-02-2006 08:28:51 0.1 C 57 % -7.39 C
1203 23-02-2006 08:38:52 0.1 C 56 % -7.61 C
1204 23-02-2006 08:48:51 0.1 C 56 % -7.61 C
1205 23-02-2006 08:58:51 0.1 C 56 % -7.61 C
1206 23-02-2006 09:08:52 0.2 C 56 % -7.52 C
1207 23-02-2006 09:18:52 0.1 C 56 % -7.61 C
1208 23-02-2006 09:28:52 0.2 C 56 % -7.52 C
1209 23-02-2006 09:38:51 0.4 C 56 % -7.33 C
1210 23-02-2006 09:48:52 0.6 C 56 % -7.15 C
1211 23-02-2006 09:58:52 0.8 C 56 % -6.96 C
1212 23-02-2006 10:08:51 1 C 54 % -7.24 C
1213 23-02-2006 10:18:51 1.1 C 54 % -7.15 C
1214 23-02-2006 10:28:51 1.1 C 53 % -7.39 C
1215 23-02-2006 10:38:52 1.1 C 53 % -7.39 C
1216 23-02-2006 10:48:51 1.2 C 53 % -7.3 C
1217 23-02-2006 10:58:51 1.3 C 53 % -7.21 C
1218 23-02-2006 11:08:52 1.4 C 54 % -6.87 C
1219 23-02-2006 11:18:52 1.5 C 53 % -7.02 C
1220 23-02-2006 11:28:52 1.7 C 52 % -7.08 C
1221 23-02-2006 11:38:52 1.9 C 52 % -6.89 C
1222 23-02-2006 11:48:52 1.8 C 51 % -7.24 C
1223 23-02-2006 11:58:52 2 C 50 % -7.31 C
1224 23-02-2006 12:08:52 2.6 C 49 % -7.02 C
1225 23-02-2006 12:18:51 2.9 C 47 % -7.28 C
Sensor: Nr:Datum:Temp:Feuchte:Taupunkt:
Aussen-T/F 1226 23-02-2006 12:28:51 3.2 C 45 % -7.57 C
1227 23-02-2006 12:38:52 3.5 C 42 % -8.18 C
1228 23-02-2006 12:48:51 3.6 C 42 % -8.09 C
1229 23-02-2006 12:58:51 3.7 C 42 % -8 C
1230 23-02-2006 13:08:52 3.8 C 42 % -7.91 C
1231 23-02-2006 13:18:52 4 C 40 % -8.35 C
1232 23-02-2006 13:28:52 3.8 C 41 % -8.22 C
1233 23-02-2006 13:38:52 3.7 C 41 % -8.31 C
1234 23-02-2006 13:48:52 3.5 C 40 % -8.8 C
1235 23-02-2006 13:58:52 3.4 C 41 % -8.58 C
1236 23-02-2006 14:08:52 3.5 C 42 % -8.18 C
1237 23-02-2006 14:18:52 3.4 C 41 % -8.58 C
1238 23-02-2006 14:28:52 3.4 C 40 % -8.89 C
1239 23-02-2006 14:38:53 3.5 C 41 % -8.49 C
1240 23-02-2006 14:48:52 3.6 C 40 % -8.71 C
1241 23-02-2006 14:58:52 3.7 C 40 % -8.62 C
1242 23-02-2006 15:08:53 3.6 C 40 % -8.71 C
1243 23-02-2006 15:18:52 3.4 C 40 % -8.89 C
1244 23-02-2006 15:28:52 3.2 C 41 % -8.76 C
1245 23-02-2006 15:38:52 3.2 C 41 % -8.76 C
1246 23-02-2006 15:48:52 3 C 41 % -8.94 C
1247 23-02-2006 15:58:52 3 C 42 % -8.63 C
1248 23-02-2006 16:08:52 2.8 C 42 % -8.81 C
1249 23-02-2006 16:18:52 2.7 C 43 % -8.6 C
1250 23-02-2006 16:28:52 2.5 C 42 % -9.08 C
Sensor: Nr:Datum:Temp:Feuchte:Taupunkt:
Aussen-T/F 1251 23-02-2006 16:38:52 2.4 C 43 % -8.88 C
1252 23-02-2006 16:48:52 2.3 C 43 % -8.97 C
1253 23-02-2006 16:58:52 2.3 C 44 % -8.67 C
1254 23-02-2006 17:08:53 2.3 C 44 % -8.67 C
1255 23-02-2006 17:18:53 2.2 C 44 % -8.77 C
1256 23-02-2006 17:28:53 2.2 C 45 % -8.48 C
1257 23-02-2006 17:38:54 2.2 C 45 % -8.48 C
1258 23-02-2006 17:48:52 2 C 45 % -8.66 C
1259 23-02-2006 17:58:52 1.9 C 47 % -8.2 C
1260 23-02-2006 18:08:52 1.8 C 47 % -8.29 C
1261 23-02-2006 18:18:53 1.7 C 47 % -8.38 C
1262 23-02-2006 18:28:53 1.6 C 47 % -8.47 C
1263 23-02-2006 18:38:53 1.5 C 47 % -8.56 C
1264 23-02-2006 18:48:53 1.5 C 48 % -8.29 C
1265 23-02-2006 18:58:53 1.4 C 48 % -8.39 C
1266 23-02-2006 19:08:53 1.3 C 49 % -8.21 C
1267 23-02-2006 19:18:52 1.3 C 49 % -8.21 C
1268 23-02-2006 19:28:52 1.3 C 48 % -8.48 C
1269 23-02-2006 19:38:52 1.3 C 47 % -8.75 C
1270 23-02-2006 19:48:53 1.3 C 48 % -8.48 C
1271 23-02-2006 19:58:53 1.2 C 49 % -8.31 C
1272 23-02-2006 20:08:52 1.2 C 49 % -8.31 C
1273 23-02-2006 20:18:52 1.2 C 49 % -8.31 C
1274 23-02-2006 20:28:52 1.1 C 48 % -8.66 C
1275 23-02-2006 20:38:54 1.1 C 48 % -8.66 C
Sensor: Nr:Datum:Temp:Feuchte:Taupunkt:
Aussen-T/F 1276 23-02-2006 20:48:53 1 C 47 % -9.02 C
1277 23-02-2006 20:58:53 1 C 47 % -9.02 C
1278 23-02-2006 21:08:53 1 C 47 % -9.02 C
1279 23-02-2006 21:18:53 0.9 C 48 % -8.85 C
1280 23-02-2006 21:28:53 0.9 C 48 % -8.85 C
1281 23-02-2006 21:38:53 0.8 C 48 % -8.94 C
1282 23-02-2006 21:48:53 0.8 C 49 % -8.68 C
1283 23-02-2006 21:58:53 0.8 C 50 % -8.42 C
1284 23-02-2006 22:08:53 0.7 C 50 % -8.51 C
1285 23-02-2006 22:18:53 0.7 C 50 % -8.51 C
1286 23-02-2006 22:28:53 0.7 C 51 % -8.26 C
1287 23-02-2006 22:38:53 0.7 C 52 % -8.01 C
1288 23-02-2006 22:48:53 0.6 C 52 % -8.1 C
1289 23-02-2006 22:58:53 0.6 C 52 % -8.1 C
1290 23-02-2006 23:08:53 0.6 C 53 % -7.86 C
1291 23-02-2006 23:18:53 0.6 C 54 % -7.62 C
1292 23-02-2006 23:28:53 0.5 C 53 % -7.95 C
1293 23-02-2006 23:38:53 0.5 C 53 % -7.95 C
1294 23-02-2006 23:48:53 0.5 C 52 % -8.19 C
1295 23-02-2006 23:58:53 0.5 C 53 % -7.95 C
1296 24-02-2006 00:08:53 0.4 C 52 % -8.29 C
1297 24-02-2006 00:18:53 0.4 C 53 % -8.04 C
1298 24-02-2006 00:28:53 0.4 C 53 % -8.04 C
1299 24-02-2006 00:38:54 0.4 C 54 % -7.8 C
1300 24-02-2006 00:48:53 0.3 C 54 % -7.9 C
Sensor: Nr:Datum:Temp:Feuchte:Taupunkt:
Aussen-T/F 1301 24-02-2006 00:58:53 0.3 C 54 % -7.9 C
1302 24-02-2006 01:08:53 0.3 C 54 % -7.9 C
1303 24-02-2006 01:18:53 0.3 C 54 % -7.9 C
1304 24-02-2006 01:28:53 0.3 C 54 % -7.9 C
1305 24-02-2006 01:38:53 0.2 C 54 % -7.99 C
1306 24-02-2006 01:48:54 0.2 C 54 % -7.99 C
1307 24-02-2006 01:58:54 0.2 C 55 % -7.75 C
1308 24-02-2006 02:08:54 0.2 C 55 % -7.75 C
1309 24-02-2006 02:18:53 0.2 C 55 % -7.75 C
1310 24-02-2006 02:28:53 0.2 C 55 % -7.75 C
1311 24-02-2006 02:38:53 0.1 C 55 % -7.85 C
1312 24-02-2006 02:49:55 0.1 C 55 % -7.85 C
1313 24-02-2006 02:59:55 0.1 C 56 % -7.61 C
1314 24-02-2006 03:09:55 0.1 C 56 % -7.61 C
1315 24-02-2006 03:19:55 0.1 C 56 % -7.61 C
1316 24-02-2006 03:29:55 0.1 C 57 % -7.39 C
1317 24-02-2006 03:39:55 0 C 57 % -7.48 C
1318 24-02-2006 03:49:55 0 C 57 % -7.48 C
1319 24-02-2006 03:59:55 0 C 58 % -7.26 C
1320 24-02-2006 04:09:55 0 C 58 % -7.26 C
1321 24-02-2006 04:19:56 0 C 59 % -7.04 C
1322 24-02-2006 04:29:56 0 C 59 % -7.04 C
1323 24-02-2006 04:39:55 0 C 59 % -7.04 C
1324 24-02-2006 04:49:56 0 C 60 % -6.82 C
1325 24-02-2006 04:59:56 0 C 60 % -6.82 C
Sensor: Nr:Datum:Temp:Feuchte:Taupunkt:
Aussen-T/F 1326 24-02-2006 05:09:55 0 C 60 % -6.82 C
1327 24-02-2006 05:19:55 -0.1 C 60 % -6.92 C
1328 24-02-2006 05:29:55 -0.1 C 60 % -6.92 C
1329 24-02-2006 05:39:55 0 C 61 % -6.6 C
1330 24-02-2006 05:49:55 0 C 61 % -6.6 C
1331 24-02-2006 05:59:55 0 C 62 % -6.39 C
1332 24-02-2006 06:09:55 0 C 62 % -6.39 C
1333 24-02-2006 06:19:55 0 C 62 % -6.39 C
1334 24-02-2006 06:29:55 -0.1 C 62 % -6.5 C
1335 24-02-2006 06:39:55 -0.1 C 63 % -6.29 C
1336 24-02-2006 06:49:55 0 C 63 % -6.18 C
1337 24-02-2006 06:59:55 0 C 63 % -6.18 C
1338 24-02-2006 07:09:55 0 C 63 % -6.18 C
1339 24-02-2006 07:19:55 0 C 63 % -6.18 C
1340 24-02-2006 07:29:56 0 C 63 % -6.18 C
1341 24-02-2006 07:39:55 -0.1 C 63 % -6.29 C
1342 24-02-2006 07:49:56 -0.1 C 63 % -6.29 C
1343 24-02-2006 07:59:56 -0.2 C 63 % -6.38 C
1344 24-02-2006 08:09:55 -0.4 C 64 % -6.37 C
1345 24-02-2006 08:19:55 -0.5 C 65 % -6.26 C
1346 24-02-2006 08:29:55 -0.4 C 65 % -6.16 C
1347 24-02-2006 08:39:55 -0.3 C 65 % -6.07 C
1348 24-02-2006 08:49:55 -0.2 C 64 % -6.18 C
1349 24-02-2006 08:59:55 0 C 63 % -6.18 C
1350 24-02-2006 09:09:55 0.1 C 63 % -6.09 C
Sensor: Nr:Datum:Temp:Feuchte:Taupunkt:
Aussen-T/F 1351 24-02-2006 09:19:56 0.3 C 62 % -6.11 C
1352 24-02-2006 09:29:56 0.5 C 61 % -6.13 C
1353 24-02-2006 09:39:56 0.7 C 61 % -5.94 C
1354 24-02-2006 09:49:56 1.1 C 58 % -6.22 C
1355 24-02-2006 09:59:56 1.3 C 57 % -6.26 C
1356 24-02-2006 10:09:56 1.6 C 56 % -6.21 C
1357 24-02-2006 10:19:55 2.1 C 54 % -6.22 C
1358 24-02-2006 10:29:55 2.2 C 52 % -6.62 C
1359 24-02-2006 10:39:55 2.5 C 51 % -6.59 C
1360 24-02-2006 10:49:55 3 C 48 % -6.92 C
1361 24-02-2006 10:59:55 3 C 47 % -7.19 C
1362 24-02-2006 11:09:55 2.9 C 48 % -7.01 C
1363 24-02-2006 11:19:56 3 C 47 % -7.19 C
1364 24-02-2006 11:29:56 3.4 C 46 % -7.1 C
1365 24-02-2006 11:39:56 3.5 C 45 % -7.29 C
1366 24-02-2006 11:49:56 3.7 C 45 % -7.11 C
1367 24-02-2006 11:59:56 3.9 C 44 % -7.22 C
1368 24-02-2006 12:09:56 4.2 C 43 % -7.24 C
1369 24-02-2006 12:19:56 4.5 C 42 % -7.27 C
1370 24-02-2006 12:29:56 4.9 C 42 % -6.91 C
1371 24-02-2006 12:39:55 5.1 C 40 % -7.36 C
1372 24-02-2006 12:49:56 5.1 C 40 % -7.36 C
1373 24-02-2006 12:59:56 5.4 C 40 % -7.09 C
1374 24-02-2006 13:09:55 5.5 C 39 % -7.33 C
1375 24-02-2006 13:19:56 5.3 C 38 % -7.84 C
Sensor: Nr:Datum:Temp:Feuchte:Taupunkt:
Aussen-T/F 1376 24-02-2006 13:29:56 5.3 C 39 % -7.51 C
1377 24-02-2006 13:39:56 5.6 C 39 % -7.24 C
1378 24-02-2006 13:49:56 6.3 C 37 % -7.29 C
1379 24-02-2006 13:59:56 6.8 C 36 % -7.2 C
1380 24-02-2006 14:09:56 6.8 C 35 % -7.57 C
1381 24-02-2006 14:19:57 6.9 C 35 % -7.48 C
1382 24-02-2006 14:29:57 6.9 C 35 % -7.48 C
1383 24-02-2006 14:39:02 7 C 34 % -7.76 C
1384 24-02-2006 14:49:01 6.8 C 35 % -7.57 C
1385 24-02-2006 14:59:01 6.7 C 35 % -7.65 C
1386 24-02-2006 15:09:02 6.6 C 36 % -7.38 C
1387 24-02-2006 15:19:01 6.4 C 36 % -7.56 C
1388 24-02-2006 15:29:01 6.3 C 36 % -7.65 C
1389 24-02-2006 15:39:01 6.3 C 37 % -7.29 C
1390 24-02-2006 15:49:02 6.1 C 37 % -7.47 C
1391 24-02-2006 15:59:02 6 C 38 % -7.22 C
1392 24-02-2006 16:09:02 5.9 C 40 % -6.64 C
1393 24-02-2006 16:19:01 5.8 C 40 % -6.73 C
1394 24-02-2006 16:29:01 5.6 C 40 % -6.91 C
1395 24-02-2006 16:39:02 5.5 C 41 % -6.68 C
1396 24-02-2006 16:49:01 5.4 C 41 % -6.77 C
1397 24-02-2006 16:59:01 5.2 C 42 % -6.64 C
1398 24-02-2006 17:09:02 5 C 42 % -6.82 C
1399 24-02-2006 17:19:02 4.9 C 44 % -6.31 C
1400 24-02-2006 17:29:02 4.7 C 45 % -6.2 C
Sensor: Nr:Datum:Temp:Feuchte:Taupunkt:
Aussen-T/F 1401 24-02-2006 17:39:02 4.3 C 44 % -6.85 C
1402 24-02-2006 17:49:02 4 C 45 % -6.84 C
1403 24-02-2006 17:59:02 3.6 C 46 % -6.92 C
1404 24-02-2006 18:09:02 3.4 C 47 % -6.82 C
1405 24-02-2006 18:19:02 3.2 C 47 % -7 C
1406 24-02-2006 18:29:02 2.9 C 49 % -6.74 C
1407 24-02-2006 18:39:02 2.8 C 50 % -6.57 C
1408 24-02-2006 18:49:02 2.6 C 50 % -6.75 C
1409 24-02-2006 18:59:02 2.4 C 49 % -7.2 C
1410 24-02-2006 19:09:02 2.3 C 49 % -7.29 C
1411 24-02-2006 19:19:02 2.1 C 50 % -7.22 C
1412 24-02-2006 19:29:02 2 C 50 % -7.31 C
1413 24-02-2006 19:39:03 1.9 C 51 % -7.15 C
1414 24-02-2006 19:49:02 1.7 C 52 % -7.08 C
1415 24-02-2006 19:59:02 1.7 C 53 % -6.83 C
1416 24-02-2006 20:09:02 1.6 C 53 % -6.93 C
1417 24-02-2006 20:19:02 1.6 C 53 % -6.93 C
1418 24-02-2006 20:29:03 1.6 C 53 % -6.93 C
1419 24-02-2006 20:39:02 1.6 C 53 % -6.93 C
1420 24-02-2006 20:49:02 1.6 C 53 % -6.93 C
1421 24-02-2006 20:59:02 1.5 C 53 % -7.02 C
1422 24-02-2006 21:09:03 1.4 C 53 % -7.11 C
1423 24-02-2006 21:19:02 1.3 C 53 % -7.21 C
1424 24-02-2006 21:29:02 1.2 C 54 % -7.06 C
1425 24-02-2006 21:39:02 1.2 C 54 % -7.06 C
Sensor: Nr:Datum:Temp:Feuchte:Taupunkt:
Aussen-T/F 1426 24-02-2006 21:49:03 1.1 C 54 % -7.15 C
1427 24-02-2006 21:59:03 1 C 54 % -7.24 C
1428 24-02-2006 22:09:03 0.9 C 55 % -7.1 C
1429 24-02-2006 22:19:02 0.7 C 55 % -7.29 C
1430 24-02-2006 22:29:03 0.7 C 55 % -7.29 C
1431 24-02-2006 22:39:02 0.5 C 55 % -7.47 C
1432 24-02-2006 22:49:02 0.5 C 56 % -7.24 C
1433 24-02-2006 22:59:02 0.5 C 55 % -7.47 C
1434 24-02-2006 23:09:02 0.4 C 55 % -7.57 C
1435 24-02-2006 23:19:02 0.5 C 55 % -7.47 C
1436 24-02-2006 23:29:02 0.6 C 54 % -7.62 C
1437 24-02-2006 23:39:03 0.7 C 52 % -8.01 C
1438 24-02-2006 23:49:03 0.6 C 53 % -7.86 C
1439 24-02-2006 23:59:03 0.5 C 53 % -7.95 C
1440 25-02-2006 00:09:03 0.6 C 52 % -8.1 C
1441 25-02-2006 00:19:03 0.6 C 53 % -7.86 C
1442 25-02-2006 00:29:03 0.5 C 52 % -8.19 C
1443 25-02-2006 00:39:02 0.4 C 52 % -8.29 C
1444 25-02-2006 00:49:03 0.3 C 52 % -8.38 C
1445 25-02-2006 00:59:03 0.2 C 52 % -8.47 C
1446 25-02-2006 01:09:02 0.2 C 52 % -8.47 C
1447 25-02-2006 01:19:03 0.1 C 53 % -8.32 C
1448 25-02-2006 01:29:03 0.1 C 53 % -8.32 C
1449 25-02-2006 01:39:03 0.1 C 52 % -8.56 C
1450 25-02-2006 01:49:03 -0.1 C 52 % -8.76 C
Sensor: Nr:Datum:Temp:Feuchte:Taupunkt:
Aussen-T/F 1451 25-02-2006 01:59:03 -0.2 C 53 % -8.61 C
1452 25-02-2006 02:09:03 -0.3 C 53 % -8.71 C
1453 25-02-2006 02:19:03 -0.3 C 53 % -8.71 C
1454 25-02-2006 02:29:03 -0.4 C 53 % -8.8 C
1455 25-02-2006 02:39:03 -0.4 C 53 % -8.8 C
1456 25-02-2006 02:50:04 -0.4 C 53 % -8.8 C
1457 25-02-2006 03:00:04 -0.5 C 53 % -8.89 C
1458 25-02-2006 03:10:05 -0.7 C 54 % -8.84 C
1459 25-02-2006 03:20:05 -0.9 C 54 % -9.03 C
1460 25-02-2006 03:30:05 -1.1 C 55 % -8.98 C
1461 25-02-2006 03:40:04 -1.3 C 55 % -9.17 C
1462 25-02-2006 03:50:04 -1.4 C 56 % -9.03 C
1463 25-02-2006 04:00:04 -1.6 C 56 % -9.22 C
1464 25-02-2006 04:10:04 -1.4 C 56 % -9.03 C
1465 25-02-2006 04:20:04 -1.3 C 55 % -9.17 C
1466 25-02-2006 04:30:04 -1.3 C 55 % -9.17 C
1467 25-02-2006 04:40:04 -1.6 C 56 % -9.22 C
1468 25-02-2006 04:50:04 -1.8 C 57 % -9.18 C
1469 25-02-2006 05:00:04 -2 C 59 % -8.93 C
1470 25-02-2006 05:10:04 -1.9 C 58 % -9.05 C
1471 25-02-2006 05:20:04 -1.8 C 58 % -8.96 C
1472 25-02-2006 05:30:04 -2.1 C 58 % -9.24 C
1473 25-02-2006 05:40:04 -2 C 59 % -8.93 C
1474 25-02-2006 05:50:04 -2 C 59 % -8.93 C
1475 25-02-2006 06:00:04 -2.2 C 60 % -8.9 C
Sensor: Nr:Datum:Temp:Feuchte:Taupunkt:
Aussen-T/F 1476 25-02-2006 06:10:04 -2.1 C 60 % -8.81 C
1477 25-02-2006 06:20:04 -2 C 59 % -8.93 C
1478 25-02-2006 06:30:04 -2.1 C 60 % -8.81 C
1479 25-02-2006 06:40:05 -2 C 59 % -8.93 C
1480 25-02-2006 06:50:04 -2.1 C 59 % -9.02 C
1481 25-02-2006 07:00:04 -2.1 C 59 % -9.02 C
1482 25-02-2006 07:10:05 -2.3 C 60 % -9 C
1483 25-02-2006 07:20:05 -2.4 C 61 % -8.88 C
1484 25-02-2006 07:30:05 -2.5 C 62 % -8.77 C
1485 25-02-2006 07:40:04 -2.4 C 61 % -8.88 C
1486 25-02-2006 07:50:05 -2.3 C 61 % -8.79 C
1487 25-02-2006 08:00:05 -2.3 C 60 % -9 C
1488 25-02-2006 08:10:04 -2.3 C 60 % -9 C
1489 25-02-2006 08:20:04 -2.1 C 60 % -8.81 C
1490 25-02-2006 08:30:04 -1.9 C 59 % -8.84 C
1491 25-02-2006 08:40:05 -1.7 C 58 % -8.87 C
1492 25-02-2006 08:50:05 -1.5 C 57 % -8.9 C
1493 25-02-2006 09:00:06 -1.5 C 57 % -8.9 C
1494 25-02-2006 09:10:04 -1.4 C 56 % -9.03 C
1495 25-02-2006 09:20:04 -1.2 C 56 % -8.84 C
1496 25-02-2006 09:30:04 -1 C 55 % -8.89 C
1497 25-02-2006 09:40:05 -0.9 C 54 % -9.03 C
1498 25-02-2006 09:50:16 -0.8 C 54 % -8.93 C
1499 25-02-2006 10:00:16 -0.7 C 54 % -8.84 C
1500 25-02-2006 10:10:05 -0.4 C 54 % -8.56 C
Sensor: Nr:Datum:Temp:Feuchte:Taupunkt:
Aussen-T/F 1501 25-02-2006 10:20:04 0 C 53 % -8.41 C
1502 25-02-2006 10:30:04 0.2 C 51 % -8.72 C
1503 25-02-2006 10:40:06 0.3 C 50 % -8.88 C
1504 25-02-2006 10:50:05 0.6 C 51 % -8.35 C
1505 25-02-2006 11:00:05 1.1 C 47 % -8.93 C
1506 25-02-2006 11:10:04 1.3 C 47 % -8.75 C
1507 25-02-2006 11:20:05 1.5 C 46 % -8.84 C
1508 25-02-2006 11:30:05 1.7 C 46 % -8.65 C
1509 25-02-2006 11:40:04 1.9 C 45 % -8.75 C
1510 25-02-2006 11:50:05 2.1 C 43 % -9.15 C
1511 25-02-2006 12:00:05 2.2 C 43 % -9.06 C
1512 25-02-2006 12:10:05 2.3 C 42 % -9.27 C
1513 25-02-2006 12:20:05 2.5 C 41 % -9.39 C
1514 25-02-2006 12:30:05 2.7 C 41 % -9.21 C
1515 25-02-2006 12:40:05 3.4 C 40 % -8.89 C
1516 25-02-2006 12:50:05 3.5 C 38 % -9.45 C
1517 25-02-2006 13:00:05 3.7 C 39 % -8.95 C
1518 25-02-2006 13:10:05 4.2 C 36 % -9.51 C
1519 25-02-2006 13:20:05 4.4 C 36 % -9.34 C
1520 25-02-2006 13:30:05 4.5 C 35 % -9.6 C
1521 25-02-2006 13:40:05 4.8 C 35 % -9.34 C
1522 25-02-2006 13:50:06 5.3 C 35 % -8.9 C
1523 25-02-2006 14:00:06 5.8 C 32 % -9.59 C
1524 25-02-2006 14:10:05 5.9 C 32 % -9.5 C
1525 25-02-2006 14:20:05 5.8 C 31 % -9.99 C
Sensor: Nr:Datum:Temp:Feuchte:Taupunkt:
Aussen-T/F 1526 25-02-2006 14:30:05 5.8 C 31 % -9.99 C
1527 25-02-2006 14:40:05 5.3 C 31 % -10.43 C
1528 25-02-2006 14:50:06 5.4 C 32 % -9.94 C
1529 25-02-2006 15:00:06 5.4 C 32 % -9.94 C
1530 25-02-2006 15:10:05 5.3 C 33 % -9.64 C
1531 25-02-2006 15:20:05 5.3 C 33 % -9.64 C
1532 25-02-2006 15:30:05 5.2 C 34 % -9.35 C
1533 25-02-2006 15:40:05 5.1 C 34 % -9.44 C
1534 25-02-2006 15:50:05 5 C 34 % -9.53 C
1535 25-02-2006 16:00:05 4.6 C 35 % -9.52 C
1536 25-02-2006 16:10:05 4.5 C 36 % -9.25 C
1537 25-02-2006 16:20:06 4.6 C 36 % -9.16 C
1538 25-02-2006 16:30:06 4.7 C 35 % -9.43 C
1539 25-02-2006 16:40:06 4.6 C 35 % -9.52 C
1540 25-02-2006 16:50:06 4.6 C 35 % -9.52 C
1541 25-02-2006 17:00:06 4.2 C 36 % -9.51 C
1542 25-02-2006 17:10:06 3.9 C 37 % -9.43 C
1543 25-02-2006 17:20:05 3.6 C 38 % -9.36 C
1544 25-02-2006 17:30:05 3.3 C 39 % -9.3 C
1545 25-02-2006 17:40:05 3.1 C 40 % -9.16 C
1546 25-02-2006 17:50:05 2.6 C 42 % -8.99 C
1547 25-02-2006 18:00:05 2.4 C 42 % -9.18 C
1548 25-02-2006 18:10:05 2.3 C 43 % -8.97 C
1549 25-02-2006 18:20:05 1.8 C 46 % -8.56 C
1550 25-02-2006 18:30:05 1.6 C 47 % -8.47 C
Sensor: Nr:Datum:Temp:Feuchte:Taupunkt:
Aussen-T/F 1551 25-02-2006 18:40:06 1.3 C 46 % -9.02 C
1552 25-02-2006 18:50:06 1.1 C 46 % -9.2 C
1553 25-02-2006 19:00:06 0.8 C 48 % -8.94 C
1554 25-02-2006 19:10:06 0.6 C 48 % -9.12 C
1555 25-02-2006 19:20:06 0.5 C 48 % -9.21 C
1556 25-02-2006 19:30:06 0.2 C 49 % -9.23 C
1557 25-02-2006 19:40:05 0 C 50 % -9.16 C
1558 25-02-2006 19:50:06 -0.2 C 51 % -9.1 C
1559 25-02-2006 20:00:06 -0.4 C 52 % -9.04 C
1560 25-02-2006 20:10:05 -0.6 C 53 % -8.99 C
1561 25-02-2006 20:20:05 -0.7 C 54 % -8.84 C
1562 25-02-2006 20:30:05 -0.9 C 55 % -8.79 C
1563 25-02-2006 20:40:06 -1 C 56 % -8.66 C
1564 25-02-2006 20:50:06 -1.1 C 56 % -8.75 C
1565 25-02-2006 21:00:06 -1.2 C 57 % -8.62 C
1566 25-02-2006 21:10:06 -1.2 C 57 % -8.62 C
1567 25-02-2006 21:20:06 -1.4 C 57 % -8.81 C
1568 25-02-2006 21:30:07 -1.4 C 57 % -8.81 C
1569 25-02-2006 21:40:06 -1.6 C 57 % -8.99 C
1570 25-02-2006 21:50:06 -1.8 C 57 % -9.18 C
1571 25-02-2006 22:00:06 -1.9 C 57 % -9.28 C
1572 25-02-2006 22:10:06 -2.1 C 59 % -9.02 C
1573 25-02-2006 22:20:06 -2.1 C 59 % -9.02 C
1574 25-02-2006 22:30:06 -2.4 C 59 % -9.31 C
1575 25-02-2006 22:40:06 -2.4 C 59 % -9.31 C
Sensor: Nr:Datum:Temp:Feuchte:Taupunkt:
Aussen-T/F 1576 25-02-2006 22:50:06 -2.5 C 60 % -9.19 C
1577 25-02-2006 23:00:06 -2.6 C 60 % -9.28 C
1578 25-02-2006 23:10:06 -2.6 C 60 % -9.28 C
1579 25-02-2006 23:20:06 -2.6 C 61 % -9.07 C
1580 25-02-2006 23:30:07 -2.5 C 61 % -8.98 C
1581 25-02-2006 23:40:06 -2.5 C 61 % -8.98 C
1582 25-02-2006 23:50:06 -2.5 C 60 % -9.19 C
1583 26-02-2006 00:00:06 -2.6 C 60 % -9.28 C
1584 26-02-2006 00:10:06 -2.6 C 60 % -9.28 C
1585 26-02-2006 00:20:07 -2.6 C 60 % -9.28 C
1586 26-02-2006 00:30:07 -2.4 C 60 % -9.09 C
1587 26-02-2006 00:40:06 -2.1 C 59 % -9.02 C
1588 26-02-2006 00:50:06 -1.9 C 58 % -9.05 C
1589 26-02-2006 01:00:06 -1.9 C 57 % -9.28 C
1590 26-02-2006 01:10:06 -1.9 C 56 % -9.5 C
1591 26-02-2006 01:20:06 -1.9 C 56 % -9.5 C
1592 26-02-2006 01:30:07 -1.8 C 56 % -9.41 C
1593 26-02-2006 01:40:06 -1.8 C 56 % -9.41 C
1594 26-02-2006 01:50:06 -1.7 C 56 % -9.31 C
1595 26-02-2006 02:00:06 -1.7 C 55 % -9.54 C
1596 26-02-2006 02:10:06 -1.7 C 55 % -9.54 C
1597 26-02-2006 02:20:07 -1.7 C 55 % -9.54 C
1598 26-02-2006 02:30:07 -1.7 C 55 % -9.54 C
1599 26-02-2006 02:40:07 -1.6 C 55 % -9.45 C
1600 26-02-2006 02:51:08 -1.7 C 54 % -9.77 C
Sensor: Nr:Datum:Temp:Feuchte:Taupunkt:
Aussen-T/F 1601 26-02-2006 03:01:08 -1.7 C 54 % -9.77 C
1602 26-02-2006 03:11:08 -1.7 C 54 % -9.77 C
1603 26-02-2006 03:21:08 -1.7 C 54 % -9.77 C
1604 26-02-2006 03:31:08 -1.7 C 54 % -9.77 C
1605 26-02-2006 03:41:08 -1.7 C 54 % -9.77 C
1606 26-02-2006 03:51:08 -1.8 C 53 % -10.1 C
1607 26-02-2006 04:01:08 -1.8 C 54 % -9.87 C
1608 26-02-2006 04:11:08 -1.8 C 53 % -10.1 C
1609 26-02-2006 04:21:09 -1.8 C 53 % -10.1 C
1610 26-02-2006 04:31:08 -1.8 C 53 % -10.1 C
1611 26-02-2006 04:41:08 -1.8 C 52 % -10.34 C
1612 26-02-2006 04:51:08 -1.9 C 52 % -10.44 C
1613 26-02-2006 05:01:09 -1.9 C 53 % -10.2 C
1614 26-02-2006 05:11:09 -1.9 C 53 % -10.2 C
1615 26-02-2006 05:21:08 -1.9 C 53 % -10.2 C
1616 26-02-2006 05:31:08 -1.9 C 52 % -10.44 C
1617 26-02-2006 05:41:08 -1.9 C 53 % -10.2 C
1618 26-02-2006 05:51:08 -1.9 C 53 % -10.2 C
1619 26-02-2006 06:01:08 -1.9 C 53 % -10.2 C
1620 26-02-2006 06:11:08 -2 C 52 % -10.53 C
1621 26-02-2006 06:21:08 -2.1 C 52 % -10.62 C
1622 26-02-2006 06:31:08 -2.1 C 52 % -10.62 C
1623 26-02-2006 06:41:08 -2.1 C 53 % -10.38 C
1624 26-02-2006 06:51:08 -2.1 C 52 % -10.62 C
1625 26-02-2006 07:01:08 -2.2 C 53 % -10.48 C
Sensor: Nr:Datum:Temp:Feuchte:Taupunkt:
Aussen-T/F 1626 26-02-2006 07:11:08 -2.2 C 53 % -10.48 C
1627 26-02-2006 07:21:08 -2.1 C 53 % -10.38 C
1628 26-02-2006 07:31:09 -2.2 C 53 % -10.48 C
1629 26-02-2006 07:41:09 -2.2 C 52 % -10.72 C
1630 26-02-2006 07:51:08 -2.2 C 52 % -10.72 C
1631 26-02-2006 08:01:09 -2.2 C 53 % -10.48 C
1632 26-02-2006 08:11:09 -2.2 C 53 % -10.48 C
1633 26-02-2006 08:21:09 -2.2 C 53 % -10.48 C
1634 26-02-2006 08:31:08 -2.2 C 52 % -10.72 C
1635 26-02-2006 08:41:08 -2.2 C 54 % -10.24 C
1636 26-02-2006 08:51:09 -2.2 C 53 % -10.48 C
1637 26-02-2006 09:01:08 -2.1 C 54 % -10.15 C
1638 26-02-2006 09:11:08 -1.9 C 52 % -10.44 C
1639 26-02-2006 09:21:09 -1.7 C 51 % -10.5 C
1640 26-02-2006 09:31:09 -1.6 C 51 % -10.4 C
1641 26-02-2006 09:41:09 -1.4 C 51 % -10.22 C
1642 26-02-2006 09:51:08 -1.2 C 50 % -10.28 C
1643 26-02-2006 10:01:08 -0.9 C 51 % -9.75 C
1644 26-02-2006 10:11:08 -1 C 50 % -10.1 C
1645 26-02-2006 10:21:09 -1 C 49 % -10.35 C
1646 26-02-2006 10:31:09 -1.1 C 48 % -10.7 C
1647 26-02-2006 10:41:09 -1.1 C 49 % -10.44 C
1648 26-02-2006 10:51:09 -1.2 C 51 % -10.03 C
1649 26-02-2006 11:01:08 -1.3 C 52 % -9.88 C
1650 26-02-2006 11:11:08 -1.2 C 52 % -9.79 C
Sensor: Nr:Datum:Temp:Feuchte:Taupunkt:
Aussen-T/F 1651 26-02-2006 11:21:08 -1.1 C 53 % -9.45 C
1652 26-02-2006 11:31:09 -0.6 C 52 % -9.23 C
1653 26-02-2006 11:41:09 -0.5 C 51 % -9.38 C
1654 26-02-2006 11:51:09 -0.5 C 51 % -9.38 C
1655 26-02-2006 12:01:09 -0.3 C 51 % -9.2 C
1656 26-02-2006 12:11:09 0.4 C 50 % -8.79 C
1657 26-02-2006 12:21:09 0.6 C 47 % -9.39 C
1658 26-02-2006 12:31:08 0.7 C 47 % -9.3 C
1659 26-02-2006 12:41:08 0.7 C 46 % -9.57 C
1660 26-02-2006 12:51:09 1 C 44 % -9.86 C
1661 26-02-2006 13:01:09 1.1 C 43 % -10.06 C
1662 26-02-2006 13:11:09 1 C 43 % -10.15 C
1663 26-02-2006 13:21:09 1 C 40 % -11.05 C
1664 26-02-2006 13:31:09 1 C 39 % -11.37 C
1665 26-02-2006 13:41:09 1.1 C 40 % -10.96 C
1666 26-02-2006 13:51:09 1.3 C 38 % -11.42 C
1667 26-02-2006 14:01:10 1.4 C 38 % -11.34 C
1668 26-02-2006 14:11:10 1.3 C 39 % -11.1 C
1669 26-02-2006 14:21:09 1.4 C 40 % -10.69 C
1670 26-02-2006 14:31:09 1.5 C 40 % -10.6 C
1671 26-02-2006 14:41:09 1.7 C 41 % -10.11 C
1672 26-02-2006 14:51:09 1.8 C 41 % -10.02 C
1673 26-02-2006 15:01:09 1.8 C 41 % -10.02 C
1674 26-02-2006 15:11:09 1.3 C 44 % -9.58 C
1675 26-02-2006 15:21:09 1.2 C 45 % -9.39 C
Sensor: Nr:Datum:Temp:Feuchte:Taupunkt:
Aussen-T/F 1676 26-02-2006 15:31:10 1.5 C 45 % -9.12 C
1677 26-02-2006 15:41:10 1.7 C 45 % -8.93 C
1678 26-02-2006 15:51:09 1.5 C 44 % -9.4 C
1679 26-02-2006 16:01:09 1.3 C 45 % -9.3 C
1680 26-02-2006 16:11:09 1.5 C 45 % -9.12 C
1681 26-02-2006 16:21:09 1.4 C 46 % -8.93 C
1682 26-02-2006 16:31:09 1.5 C 46 % -8.84 C
1683 26-02-2006 16:41:09 1.4 C 46 % -8.93 C
1684 26-02-2006 16:51:09 1.4 C 46 % -8.93 C
1685 26-02-2006 17:01:09 1.3 C 47 % -8.75 C
1686 26-02-2006 17:11:09 1.3 C 47 % -8.75 C
1687 26-02-2006 17:21:09 1.3 C 48 % -8.48 C
1688 26-02-2006 17:31:10 1.2 C 49 % -8.31 C
1689 26-02-2006 17:41:10 1 C 49 % -8.49 C
1690 26-02-2006 17:51:09 0.4 C 51 % -8.53 C
1691 26-02-2006 18:01:10 0 C 53 % -8.41 C
1692 26-02-2006 18:11:10 -0.5 C 56 % -8.19 C
1693 26-02-2006 18:21:10 -0.8 C 58 % -8.02 C
1694 26-02-2006 18:31:09 -1 C 59 % -7.99 C
1695 26-02-2006 18:41:09 -1.2 C 59 % -8.18 C
1696 26-02-2006 18:51:10 -1.3 C 61 % -7.84 C
1697 26-02-2006 19:01:09 -1.3 C 61 % -7.84 C
1698 26-02-2006 19:11:09 -0.9 C 60 % -7.68 C
1699 26-02-2006 19:21:09 -0.7 C 60 % -7.49 C
1700 26-02-2006 19:31:10 -0.7 C 60 % -7.49 C
Sensor: Nr:Datum:Temp:Feuchte:Taupunkt:
Aussen-T/F 1701 26-02-2006 19:41:10 -0.6 C 61 % -7.18 C
1702 26-02-2006 19:51:10 -0.8 C 62 % -7.16 C
1703 26-02-2006 20:01:09 -1 C 64 % -6.94 C
1704 26-02-2006 20:11:09 -1.1 C 66 % -6.63 C
1705 26-02-2006 20:21:09 -1.4 C 66 % -6.92 C
1706 26-02-2006 20:31:10 -1.4 C 69 % -6.34 C
1707 26-02-2006 20:41:10 -1.8 C 69 % -6.72 C
1708 26-02-2006 20:51:09 -1.9 C 70 % -6.63 C
1709 26-02-2006 21:01:10 -2 C 71 % -6.54 C
1710 26-02-2006 21:11:10 -2.1 C 72 % -6.46 C
1711 26-02-2006 21:21:10 -2.3 C 72 % -6.65 C
1712 26-02-2006 21:31:10 -2.6 C 72 % -6.94 C
1713 26-02-2006 21:41:10 -2.7 C 72 % -7.04 C
1714 26-02-2006 21:51:10 -2.7 C 73 % -6.86 C
1715 26-02-2006 22:01:10 -2.7 C 73 % -6.86 C
1716 26-02-2006 22:11:10 -2.8 C 73 % -6.95 C
1717 26-02-2006 22:21:10 -2.9 C 74 % -6.87 C
1718 26-02-2006 22:31:10 -3 C 74 % -6.97 C
1719 26-02-2006 22:41:10 -3.2 C 73 % -7.34 C
1720 26-02-2006 22:51:10 -3.2 C 74 % -7.16 C
1721 26-02-2006 23:01:10 -3.4 C 74 % -7.36 C
1722 26-02-2006 23:11:10 -3.4 C 75 % -7.18 C
1723 26-02-2006 23:21:10 -3.4 C 76 % -7.01 C
1724 26-02-2006 23:31:10 -3.4 C 76 % -7.01 C
1725 26-02-2006 23:41:10 -3.4 C 77 % -6.84 C
Sensor: Nr:Datum:Temp:Feuchte:Taupunkt:
Aussen-T/F 1726 26-02-2006 23:51:10 -3.4 C 78 % -6.68 C
1727 27-02-2006 00:01:10 -3.6 C 78 % -6.87 C
1728 27-02-2006 00:11:10 -3.7 C 79 % -6.8 C
1729 27-02-2006 00:21:11 -3.7 C 79 % -6.8 C
1730 27-02-2006 00:31:10 -3.8 C 79 % -6.9 C
1731 27-02-2006 00:41:10 -3.8 C 80 % -6.74 C
1732 27-02-2006 00:51:11 -3.7 C 80 % -6.64 C
1733 27-02-2006 01:01:10 -3.8 C 80 % -6.74 C
1734 27-02-2006 01:11:10 -3.8 C 80 % -6.74 C
1735 27-02-2006 01:21:10 -3.9 C 79 % -7 C
1736 27-02-2006 01:31:10 -4 C 79 % -7.09 C
1737 27-02-2006 01:41:10 -4.1 C 79 % -7.19 C
1738 27-02-2006 01:51:10 -4.2 C 79 % -7.29 C
1739 27-02-2006 02:01:10 -4.3 C 79 % -7.39 C
1740 27-02-2006 02:11:10 -4.4 C 79 % -7.48 C
1741 27-02-2006 02:21:11 -4.4 C 80 % -7.32 C
1742 27-02-2006 02:31:11 -4.4 C 80 % -7.32 C
1743 27-02-2006 02:41:11 -4.6 C 80 % -7.52 C
1744 27-02-2006 02:52:11 -4.7 C 80 % -7.61 C
1745 27-02-2006 03:02:11 -4.7 C 80 % -7.61 C
1746 27-02-2006 03:12:12 -4.8 C 80 % -7.71 C
1747 27-02-2006 03:22:13 -4.8 C 80 % -7.71 C
1748 27-02-2006 03:32:12 -4.9 C 80 % -7.81 C
1749 27-02-2006 03:42:12 -4.9 C 80 % -7.81 C
1750 27-02-2006 03:52:12 -5 C 80 % -7.91 C
Sensor: Nr:Datum:Temp:Feuchte:Taupunkt:
Aussen-T/F 1751 27-02-2006 04:02:12 -5 C 80 % -7.91 C
1752 27-02-2006 04:12:12 -4.9 C 80 % -7.81 C
1753 27-02-2006 04:22:12 -5 C 79 % -8.07 C
1754 27-02-2006 04:32:12 -5 C 79 % -8.07 C
1755 27-02-2006 04:42:12 -5.1 C 79 % -8.17 C
1756 27-02-2006 04:52:12 -5.3 C 79 % -8.36 C
1757 27-02-2006 05:02:12 -5.3 C 79 % -8.36 C
1758 27-02-2006 05:12:13 -5.4 C 79 % -8.46 C
1759 27-02-2006 05:22:12 -5.6 C 79 % -8.65 C
1760 27-02-2006 05:32:12 -5.6 C 79 % -8.65 C
1761 27-02-2006 05:42:12 -5.7 C 79 % -8.75 C
1762 27-02-2006 05:52:12 -5.7 C 79 % -8.75 C
1763 27-02-2006 06:02:12 -5.7 C 79 % -8.75 C
1764 27-02-2006 06:12:12 -5.8 C 79 % -8.85 C
1765 27-02-2006 06:22:12 -5.8 C 79 % -8.85 C
1766 27-02-2006 06:32:12 -5.9 C 79 % -8.95 C
1767 27-02-2006 06:42:12 -6 C 79 % -9.04 C
1768 27-02-2006 06:52:12 -6 C 79 % -9.04 C
1769 27-02-2006 07:02:12 -5.9 C 79 % -8.95 C
1770 27-02-2006 07:12:12 -5.9 C 79 % -8.95 C
1771 27-02-2006 07:22:12 -6 C 78 % -9.2 C
1772 27-02-2006 07:32:13 -5.8 C 78 % -9.01 C
1773 27-02-2006 07:42:13 -5.8 C 77 % -9.17 C
1774 27-02-2006 07:52:12 -5.9 C 77 % -9.27 C
1775 27-02-2006 08:02:13 -5.8 C 77 % -9.17 C
Sensor: Nr:Datum:Temp:Feuchte:Taupunkt:
Aussen-T/F 1776 27-02-2006 08:12:13 -5.6 C 76 % -9.15 C
1777 27-02-2006 08:22:13 -5.5 C 76 % -9.05 C
1778 27-02-2006 08:32:12 -5.3 C 75 % -9.02 C
1779 27-02-2006 08:42:13 -5 C 75 % -8.73 C
1780 27-02-2006 08:52:12 -4.6 C 74 % -8.52 C
1781 27-02-2006 09:02:12 -4.5 C 73 % -8.6 C
1782 27-02-2006 09:12:12 -4.3 C 73 % -8.4 C
1783 27-02-2006 09:22:12 -4 C 72 % -8.29 C
1784 27-02-2006 09:32:13 -3.8 C 72 % -8.1 C
1785 27-02-2006 09:42:13 -3.3 C 71 % -7.8 C
1786 27-02-2006 09:52:12 -3.1 C 70 % -7.79 C
1787 27-02-2006 10:02:13 -3 C 70 % -7.69 C
1788 27-02-2006 10:12:13 -2.6 C 68 % -7.68 C
1789 27-02-2006 10:22:13 -2.4 C 67 % -7.68 C
1790 27-02-2006 10:32:13 -2 C 67 % -7.3 C
1791 27-02-2006 10:42:14 -1.7 C 66 % -7.2 C
1792 27-02-2006 10:52:13 -1.5 C 65 % -7.21 C
1793 27-02-2006 11:02:13 -1.2 C 64 % -7.13 C
1794 27-02-2006 11:12:13 -1.1 C 64 % -7.03 C
1795 27-02-2006 11:22:12 -0.9 C 65 % -6.64 C
1796 27-02-2006 11:32:13 -0.9 C 67 % -6.25 C
1797 27-02-2006 11:42:14 -0.9 C 69 % -5.86 C
1798 27-02-2006 11:52:13 -1 C 72 % -5.4 C
1799 27-02-2006 12:02:13 -0.9 C 75 % -4.76 C
1800 27-02-2006 12:12:13 -0.6 C 75 % -4.47 C
Sensor: Nr:Datum:Temp:Feuchte:Taupunkt:
Aussen-T/F 1801 27-02-2006 12:22:12 -0.2 C 74 % -4.26 C
1802 27-02-2006 12:32:13 -0.1 C 73 % -4.35 C
1803 27-02-2006 12:42:13 -0.1 C 72 % -4.53 C
1804 27-02-2006 12:52:13 0.3 C 71 % -4.33 C
1805 27-02-2006 13:02:13 0.5 C 70 % -4.32 C
1806 27-02-2006 13:12:13 0.5 C 69 % -4.51 C
1807 27-02-2006 13:22:13 0.8 C 69 % -4.22 C
1808 27-02-2006 13:32:14 1.5 C 65 % -4.35 C
1809 27-02-2006 13:42:14 1.5 C 64 % -4.55 C
1810 27-02-2006 13:52:13 2.6 C 60 % -4.37 C
1811 27-02-2006 14:02:13 2.8 C 57 % -4.86 C
1812 27-02-2006 14:12:13 2.4 C 57 % -5.23 C
1813 27-02-2006 14:22:13 2.8 C 57 % -4.86 C
1814 27-02-2006 14:32:13 3 C 55 % -5.14 C
1815 27-02-2006 14:42:13 3.1 C 55 % -5.05 C
1816 27-02-2006 14:52:13 3.5 C 54 % -4.91 C
1817 27-02-2006 15:02:14 3.3 C 54 % -5.1 C
1818 27-02-2006 15:12:14 3.4 C 53 % -5.25 C
1819 27-02-2006 15:22:13 3.2 C 56 % -4.71 C
1820 27-02-2006 15:32:13 3.1 C 55 % -5.05 C
1821 27-02-2006 15:42:13 2.8 C 56 % -5.09 C
1822 27-02-2006 15:52:13 2.8 C 59 % -4.4 C
1823 27-02-2006 16:02:14 2.6 C 60 % -4.37 C
1824 27-02-2006 16:12:14 2.7 C 61 % -4.05 C
1825 27-02-2006 16:22:14 2.5 C 60 % -4.46 C
Sensor: Nr:Datum:Temp:Feuchte:Taupunkt:
Aussen-T/F 1826 27-02-2006 16:32:14 2.2 C 61 % -4.52 C
1827 27-02-2006 16:42:14 2.2 C 62 % -4.31 C
1828 27-02-2006 16:52:13 1.9 C 65 % -3.97 C
1829 27-02-2006 17:02:13 1.7 C 67 % -3.75 C
1830 27-02-2006 17:12:13 1.4 C 69 % -3.65 C
1831 27-02-2006 17:22:13 1.2 C 72 % -3.27 C
1832 27-02-2006 17:32:13 0.9 C 77 % -2.66 C
1833 27-02-2006 17:42:13 0.7 C 79 % -2.51 C
1834 27-02-2006 17:52:13 0.6 C 80 % -2.44 C
1835 27-02-2006 18:02:14 0.6 C 80 % -2.44 C
1836 27-02-2006 18:12:14 0.5 C 80 % -2.54 C
1837 27-02-2006 18:22:14 0.5 C 80 % -2.54 C
1838 27-02-2006 18:32:13 0.5 C 80 % -2.54 C
1839 27-02-2006 18:42:13 0.4 C 80 % -2.64 C
1840 27-02-2006 18:52:13 0.4 C 80 % -2.64 C
1841 27-02-2006 19:02:13 0.5 C 79 % -2.71 C
1842 27-02-2006 19:12:13 0.6 C 78 % -2.78 C
1843 27-02-2006 19:22:13 0.6 C 77 % -2.96 C
1844 27-02-2006 19:32:14 0.6 C 77 % -2.96 C
1845 27-02-2006 19:42:14 0.5 C 76 % -3.23 C
1846 27-02-2006 19:52:14 0.6 C 77 % -2.96 C
1847 27-02-2006 20:02:14 0.5 C 76 % -3.23 C
1848 27-02-2006 20:12:14 0.5 C 76 % -3.23 C
1849 27-02-2006 20:22:14 0.6 C 75 % -3.31 C
1850 27-02-2006 20:32:13 0.6 C 75 % -3.31 C
Sensor: Nr:Datum:Temp:Feuchte:Taupunkt:
Aussen-T/F 1851 27-02-2006 20:42:13 0.7 C 74 % -3.39 C
1852 27-02-2006 20:52:14 0.6 C 74 % -3.49 C
1853 27-02-2006 21:02:13 0.7 C 75 % -3.21 C
1854 27-02-2006 21:12:13 0.7 C 75 % -3.21 C
1855 27-02-2006 21:22:13 0.8 C 75 % -3.11 C
1856 27-02-2006 21:32:14 0.7 C 76 % -3.03 C
1857 27-02-2006 21:42:14 0.7 C 77 % -2.86 C
1858 27-02-2006 21:52:13 0.7 C 77 % -2.86 C
1859 27-02-2006 22:02:14 0.7 C 78 % -2.69 C
1860 27-02-2006 22:12:14 0.6 C 79 % -2.61 C
1861 27-02-2006 22:22:14 0.6 C 78 % -2.78 C
1862 27-02-2006 22:32:14 0.4 C 79 % -2.81 C
1863 27-02-2006 22:42:14 0.4 C 79 % -2.81 C
1864 27-02-2006 22:52:14 0.5 C 78 % -2.88 C
1865 27-02-2006 23:02:13 0.5 C 78 % -2.88 C
1866 27-02-2006 23:12:13 0.6 C 78 % -2.78 C
1867 27-02-2006 23:22:13 0.5 C 77 % -3.05 C
1868 27-02-2006 23:32:14 0.6 C 77 % -2.96 C
1869 27-02-2006 23:42:14 0.5 C 77 % -3.05 C
1870 27-02-2006 23:52:14 0.6 C 78 % -2.78 C
1871 28-02-2006 00:02:15 0.6 C 77 % -2.96 C
1872 28-02-2006 00:12:15 0.6 C 77 % -2.96 C
1873 28-02-2006 00:22:14 0.6 C 78 % -2.78 C
1874 28-02-2006 00:32:14 0.6 C 77 % -2.96 C
1875 28-02-2006 00:42:14 0.8 C 77 % -2.76 C
Sensor: Nr:Datum:Temp:Feuchte:Taupunkt:
Aussen-T/F 1876 28-02-2006 00:52:14 0.8 C 77 % -2.76 C
1877 28-02-2006 01:02:14 0.7 C 77 % -2.86 C
1878 28-02-2006 01:12:14 0.7 C 77 % -2.86 C
1879 28-02-2006 01:22:14 0.7 C 77 % -2.86 C
1880 28-02-2006 01:32:14 0.7 C 77 % -2.86 C
1881 28-02-2006 01:42:14 0.7 C 77 % -2.86 C
1882 28-02-2006 01:52:15 0.7 C 77 % -2.86 C
1883 28-02-2006 02:02:15 0.8 C 77 % -2.76 C
1884 28-02-2006 02:12:15 0.7 C 78 % -2.69 C
1885 28-02-2006 02:22:14 0.7 C 78 % -2.69 C
1886 28-02-2006 02:32:14 0.8 C 78 % -2.59 C
1887 28-02-2006 02:42:14 0.8 C 78 % -2.59 C
1888 28-02-2006 02:53:16 0.9 C 78 % -2.49 C
1889 28-02-2006 03:03:17 0.9 C 78 % -2.49 C
1890 28-02-2006 03:13:16 0.9 C 78 % -2.49 C
1891 28-02-2006 03:23:16 1 C 77 % -2.57 C
1892 28-02-2006 03:33:16 0.9 C 78 % -2.49 C
1893 28-02-2006 03:43:16 1 C 77 % -2.57 C
1894 28-02-2006 03:53:16 1 C 77 % -2.57 C
1895 28-02-2006 04:03:16 1.1 C 76 % -2.65 C
1896 28-02-2006 04:13:16 1.2 C 76 % -2.55 C
1897 28-02-2006 04:23:16 1.2 C 75 % -2.73 C
1898 28-02-2006 04:33:16 1.3 C 74 % -2.81 C
1899 28-02-2006 04:43:16 1.3 C 74 % -2.81 C
1900 28-02-2006 04:53:16 1.4 C 73 % -2.9 C
Sensor: Nr:Datum:Temp:Feuchte:Taupunkt:
Aussen-T/F 1901 28-02-2006 05:03:17 1.4 C 73 % -2.9 C
1902 28-02-2006 05:13:17 1.4 C 73 % -2.9 C
1903 28-02-2006 05:23:16 1.3 C 74 % -2.81 C
1904 28-02-2006 05:33:16 1.4 C 74 % -2.71 C
1905 28-02-2006 05:43:16 1.2 C 74 % -2.91 C
1906 28-02-2006 05:53:16 1.2 C 74 % -2.91 C
1907 28-02-2006 06:03:16 1.2 C 74 % -2.91 C
1908 28-02-2006 06:13:16 1.2 C 74 % -2.91 C
1909 28-02-2006 06:23:16 1.2 C 74 % -2.91 C
1910 28-02-2006 06:33:16 1.2 C 75 % -2.73 C
1911 28-02-2006 06:43:16 1.2 C 74 % -2.91 C
1912 28-02-2006 06:53:16 1.3 C 73 % -2.99 C
1913 28-02-2006 07:03:16 1.3 C 73 % -2.99 C
1914 28-02-2006 07:13:16 1.3 C 73 % -2.99 C
1915 28-02-2006 07:23:16 1.2 C 73 % -3.09 C
1916 28-02-2006 07:33:16 1.2 C 73 % -3.09 C
1917 28-02-2006 07:43:16 1.2 C 72 % -3.27 C
1918 28-02-2006 07:53:16 1.3 C 72 % -3.18 C
1919 28-02-2006 08:03:17 1.2 C 72 % -3.27 C
1920 28-02-2006 08:13:17 1.3 C 72 % -3.18 C
1921 28-02-2006 08:23:17 1.3 C 71 % -3.36 C
1922 28-02-2006 08:33:16 1.4 C 71 % -3.27 C
1923 28-02-2006 08:43:16 1.6 C 70 % -3.27 C
1924 28-02-2006 08:53:17 1.6 C 70 % -3.27 C
1925 28-02-2006 09:03:16 1.6 C 70 % -3.27 C
Sensor: Nr:Datum:Temp:Feuchte:Taupunkt:
Aussen-T/F 1926 28-02-2006 09:13:17 1.7 C 70 % -3.17 C
1927 28-02-2006 09:23:16 1.7 C 70 % -3.17 C
1928 28-02-2006 09:33:16 1.7 C 71 % -2.98 C
1929 28-02-2006 09:43:16 1.8 C 69 % -3.27 C
1930 28-02-2006 09:53:16 2.2 C 67 % -3.28 C
1931 28-02-2006 10:03:16 2.3 C 66 % -3.38 C
1932 28-02-2006 10:13:16 2.5 C 65 % -3.4 C
1933 28-02-2006 10:23:17 2.6 C 64 % -3.51 C
1934 28-02-2006 10:33:17 3 C 62 % -3.55 C
1935 28-02-2006 10:43:17 2.6 C 63 % -3.72 C
1936 28-02-2006 10:53:17 2.6 C 65 % -3.3 C
1937 28-02-2006 11:03:17 2.3 C 67 % -3.18 C
1938 28-02-2006 11:13:17 2.1 C 70 % -2.79 C
1939 28-02-2006 11:23:16 1.8 C 72 % -2.7 C
1940 28-02-2006 11:33:16 1.9 C 72 % -2.6 C
1941 28-02-2006 11:43:16 2.1 C 72 % -2.41 C
1942 28-02-2006 11:53:17 2.4 C 71 % -2.31 C
1943 28-02-2006 12:03:17 2.6 C 70 % -2.31 C
1944 28-02-2006 12:13:18 2.5 C 71 % -2.21 C
1945 28-02-2006 12:23:17 2.3 C 72 % -2.22 C
1946 28-02-2006 12:33:16 2.4 C 72 % -2.12 C
1947 28-02-2006 12:43:16 2.4 C 72 % -2.12 C
1948 28-02-2006 12:53:17 2.4 C 72 % -2.12 C
1949 28-02-2006 13:03:17 2.6 C 71 % -2.12 C
1950 28-02-2006 13:13:17 2.6 C 70 % -2.31 C
Sensor: Nr:Datum:Temp:Feuchte:Taupunkt:
Aussen-T/F 1951 28-02-2006 13:23:16 3 C 66 % -2.72 C
1952 28-02-2006 13:33:17 3.5 C 65 % -2.44 C
1953 28-02-2006 13:43:17 3.7 C 62 % -2.89 C
1954 28-02-2006 13:53:17 3.3 C 62 % -3.27 C
1955 28-02-2006 14:03:16 3.2 C 62 % -3.36 C
1956 28-02-2006 14:13:16 3.1 C 63 % -3.24 C
1957 28-02-2006 14:23:17 3 C 64 % -3.13 C
1958 28-02-2006 14:33:17 2.9 C 65 % -3.02 C
1959 28-02-2006 14:43:17 3.1 C 64 % -3.03 C
1960 28-02-2006 14:53:17 3.2 C 63 % -3.15 C
1961 28-02-2006 15:03:17 3.4 C 63 % -2.96 C
1962 28-02-2006 15:13:17 3.5 C 62 % -3.08 C
1963 28-02-2006 15:23:17 3.4 C 62 % -3.17 C
1964 28-02-2006 15:33:18 3.4 C 62 % -3.17 C
1965 28-02-2006 15:43:18 3.4 C 63 % -2.96 C
1966 28-02-2006 15:53:17 3.2 C 63 % -3.15 C
1967 28-02-2006 16:03:17 3 C 65 % -2.92 C
1968 28-02-2006 16:13:17 2.8 C 68 % -2.51 C
1969 28-02-2006 16:23:17 2.4 C 73 % -1.93 C
1970 28-02-2006 16:33:18 2.2 C 75 % -1.76 C
1971 28-02-2006 16:43:18 2 C 76 % -1.77 C
1972 28-02-2006 16:53:17 1.8 C 80 % -1.27 C
1973 28-02-2006 17:03:17 1.8 C 81 % -1.1 C
1974 28-02-2006 17:13:17 1.9 C 81 % -1.01 C
1975 28-02-2006 17:23:17 2 C 80 % -1.08 C
Sensor: Nr:Datum:Temp:Feuchte:Taupunkt:
Aussen-T/F 1976 28-02-2006 17:33:17 2.1 C 78 % -1.33 C
1977 28-02-2006 17:43:17 2.1 C 77 % -1.5 C
1978 28-02-2006 17:53:17 2.3 C 77 % -1.31 C
1979 28-02-2006 18:03:17 2 C 77 % -1.6 C
1980 28-02-2006 18:13:17 1.9 C 77 % -1.69 C
1981 28-02-2006 18:23:17 1.9 C 76 % -1.87 C
1982 28-02-2006 18:33:18 2 C 74 % -2.13 C
1983 28-02-2006 18:43:18 2.1 C 72 % -2.41 C
1984 28-02-2006 18:53:17 2.2 C 72 % -2.31 C
1985 28-02-2006 19:03:17 2.3 C 70 % -2.59 C
1986 28-02-2006 19:13:17 2.1 C 71 % -2.6 C
1987 28-02-2006 19:23:18 1.9 C 74 % -2.23 C
1988 28-02-2006 19:33:17 1.7 C 76 % -2.07 C
1989 28-02-2006 19:43:17 1.4 C 78 % -2.01 C
1990 28-02-2006 19:53:18 0.8 C 83 % -1.75 C
1991 28-02-2006 20:03:17 0.7 C 84 % -1.69 C
1992 28-02-2006 20:13:17 0.6 C 85 % -1.62 C
1993 28-02-2006 20:23:17 0.5 C 86 % -1.56 C
1994 28-02-2006 20:33:18 0.6 C 87 % -1.31 C
1995 28-02-2006 20:43:18 0.6 C 87 % -1.31 C
1996 28-02-2006 20:53:18 0.5 C 87 % -1.41 C
1997 28-02-2006 21:03:18 0.6 C 87 % -1.31 C
1998 28-02-2006 21:13:18 0.6 C 87 % -1.31 C
1999 28-02-2006 21:23:18 0.6 C 87 % -1.31 C
2000 28-02-2006 21:33:17 0.6 C 87 % -1.31 C
Sensor: Nr:Datum:Temp:Feuchte:Taupunkt:
Aussen-T/F 2001 28-02-2006 21:43:17 0.6 C 88 % -1.15 C
2002 28-02-2006 21:53:18 0.4 C 87 % -1.5 C
2003 28-02-2006 22:03:18 0.3 C 87 % -1.6 C
2004 28-02-2006 22:13:18 0.3 C 87 % -1.6 C
2005 28-02-2006 22:23:17 0.3 C 87 % -1.6 C
2006 28-02-2006 22:33:18 0.3 C 88 % -1.45 C
2007 28-02-2006 22:43:18 0.2 C 88 % -1.55 C
2008 28-02-2006 22:53:18 0.2 C 88 % -1.55 C
2009 28-02-2006 23:03:18 0.2 C 89 % -1.39 C
2010 28-02-2006 23:13:18 0.1 C 89 % -1.49 C
2011 28-02-2006 23:23:17 0.1 C 88 % -1.65 C
2012 28-02-2006 23:33:18 0.1 C 87 % -1.8 C
2013 28-02-2006 23:43:18 0 C 86 % -2.05 C
2014 28-02-2006 23:53:01 -0.1 C 86 % -2.16 C
2015 01-03-2006 00:03:02 -0.1 C 86 % -2.16 C
2016 01-03-2006 00:13:02 -0.2 C 86 % -2.25 C
2017 01-03-2006 00:23:02 -0.2 C 84 % -2.57 C
2018 01-03-2006 00:33:01 -0.2 C 83 % -2.73 C
2019 01-03-2006 00:43:01 -0.2 C 80 % -3.23 C
2020 01-03-2006 00:53:01 -0.2 C 79 % -3.39 C
2021 01-03-2006 01:03:01 -0.2 C 79 % -3.39 C
2022 01-03-2006 01:13:01 -0.2 C 78 % -3.56 C
2023 01-03-2006 01:23:02 -0.2 C 75 % -4.09 C
2024 01-03-2006 01:33:02 -0.2 C 74 % -4.26 C
2025 01-03-2006 01:43:02 -0.2 C 71 % -4.81 C
Sensor: Nr:Datum:Temp:Feuchte:Taupunkt:
Aussen-T/F 2026 01-03-2006 01:53:02 -0.2 C 70 % -5 C
2027 01-03-2006 02:03:02 -0.2 C 68 % -5.38 C
2028 01-03-2006 02:13:02 -0.5 C 67 % -5.86 C
2029 01-03-2006 02:23:02 -0.6 C 68 % -5.76 C
2030 01-03-2006 02:33:01 -0.8 C 68 % -5.96 C
2031 01-03-2006 02:43:02 -0.7 C 66 % -6.25 C
2032 01-03-2006 02:54:20 -0.7 C 65 % -6.45 C
2033 01-03-2006 03:04:20 -0.8 C 66 % -6.35 C
2034 01-03-2006 03:14:19 -0.7 C 66 % -6.25 C
2035 01-03-2006 03:24:19 -0.7 C 66 % -6.25 C
2036 01-03-2006 03:34:20 -0.6 C 68 % -5.76 C
2037 01-03-2006 03:44:20 -0.7 C 70 % -5.48 C
2038 01-03-2006 03:54:20 -0.7 C 72 % -5.11 C
2039 01-03-2006 04:04:20 -0.9 C 74 % -4.94 C
2040 01-03-2006 04:14:20 -1 C 76 % -4.69 C
2041 01-03-2006 04:24:20 -1.2 C 77 % -4.71 C
2042 01-03-2006 04:34:20 -1.1 C 77 % -4.61 C
2043 01-03-2006 04:44:20 -1 C 77 % -4.51 C
2044 01-03-2006 04:54:20 -1 C 75 % -4.86 C
2045 01-03-2006 05:04:20 -1.1 C 74 % -5.13 C
2046 01-03-2006 05:14:20 -1.2 C 73 % -5.41 C
2047 01-03-2006 05:24:20 -1.2 C 72 % -5.59 C
2048 01-03-2006 05:34:20 -1.2 C 71 % -5.77 C
2049 01-03-2006 05:44:20 -1.2 C 71 % -5.77 C
2050 01-03-2006 05:54:20 -1.2 C 73 % -5.41 C
Sensor: Nr:Datum:Temp:Feuchte:Taupunkt:
Aussen-T/F 2051 01-03-2006 06:04:20 -1.2 C 73 % -5.41 C
2052 01-03-2006 06:14:20 -1 C 71 % -5.58 C
2053 01-03-2006 06:24:20 -0.9 C 69 % -5.86 C
2054 01-03-2006 06:34:20 -0.9 C 68 % -6.05 C
2055 01-03-2006 06:44:20 -1 C 68 % -6.15 C
2056 01-03-2006 06:54:20 -0.9 C 67 % -6.25 C
2057 01-03-2006 07:04:21 -0.9 C 67 % -6.25 C
2058 01-03-2006 07:14:22 -0.9 C 66 % -6.44 C
2059 01-03-2006 07:24:20 -0.9 C 67 % -6.25 C
2060 01-03-2006 07:34:20 -1 C 68 % -6.15 C
2061 01-03-2006 07:44:20 -1 C 68 % -6.15 C
2062 01-03-2006 07:54:20 -0.9 C 68 % -6.05 C
2063 01-03-2006 08:04:20 -0.8 C 69 % -5.77 C
2064 01-03-2006 08:14:20 -0.7 C 68 % -5.86 C
2065 01-03-2006 08:24:20 -0.5 C 69 % -5.48 C
2066 01-03-2006 08:34:20 -0.6 C 69 % -5.57 C
2067 01-03-2006 08:44:20 -0.7 C 69 % -5.67 C
2068 01-03-2006 08:54:20 -0.4 C 68 % -5.57 C
2069 01-03-2006 09:04:20 -0.2 C 67 % -5.58 C
2070 01-03-2006 09:14:20 0 C 66 % -5.58 C
2071 01-03-2006 09:24:20 -0.3 C 69 % -5.29 C
2072 01-03-2006 09:34:20 -0.5 C 71 % -5.1 C
2073 01-03-2006 09:44:20 -0.4 C 71 % -5.01 C
2074 01-03-2006 09:54:21 -0.1 C 68 % -5.29 C
2075 01-03-2006 10:04:20 0 C 67 % -5.38 C
Sensor: Nr:Datum:Temp:Feuchte:Taupunkt:
Aussen-T/F 2076 01-03-2006 10:14:20 0.3 C 66 % -5.29 C
2077 01-03-2006 10:24:20 0.4 C 66 % -5.19 C
2078 01-03-2006 10:34:21 0.5 C 65 % -5.3 C
2079 01-03-2006 10:44:21 0.8 C 65 % -5.01 C
2080 01-03-2006 10:54:20 0.7 C 64 % -5.31 C
2081 01-03-2006 11:04:21 0.9 C 64 % -5.12 C
2082 01-03-2006 11:14:21 1 C 62 % -5.45 C
2083 01-03-2006 11:24:21 1 C 62 % -5.45 C
2084 01-03-2006 11:34:20 1.2 C 61 % -5.47 C
2085 01-03-2006 11:44:20 1.3 C 59 % -5.81 C
2086 01-03-2006 11:54:21 1.2 C 58 % -6.13 C
2087 01-03-2006 12:04:20 1.5 C 53 % -7.02 C
2088 01-03-2006 12:14:20 1.7 C 50 % -7.59 C
2089 01-03-2006 12:24:20 1.7 C 48 % -8.11 C
2090 01-03-2006 12:34:21 1.6 C 49 % -7.94 C
2091 01-03-2006 12:44:21 2.4 C 48 % -7.47 C
2092 01-03-2006 12:54:20 2.1 C 43 % -9.15 C
2093 01-03-2006 13:04:21 2.4 C 43 % -8.88 C
2094 01-03-2006 13:14:21 2.5 C 44 % -8.49 C
2095 01-03-2006 13:24:21 2.5 C 41 % -9.39 C
2096 01-03-2006 13:34:20 2.8 C 40 % -9.43 C
2097 01-03-2006 13:44:20 2.5 C 36 % -11.03 C
2098 01-03-2006 13:54:21 2.9 C 35 % -11.02 C
2099 01-03-2006 14:04:20 2.5 C 35 % -11.38 C
2100 01-03-2006 14:14:20 2.3 C 37 % -10.86 C
Sensor: Nr:Datum:Temp:Feuchte:Taupunkt:
Aussen-T/F 2101 01-03-2006 14:24:20 2.9 C 37 % -10.33 C
2102 01-03-2006 14:34:21 2.8 C 36 % -10.76 C
2103 01-03-2006 14:44:21 3 C 34 % -11.3 C
2104 01-03-2006 14:54:21 3.2 C 35 % -10.76 C
2105 01-03-2006 15:04:21 2.4 C 32 % -12.58 C
2106 01-03-2006 15:14:21 2.4 C 35 % -11.47 C
2107 01-03-2006 15:24:21 3.1 C 31 % -12.35 C
2108 01-03-2006 15:34:20 3.5 C 31 % -12 C
2109 01-03-2006 15:44:20 3.5 C 31 % -12 C
2110 01-03-2006 15:54:21 2.7 C 35 % -11.2 C
2111 01-03-2006 16:04:21 2.1 C 37 % -11.04 C
2112 01-03-2006 16:14:21 1.8 C 40 % -10.33 C
2113 01-03-2006 16:24:21 1.8 C 41 % -10.02 C
2114 01-03-2006 16:34:21 2 C 41 % -9.84 C
2115 01-03-2006 16:44:21 2.6 C 40 % -9.61 C
2116 01-03-2006 16:54:21 2.8 C 40 % -9.43 C
2117 01-03-2006 17:04:21 2.4 C 42 % -9.18 C
2118 01-03-2006 17:14:22 1.7 C 45 % -8.93 C
2119 01-03-2006 17:24:21 1.6 C 47 % -8.47 C
2120 01-03-2006 17:34:21 1.2 C 49 % -8.31 C
2121 01-03-2006 17:44:21 1 C 50 % -8.23 C
2122 01-03-2006 17:54:21 0.8 C 52 % -7.92 C
2123 01-03-2006 18:04:21 -0.9 C 76 % -4.59 C
2124 01-03-2006 18:14:21 -1.1 C 80 % -4.1 C
2125 01-03-2006 18:24:21 -1.2 C 82 % -3.87 C
Sensor: Nr:Datum:Temp:Feuchte:Taupunkt:
Aussen-T/F 2126 01-03-2006 18:34:21 -1.2 C 82 % -3.87 C
2127 01-03-2006 18:44:21 -1.1 C 82 % -3.77 C
2128 01-03-2006 18:54:21 -0.9 C 82 % -3.58 C
2129 01-03-2006 19:04:21 -0.7 C 79 % -3.88 C
2130 01-03-2006 19:14:21 -0.6 C 75 % -4.47 C
2131 01-03-2006 19:24:21 -0.5 C 72 % -4.92 C
2132 01-03-2006 19:34:22 -0.7 C 71 % -5.29 C
2133 01-03-2006 19:44:22 -0.7 C 70 % -5.48 C
2134 01-03-2006 19:54:22 -0.6 C 68 % -5.76 C
2135 01-03-2006 20:04:21 -0.6 C 67 % -5.96 C
2136 01-03-2006 20:14:21 -0.6 C 65 % -6.35 C
2137 01-03-2006 20:24:21 -0.6 C 64 % -6.56 C
2138 01-03-2006 20:34:21 -0.8 C 64 % -6.75 C
2139 01-03-2006 20:44:21 -0.7 C 64 % -6.65 C
2140 01-03-2006 20:54:21 -0.8 C 64 % -6.75 C
2141 01-03-2006 21:04:21 -0.8 C 64 % -6.75 C
2142 01-03-2006 21:14:21 -0.9 C 64 % -6.84 C
2143 01-03-2006 21:24:22 -1 C 64 % -6.94 C
2144 01-03-2006 21:34:22 -1.1 C 65 % -6.83 C
2145 01-03-2006 21:44:22 -1.1 C 65 % -6.83 C
2146 01-03-2006 21:54:22 -1.1 C 65 % -6.83 C
2147 01-03-2006 22:04:22 -1.3 C 65 % -7.02 C
2148 01-03-2006 22:14:23 -1.3 C 65 % -7.02 C
2149 01-03-2006 22:24:21 -1.4 C 66 % -6.92 C
2150 01-03-2006 22:34:22 -1.4 C 66 % -6.92 C
Sensor: Nr:Datum:Temp:Feuchte:Taupunkt:
Aussen-T/F 2151 01-03-2006 22:44:22 -1.5 C 67 % -6.82 C
2152 01-03-2006 22:54:21 -1.8 C 67 % -7.11 C
2153 01-03-2006 23:04:22 -1.8 C 68 % -6.91 C
2154 01-03-2006 23:14:22 -1.5 C 68 % -6.63 C
2155 01-03-2006 23:24:22 -1.3 C 68 % -6.43 C
2156 01-03-2006 23:34:22 -1.1 C 67 % -6.44 C
2157 01-03-2006 23:44:22 -1 C 66 % -6.54 C
2158 01-03-2006 23:54:21 -1.1 C 67 % -6.44 C
2159 02-03-2006 00:04:22 -1.2 C 67 % -6.53 C
2160 02-03-2006 00:14:22 -1.1 C 67 % -6.44 C
2161 02-03-2006 00:24:22 -1 C 66 % -6.54 C
2162 02-03-2006 00:34:22 -1.2 C 66 % -6.73 C
2163 02-03-2006 00:44:22 -1.2 C 66 % -6.73 C
2164 02-03-2006 00:54:22 -1.3 C 65 % -7.02 C
2165 02-03-2006 01:04:22 -1.2 C 65 % -6.93 C
2166 02-03-2006 01:14:22 -1.2 C 65 % -6.93 C
2167 02-03-2006 01:24:22 -1.3 C 64 % -7.22 C
2168 02-03-2006 01:34:22 -1.5 C 64 % -7.41 C
2169 02-03-2006 01:44:22 -1.7 C 66 % -7.2 C
2170 02-03-2006 01:54:22 -1.8 C 66 % -7.3 C
2171 02-03-2006 02:04:22 -1.9 C 68 % -7.01 C
2172 02-03-2006 02:14:22 -1.9 C 69 % -6.82 C
2173 02-03-2006 02:24:23 -1.9 C 69 % -6.82 C
2174 02-03-2006 02:34:23 -2 C 70 % -6.73 C
2175 02-03-2006 02:44:23 -2 C 71 % -6.54 C
Sensor: Nr:Datum:Temp:Feuchte:Taupunkt:
Aussen-T/F 2176 02-03-2006 02:55:24 -1.9 C 70 % -6.63 C
2177 02-03-2006 03:05:24 -1.9 C 70 % -6.63 C
2178 02-03-2006 03:15:23 -2.1 C 71 % -6.64 C
2179 02-03-2006 03:25:23 -2 C 72 % -6.36 C
2180 02-03-2006 03:35:24 -1.8 C 73 % -5.99 C
2181 02-03-2006 03:45:24 -1.9 C 73 % -6.09 C
2182 02-03-2006 03:55:24 -1.8 C 72 % -6.17 C
2183 02-03-2006 04:05:24 -1.9 C 71 % -6.45 C
2184 02-03-2006 04:15:24 -1.8 C 70 % -6.54 C
2185 02-03-2006 04:25:24 -1.9 C 69 % -6.82 C
2186 02-03-2006 04:35:24 -1.8 C 67 % -7.11 C
2187 02-03-2006 04:45:24 -1.9 C 67 % -7.2 C
2188 02-03-2006 04:55:24 -2 C 67 % -7.3 C
2189 02-03-2006 05:05:24 -2 C 67 % -7.3 C
2190 02-03-2006 05:15:24 -2.1 C 68 % -7.2 C
2191 02-03-2006 05:25:24 -2.2 C 67 % -7.49 C
2192 02-03-2006 05:35:24 -2.1 C 66 % -7.59 C
2193 02-03-2006 05:45:23 -2.2 C 65 % -7.88 C
2194 02-03-2006 05:55:23 -2.2 C 65 % -7.88 C
2195 02-03-2006 06:05:24 -2.5 C 66 % -7.97 C
2196 02-03-2006 06:15:24 -2.6 C 66 % -8.06 C
2197 02-03-2006 06:25:24 -2.7 C 68 % -7.78 C
2198 02-03-2006 06:35:24 -2.9 C 68 % -7.97 C
2199 02-03-2006 06:45:24 -2.7 C 69 % -7.59 C
2200 02-03-2006 06:55:24 -2.7 C 69 % -7.59 C
Sensor: Nr:Datum:Temp:Feuchte:Taupunkt:
Aussen-T/F 2201 02-03-2006 07:05:24 -2.7 C 70 % -7.4 C
2202 02-03-2006 07:15:24 -2.8 C 70 % -7.5 C
2203 02-03-2006 07:25:24 -2.9 C 71 % -7.41 C
2204 02-03-2006 07:35:24 -2.8 C 71 % -7.31 C
2205 02-03-2006 07:45:24 -2.9 C 71 % -7.41 C
2206 02-03-2006 07:55:24 -2.7 C 71 % -7.22 C
2207 02-03-2006 08:05:24 -2.6 C 70 % -7.31 C
2208 02-03-2006 08:15:24 -2.6 C 70 % -7.31 C
2209 02-03-2006 08:25:24 -2.6 C 70 % -7.31 C
2210 02-03-2006 08:35:24 -2.4 C 70 % -7.11 C
2211 02-03-2006 08:45:24 -2.2 C 69 % -7.11 C
2212 02-03-2006 08:55:24 -2.2 C 69 % -7.11 C
2213 02-03-2006 09:05:24 -2 C 68 % -7.11 C
2214 02-03-2006 09:15:25 -1.8 C 68 % -6.91 C
2215 02-03-2006 09:25:25 -1.7 C 68 % -6.82 C
2216 02-03-2006 09:35:24 -1.6 C 68 % -6.72 C
2217 02-03-2006 09:45:24 -1.4 C 68 % -6.53 C
2218 02-03-2006 09:55:24 -1.2 C 67 % -6.53 C
2219 02-03-2006 10:05:24 -1 C 65 % -6.74 C
2220 02-03-2006 10:15:24 -0.7 C 62 % -7.06 C
2221 02-03-2006 10:25:24 -0.6 C 60 % -7.39 C
2222 02-03-2006 10:35:25 -0.2 C 59 % -7.23 C
2223 02-03-2006 10:45:24 0 C 58 % -7.26 C
2224 02-03-2006 10:55:24 0.2 C 57 % -7.29 C
2225 02-03-2006 11:05:25 0.3 C 56 % -7.43 C
Sensor: Nr:Datum:Temp:Feuchte:Taupunkt:
Aussen-T/F 2226 02-03-2006 11:15:25 0.3 C 55 % -7.66 C
2227 02-03-2006 11:25:25 0.3 C 54 % -7.9 C
2228 02-03-2006 11:35:24 0.5 C 55 % -7.47 C
2229 02-03-2006 11:45:24 0.8 C 53 % -7.67 C
2230 02-03-2006 11:55:24 1 C 52 % -7.73 C
2231 02-03-2006 12:05:24 1.1 C 50 % -8.14 C
2232 02-03-2006 12:15:24 1.6 C 48 % -8.2 C
2233 02-03-2006 12:25:24 1.7 C 48 % -8.11 C
2234 02-03-2006 12:35:25 1.9 C 48 % -7.93 C
2235 02-03-2006 12:45:25 2.2 C 44 % -8.77 C
2236 02-03-2006 12:55:25 2.7 C 42 % -8.9 C
2237 02-03-2006 13:05:25 2.8 C 40 % -9.43 C
2238 02-03-2006 13:15:24 2.8 C 39 % -9.75 C
2239 02-03-2006 13:25:24 2.6 C 37 % -10.6 C
2240 02-03-2006 13:35:25 2.6 C 37 % -10.6 C
2241 02-03-2006 13:45:24 2.7 C 37 % -10.51 C
2242 02-03-2006 13:55:24 3.5 C 36 % -10.14 C
2243 02-03-2006 14:05:25 3.9 C 35 % -10.14 C
2244 02-03-2006 14:15:25 3.3 C 34 % -11.03 C
2245 02-03-2006 14:25:25 2.9 C 35 % -11.02 C
2246 02-03-2006 14:35:25 2.6 C 35 % -11.29 C
2247 02-03-2006 14:45:25 2.8 C 43 % -8.51 C
2248 02-03-2006 14:55:25 2.7 C 47 % -7.46 C
2249 02-03-2006 15:05:25 2.7 C 51 % -6.41 C
2250 02-03-2006 15:15:25 2.8 C 50 % -6.57 C
Sensor: Nr:Datum:Temp:Feuchte:Taupunkt:
Aussen-T/F 2251 02-03-2006 15:25:25 2.8 C 49 % -6.83 C
2252 02-03-2006 15:35:25 2.4 C 52 % -6.43 C
2253 02-03-2006 15:45:25 1.8 C 57 % -5.79 C
2254 02-03-2006 15:55:25 2 C 56 % -5.84 C
2255 02-03-2006 16:05:24 2.2 C 51 % -6.87 C
2256 02-03-2006 16:15:25 1.6 C 55 % -6.45 C
2257 02-03-2006 16:25:25 2.5 C 52 % -6.34 C
2258 02-03-2006 16:35:25 3.4 C 47 % -6.82 C
2259 02-03-2006 16:45:25 3.9 C 42 % -7.82 C
2260 02-03-2006 16:55:25 3.7 C 37 % -9.61 C
2261 02-03-2006 17:05:25 3.2 C 37 % -10.06 C
2262 02-03-2006 17:15:25 3.2 C 37 % -10.06 C
2263 02-03-2006 17:25:25 3.1 C 38 % -9.81 C
2264 02-03-2006 17:35:26 2.9 C 38 % -9.99 C
2265 02-03-2006 17:45:25 2.4 C 38 % -10.44 C
2266 02-03-2006 17:55:26 2.1 C 40 % -10.06 C
2267 02-03-2006 18:05:25 1.6 C 43 % -9.6 C
2268 02-03-2006 18:15:25 1.1 C 47 % -8.93 C
2269 02-03-2006 18:25:25 0.8 C 49 % -8.68 C
2270 02-03-2006 18:35:26 0.6 C 48 % -9.12 C
2271 02-03-2006 18:45:25 0.7 C 49 % -8.77 C
2272 02-03-2006 18:55:25 0.7 C 48 % -9.03 C
2273 02-03-2006 19:05:25 0.6 C 49 % -8.86 C
2274 02-03-2006 19:15:25 0.4 C 49 % -9.04 C
2275 02-03-2006 19:25:26 0.4 C 49 % -9.04 C
Sensor: Nr:Datum:Temp:Feuchte:Taupunkt:
Aussen-T/F 2276 02-03-2006 19:35:25 0.3 C 49 % -9.14 C
2277 02-03-2006 19:45:25 0.2 C 50 % -8.97 C
2278 02-03-2006 19:55:25 0.1 C 50 % -9.06 C
2279 02-03-2006 20:05:25 -0.2 C 51 % -9.1 C
2280 02-03-2006 20:15:26 -0.2 C 52 % -8.86 C
2281 02-03-2006 20:25:26 -0.3 C 53 % -8.71 C
2282 02-03-2006 20:35:25 -0.2 C 53 % -8.61 C
2283 02-03-2006 20:45:25 -0.3 C 55 % -8.23 C
2284 02-03-2006 20:55:25 -0.4 C 55 % -8.33 C
2285 02-03-2006 21:05:26 -0.4 C 56 % -8.09 C
2286 02-03-2006 21:15:25 -0.5 C 57 % -7.96 C
2287 02-03-2006 21:25:26 -0.6 C 58 % -7.83 C
2288 02-03-2006 21:35:25 -0.7 C 59 % -7.7 C
2289 02-03-2006 21:45:25 -0.8 C 59 % -7.8 C
2290 02-03-2006 21:55:25 -1 C 60 % -7.77 C
2291 02-03-2006 22:05:25 -1 C 62 % -7.35 C
2292 02-03-2006 22:15:26 -1.1 C 62 % -7.44 C
2293 02-03-2006 22:25:26 -1.1 C 63 % -7.24 C
2294 02-03-2006 22:35:26 -1 C 62 % -7.35 C
2295 02-03-2006 22:45:26 -1 C 62 % -7.35 C
2296 02-03-2006 22:55:26 -1.2 C 63 % -7.33 C
2297 02-03-2006 23:05:26 -1.1 C 63 % -7.24 C
2298 02-03-2006 23:15:25 -1.2 C 64 % -7.13 C
2299 02-03-2006 23:25:25 -1.2 C 64 % -7.13 C
2300 02-03-2006 23:35:25 -1.3 C 64 % -7.22 C
Sensor: Nr:Datum:Temp:Feuchte:Taupunkt:
Aussen-T/F 2301 02-03-2006 23:45:25 -1.6 C 65 % -7.31 C
2302 02-03-2006 23:55:25 -1.5 C 66 % -7.01 C
2303 03-03-2006 00:05:26 -1.6 C 66 % -7.11 C
2304 03-03-2006 00:15:26 -1.6 C 66 % -7.11 C
2305 03-03-2006 00:25:26 -1.7 C 66 % -7.2 C
2306 03-03-2006 00:35:26 -2 C 67 % -7.3 C
2307 03-03-2006 00:45:26 -2 C 68 % -7.11 C
2308 03-03-2006 00:55:26 -2.1 C 69 % -7.01 C
2309 03-03-2006 01:05:26 -2.2 C 69 % -7.11 C
2310 03-03-2006 01:15:26 -2.2 C 70 % -6.92 C
2311 03-03-2006 01:25:26 -2.2 C 70 % -6.92 C
2312 03-03-2006 01:35:25 -2.2 C 70 % -6.92 C
2313 03-03-2006 01:45:26 -2.2 C 70 % -6.92 C
2314 03-03-2006 01:55:26 -2.3 C 70 % -7.02 C
2315 03-03-2006 02:05:26 -2.4 C 70 % -7.11 C
2316 03-03-2006 02:15:26 -2.4 C 70 % -7.11 C
2317 03-03-2006 02:25:26 -2.4 C 70 % -7.11 C
2318 03-03-2006 02:35:26 -2.5 C 70 % -7.21 C
2319 03-03-2006 02:46:28 -2.4 C 71 % -6.93 C
2320 03-03-2006 02:56:28 -2.3 C 70 % -7.02 C
2321 03-03-2006 03:06:28 -2.5 C 70 % -7.21 C
2322 03-03-2006 03:16:27 -2.5 C 70 % -7.21 C
2323 03-03-2006 03:26:27 -2.5 C 70 % -7.21 C
2324 03-03-2006 03:36:28 -2.5 C 71 % -7.03 C
2325 03-03-2006 03:46:28 -2.5 C 71 % -7.03 C
Sensor: Nr:Datum:Temp:Feuchte:Taupunkt:
Aussen-T/F 2326 03-03-2006 03:56:28 -2.4 C 71 % -6.93 C
2327 03-03-2006 04:06:28 -2.2 C 70 % -6.92 C
2328 03-03-2006 04:16:28 -2.2 C 70 % -6.92 C
2329 03-03-2006 04:26:28 -2.2 C 70 % -6.92 C
2330 03-03-2006 04:36:28 -2 C 70 % -6.73 C
2331 03-03-2006 04:46:28 -1.8 C 69 % -6.72 C
2332 03-03-2006 04:56:28 -1.7 C 69 % -6.63 C
2333 03-03-2006 05:06:28 -1.6 C 69 % -6.53 C
2334 03-03-2006 05:16:28 -1.5 C 67 % -6.82 C
2335 03-03-2006 05:26:28 -1.5 C 67 % -6.82 C
2336 03-03-2006 05:36:28 -1.5 C 66 % -7.01 C
2337 03-03-2006 05:46:28 -1.4 C 65 % -7.12 C
2338 03-03-2006 05:56:28 -1.4 C 64 % -7.32 C
2339 03-03-2006 06:06:28 -1.4 C 64 % -7.32 C
2340 03-03-2006 06:16:27 -1.3 C 64 % -7.22 C
2341 03-03-2006 06:26:27 -1.3 C 64 % -7.22 C
2342 03-03-2006 06:36:28 -1.3 C 64 % -7.22 C
2343 03-03-2006 06:46:28 -1.3 C 64 % -7.22 C
2344 03-03-2006 06:56:28 -1.2 C 65 % -6.93 C
2345 03-03-2006 07:06:28 -1.2 C 66 % -6.73 C
2346 03-03-2006 07:16:28 -1.2 C 66 % -6.73 C
2347 03-03-2006 07:26:28 -1.2 C 66 % -6.73 C
2348 03-03-2006 07:36:28 -1.1 C 66 % -6.63 C
2349 03-03-2006 07:46:28 -1.1 C 66 % -6.63 C
2350 03-03-2006 07:56:28 -0.9 C 67 % -6.25 C
Sensor: Nr:Datum:Temp:Feuchte:Taupunkt:
Aussen-T/F 2351 03-03-2006 08:06:28 -0.9 C 67 % -6.25 C
2352 03-03-2006 08:16:28 -0.7 C 70 % -5.48 C
2353 03-03-2006 08:26:28 -0.8 C 71 % -5.39 C
2354 03-03-2006 08:36:28 -0.7 C 72 % -5.11 C
2355 03-03-2006 08:46:28 -0.6 C 72 % -5.01 C
2356 03-03-2006 08:56:28 -0.3 C 73 % -4.54 C
2357 03-03-2006 09:06:28 0 C 74 % -4.07 C
2358 03-03-2006 09:16:28 0.2 C 73 % -4.05 C
2359 03-03-2006 09:26:28 0.4 C 73 % -3.86 C
2360 03-03-2006 09:36:28 0.7 C 72 % -3.76 C
2361 03-03-2006 09:46:28 0.8 C 73 % -3.48 C
2362 03-03-2006 09:56:28 1 C 70 % -3.84 C
2363 03-03-2006 10:06:29 0.9 C 70 % -3.94 C
2364 03-03-2006 10:16:28 1.1 C 69 % -3.94 C
2365 03-03-2006 10:26:28 1.2 C 69 % -3.84 C
2366 03-03-2006 10:36:28 1.4 C 68 % -3.84 C
2367 03-03-2006 10:46:28 1.5 C 67 % -3.95 C
2368 03-03-2006 10:56:28 1.5 C 66 % -4.15 C
2369 03-03-2006 11:06:28 1.5 C 66 % -4.15 C
2370 03-03-2006 11:16:28 1.6 C 67 % -3.85 C
2371 03-03-2006 11:26:28 1.8 C 67 % -3.66 C
2372 03-03-2006 11:36:29 1.8 C 66 % -3.86 C
2373 03-03-2006 11:46:28 1.9 C 66 % -3.76 C
2374 03-03-2006 11:56:28 2.3 C 66 % -3.38 C
2375 03-03-2006 12:06:29 1.3 C 70 % -3.55 C
Sensor: Nr:Datum:Temp:Feuchte:Taupunkt:
Aussen-T/F 2376 03-03-2006 12:16:28 1 C 72 % -3.47 C
2377 03-03-2006 12:26:28 0.9 C 74 % -3.2 C
2378 03-03-2006 12:36:28 0.8 C 76 % -2.94 C
2379 03-03-2006 12:46:28 0.7 C 77 % -2.86 C
2380 03-03-2006 12:56:28 0.6 C 78 % -2.78 C
2381 03-03-2006 13:06:28 0.5 C 79 % -2.71 C
2382 03-03-2006 13:16:29 0.5 C 80 % -2.54 C
2383 03-03-2006 13:26:29 0.4 C 81 % -2.47 C
2384 03-03-2006 13:36:29 0.4 C 81 % -2.47 C
2385 03-03-2006 13:46:29 0.4 C 82 % -2.3 C
2386 03-03-2006 13:56:29 0.3 C 83 % -2.24 C
2387 03-03-2006 14:06:29 0.3 C 83 % -2.24 C
2388 03-03-2006 14:16:28 0.3 C 84 % -2.08 C
2389 03-03-2006 14:26:28 0.3 C 84 % -2.08 C
2390 03-03-2006 14:36:29 0.3 C 85 % -1.92 C
2391 03-03-2006 14:46:29 0.2 C 85 % -2.02 C
2392 03-03-2006 14:56:29 0.2 C 85 % -2.02 C
2393 03-03-2006 15:06:29 0.2 C 86 % -1.86 C
2394 03-03-2006 15:16:29 0.2 C 86 % -1.86 C
2395 03-03-2006 15:26:29 0.2 C 86 % -1.86 C
2396 03-03-2006 15:36:29 0.3 C 86 % -1.76 C
2397 03-03-2006 15:46:29 0.3 C 86 % -1.76 C
2398 03-03-2006 15:56:29 0.4 C 87 % -1.5 C
2399 03-03-2006 16:06:29 0.4 C 87 % -1.5 C
2400 03-03-2006 16:16:28 0.4 C 87 % -1.5 C
Sensor: Nr:Datum:Temp:Feuchte:Taupunkt:
Aussen-T/F 2401 03-03-2006 16:26:28 0.4 C 87 % -1.5 C
2402 03-03-2006 16:36:29 0.4 C 87 % -1.5 C
2403 03-03-2006 16:46:29 0.4 C 87 % -1.5 C
2404 03-03-2006 16:56:29 0.4 C 87 % -1.5 C
2405 03-03-2006 17:06:29 0.4 C 87 % -1.5 C
2406 03-03-2006 17:16:29 0.4 C 87 % -1.5 C
2407 03-03-2006 17:26:30 0.4 C 87 % -1.5 C
2408 03-03-2006 17:36:29 0.3 C 87 % -1.6 C
2409 03-03-2006 17:46:29 0.3 C 87 % -1.6 C
2410 03-03-2006 17:56:29 0.2 C 87 % -1.7 C
2411 03-03-2006 18:06:29 0.2 C 87 % -1.7 C
2412 03-03-2006 18:16:29 0.2 C 87 % -1.7 C
2413 03-03-2006 18:26:29 0.2 C 87 % -1.7 C
2414 03-03-2006 18:36:29 0.2 C 87 % -1.7 C
2415 03-03-2006 18:46:29 0.1 C 87 % -1.8 C
2416 03-03-2006 18:56:29 0.1 C 87 % -1.8 C
2417 03-03-2006 19:06:29 0.1 C 87 % -1.8 C
2418 03-03-2006 19:16:29 0.1 C 87 % -1.8 C
2419 03-03-2006 19:26:29 0.1 C 86 % -1.96 C
2420 03-03-2006 19:36:29 0.1 C 86 % -1.96 C
2421 03-03-2006 19:46:29 0 C 86 % -2.05 C
2422 03-03-2006 19:56:29 -0.1 C 85 % -2.31 C
2423 03-03-2006 20:06:29 -0.3 C 85 % -2.51 C
2424 03-03-2006 20:16:30 -0.5 C 84 % -2.86 C
2425 03-03-2006 20:26:30 -0.6 C 84 % -2.96 C
Sensor: Nr:Datum:Temp:Feuchte:Taupunkt:
Aussen-T/F 2426 03-03-2006 20:36:29 -0.8 C 84 % -3.16 C
2427 03-03-2006 20:46:30 -0.8 C 84 % -3.16 C
2428 03-03-2006 20:56:30 -0.6 C 85 % -2.8 C
2429 03-03-2006 21:06:30 -0.5 C 85 % -2.71 C
2430 03-03-2006 21:16:29 -0.4 C 85 % -2.61 C
2431 03-03-2006 21:26:30 -0.4 C 85 % -2.61 C
2432 03-03-2006 21:36:29 -0.4 C 85 % -2.61 C
2433 03-03-2006 21:46:30 -0.4 C 85 % -2.61 C
2434 03-03-2006 21:56:30 -0.3 C 85 % -2.51 C
2435 03-03-2006 22:06:29 -0.3 C 85 % -2.51 C
2436 03-03-2006 22:16:29 -0.3 C 85 % -2.51 C
2437 03-03-2006 22:26:29 -0.3 C 84 % -2.67 C
2438 03-03-2006 22:36:30 -0.3 C 84 % -2.67 C
2439 03-03-2006 22:46:29 -0.4 C 84 % -2.77 C
2440 03-03-2006 22:56:29 -0.3 C 84 % -2.67 C
2441 03-03-2006 23:06:30 -0.2 C 84 % -2.57 C
2442 03-03-2006 23:16:30 -0.3 C 84 % -2.67 C
2443 03-03-2006 23:26:30 -0.3 C 84 % -2.67 C
2444 03-03-2006 23:36:29 -0.3 C 84 % -2.67 C
2445 03-03-2006 23:46:30 -0.3 C 84 % -2.67 C
2446 03-03-2006 23:56:30 -0.3 C 84 % -2.67 C
2447 04-03-2006 00:06:30 -0.3 C 85 % -2.51 C
2448 04-03-2006 00:16:30 -0.2 C 85 % -2.41 C
2449 04-03-2006 00:26:30 -0.2 C 85 % -2.41 C
2450 04-03-2006 00:36:30 -0.3 C 85 % -2.51 C
Sensor: Nr:Datum:Temp:Feuchte:Taupunkt:
Aussen-T/F 2451 04-03-2006 00:46:29 -0.3 C 85 % -2.51 C
2452 04-03-2006 00:56:29 -0.4 C 85 % -2.61 C
2453 04-03-2006 01:06:30 -0.5 C 85 % -2.71 C
2454 04-03-2006 01:16:30 -0.4 C 85 % -2.61 C
2455 04-03-2006 01:26:30 -0.4 C 85 % -2.61 C
2456 04-03-2006 01:36:30 -0.4 C 85 % -2.61 C
2457 04-03-2006 01:46:30 -0.4 C 85 % -2.61 C
2458 04-03-2006 01:56:30 -0.5 C 85 % -2.71 C
2459 04-03-2006 02:06:30 -0.5 C 85 % -2.71 C
2460 04-03-2006 02:16:30 -0.6 C 85 % -2.8 C
2461 04-03-2006 02:26:30 -0.6 C 85 % -2.8 C
2462 04-03-2006 02:36:30 -0.7 C 85 % -2.9 C
2463 04-03-2006 02:47:31 -0.7 C 85 % -2.9 C
2464 04-03-2006 02:57:31 -0.9 C 84 % -3.26 C
2465 04-03-2006 03:07:31 -1.1 C 84 % -3.45 C
2466 04-03-2006 03:17:32 -1.1 C 84 % -3.45 C
2467 04-03-2006 03:27:32 -1.3 C 84 % -3.65 C
2468 04-03-2006 03:37:32 -1.4 C 84 % -3.75 C
2469 04-03-2006 03:47:32 -1.4 C 84 % -3.75 C
2470 04-03-2006 03:57:32 -1.4 C 84 % -3.75 C
2471 04-03-2006 04:07:32 -1.4 C 84 % -3.75 C
2472 04-03-2006 04:17:32 -1.7 C 84 % -4.04 C
2473 04-03-2006 04:27:32 -2 C 83 % -4.49 C
2474 04-03-2006 04:37:32 -2.2 C 83 % -4.69 C
2475 04-03-2006 04:47:32 -2.5 C 83 % -4.98 C
Sensor: Nr:Datum:Temp:Feuchte:Taupunkt:
Aussen-T/F 2476 04-03-2006 04:57:32 -2.8 C 83 % -5.28 C
2477 04-03-2006 05:07:32 -3.1 C 83 % -5.57 C
2478 04-03-2006 05:17:32 -3.2 C 83 % -5.67 C
2479 04-03-2006 05:27:32 -3.3 C 83 % -5.77 C
2480 04-03-2006 05:37:32 -3.1 C 84 % -5.41 C
2481 04-03-2006 05:47:32 -2.8 C 84 % -5.12 C
2482 04-03-2006 05:57:32 -2.8 C 84 % -5.12 C
2483 04-03-2006 06:07:31 -3 C 84 % -5.32 C
2484 04-03-2006 06:17:31 -3.1 C 84 % -5.41 C
2485 04-03-2006 06:27:31 -3.1 C 84 % -5.41 C
2486 04-03-2006 06:37:32 -3.2 C 84 % -5.51 C
2487 04-03-2006 06:47:32 -3.6 C 84 % -5.9 C
2488 04-03-2006 06:57:32 -3.7 C 84 % -6 C
2489 04-03-2006 07:07:32 -3.8 C 84 % -6.1 C
2490 04-03-2006 07:17:32 -3.9 C 84 % -6.2 C
2491 04-03-2006 07:27:32 -3.9 C 84 % -6.2 C
2492 04-03-2006 07:37:31 -3.8 C 84 % -6.1 C
2493 04-03-2006 07:47:32 -3.8 C 84 % -6.1 C
2494 04-03-2006 07:57:32 -3.8 C 83 % -6.26 C
2495 04-03-2006 08:07:33 -3.7 C 83 % -6.16 C
2496 04-03-2006 08:17:31 -3.5 C 82 % -6.12 C
2497 04-03-2006 08:27:31 -3.3 C 81 % -6.09 C
2498 04-03-2006 08:37:32 -3.2 C 80 % -6.15 C
2499 04-03-2006 08:47:32 -3.1 C 80 % -6.05 C
2500 04-03-2006 08:57:32 -3 C 78 % -6.29 C
Sensor: Nr:Datum:Temp:Feuchte:Taupunkt:
Aussen-T/F 2501 04-03-2006 09:07:32 -2.7 C 78 % -5.99 C
2502 04-03-2006 09:17:32 -2.7 C 77 % -6.16 C
2503 04-03-2006 09:27:32 -2.5 C 77 % -5.97 C
2504 04-03-2006 09:37:32 -2.2 C 76 % -5.85 C
2505 04-03-2006 09:47:32 -1.9 C 75 % -5.73 C
2506 04-03-2006 09:57:32 -1.9 C 74 % -5.91 C
2507 04-03-2006 10:07:32 -1.8 C 74 % -5.81 C
2508 04-03-2006 10:17:32 -1.7 C 73 % -5.89 C
2509 04-03-2006 10:27:33 -1.2 C 73 % -5.41 C
2510 04-03-2006 10:37:32 -0.9 C 71 % -5.49 C
2511 04-03-2006 10:47:32 -0.7 C 70 % -5.48 C
2512 04-03-2006 10:57:32 -0.4 C 70 % -5.19 C
2513 04-03-2006 11:07:32 -0.5 C 69 % -5.48 C
2514 04-03-2006 11:17:32 0.1 C 70 % -4.71 C
2515 04-03-2006 11:27:32 0 C 68 % -5.18 C
2516 04-03-2006 11:37:32 0 C 69 % -4.99 C
2517 04-03-2006 11:47:33 0.3 C 68 % -4.9 C
2518 04-03-2006 11:57:33 0.5 C 68 % -4.71 C
2519 04-03-2006 12:07:32 0.7 C 67 % -4.71 C
2520 04-03-2006 12:17:32 0.8 C 66 % -4.81 C
2521 04-03-2006 12:27:32 0.8 C 67 % -4.61 C
2522 04-03-2006 12:37:32 1.2 C 65 % -4.63 C
2523 04-03-2006 12:47:32 1.4 C 65 % -4.44 C
2524 04-03-2006 12:57:32 1.1 C 65 % -4.73 C
2525 04-03-2006 13:07:33 1.3 C 65 % -4.54 C
Sensor: Nr:Datum:Temp:Feuchte:Taupunkt:
Aussen-T/F 2526 04-03-2006 13:17:33 1.1 C 65 % -4.73 C
2527 04-03-2006 13:27:33 1 C 66 % -4.62 C
2528 04-03-2006 13:37:32 1.3 C 66 % -4.34 C
2529 04-03-2006 13:47:33 1.5 C 66 % -4.15 C
2530 04-03-2006 13:57:33 1.6 C 65 % -4.25 C
2531 04-03-2006 14:07:32 1.7 C 64 % -4.36 C
2532 04-03-2006 14:17:32 1.8 C 64 % -4.27 C
2533 04-03-2006 14:27:32 1.8 C 65 % -4.06 C
2534 04-03-2006 14:37:32 2 C 63 % -4.29 C
2535 04-03-2006 14:47:32 2.1 C 63 % -4.19 C
2536 04-03-2006 14:57:32 2.6 C 62 % -3.93 C
2537 04-03-2006 15:07:33 2.8 C 62 % -3.74 C
2538 04-03-2006 15:17:33 2.8 C 62 % -3.74 C
2539 04-03-2006 15:27:33 2.7 C 61 % -4.05 C
2540 04-03-2006 15:37:33 2.5 C 63 % -3.81 C
2541 04-03-2006 15:47:33 2.5 C 63 % -3.81 C
2542 04-03-2006 15:57:33 2.5 C 63 % -3.81 C
2543 04-03-2006 16:07:33 2.4 C 62 % -4.12 C
2544 04-03-2006 16:17:32 2.3 C 63 % -4 C
2545 04-03-2006 16:27:32 2.4 C 64 % -3.7 C
2546 04-03-2006 16:37:33 2.3 C 65 % -3.59 C
2547 04-03-2006 16:47:32 2.2 C 65 % -3.68 C
2548 04-03-2006 16:57:32 2.1 C 65 % -3.78 C
2549 04-03-2006 17:07:33 1.9 C 67 % -3.56 C
2550 04-03-2006 17:17:33 1.8 C 68 % -3.46 C
Sensor: Nr:Datum:Temp:Feuchte:Taupunkt:
Aussen-T/F 2551 04-03-2006 17:27:33 1.4 C 69 % -3.65 C
2552 04-03-2006 17:37:33 1.2 C 70 % -3.65 C
2553 04-03-2006 17:47:32 0.9 C 73 % -3.38 C
2554 04-03-2006 17:57:32 0.5 C 74 % -3.58 C
2555 04-03-2006 18:07:33 0.2 C 75 % -3.69 C
2556 04-03-2006 18:17:33 -0.1 C 76 % -3.81 C
2557 04-03-2006 18:27:33 -0.2 C 77 % -3.74 C
2558 04-03-2006 18:37:33 -0.4 C 77 % -3.93 C
2559 04-03-2006 18:47:33 -0.6 C 78 % -3.95 C
2560 04-03-2006 18:57:33 -0.9 C 78 % -4.24 C
2561 04-03-2006 19:07:33 -1 C 79 % -4.17 C
2562 04-03-2006 19:17:33 -1.2 C 79 % -4.37 C
2563 04-03-2006 19:27:33 -1.3 C 79 % -4.46 C
2564 04-03-2006 19:37:33 -1.6 C 79 % -4.76 C
2565 04-03-2006 19:47:33 -1.7 C 79 % -4.85 C
2566 04-03-2006 19:57:33 -1.6 C 80 % -4.59 C
2567 04-03-2006 20:07:33 -1.5 C 81 % -4.33 C
2568 04-03-2006 20:17:33 -1.6 C 81 % -4.43 C
2569 04-03-2006 20:27:33 -1.7 C 81 % -4.52 C
2570 04-03-2006 20:37:33 -1.7 C 81 % -4.52 C
2571 04-03-2006 20:47:33 -1.8 C 81 % -4.62 C
2572 04-03-2006 20:57:33 -2 C 81 % -4.82 C
2573 04-03-2006 21:07:33 -1.9 C 82 % -4.56 C
2574 04-03-2006 21:17:34 -1.8 C 82 % -4.46 C
2575 04-03-2006 21:27:34 -1.8 C 83 % -4.3 C
Sensor: Nr:Datum:Temp:Feuchte:Taupunkt:
Aussen-T/F 2576 04-03-2006 21:37:33 -1.9 C 83 % -4.4 C
2577 04-03-2006 21:47:33 -2 C 83 % -4.49 C
2578 04-03-2006 21:57:33 -2 C 83 % -4.49 C
2579 04-03-2006 22:07:33 -2 C 83 % -4.49 C
2580 04-03-2006 22:17:33 -2 C 83 % -4.49 C
2581 04-03-2006 22:27:33 -2.2 C 82 % -4.85 C
2582 04-03-2006 22:37:33 -2.4 C 82 % -5.05 C
2583 04-03-2006 22:47:33 -2.4 C 82 % -5.05 C
2584 04-03-2006 22:57:33 -2.4 C 82 % -5.05 C
2585 04-03-2006 23:07:34 -2.5 C 83 % -4.98 C
2586 04-03-2006 23:17:33 -2.5 C 83 % -4.98 C
2587 04-03-2006 23:27:34 -2.4 C 83 % -4.89 C
2588 04-03-2006 23:37:33 -2.1 C 83 % -4.59 C
2589 04-03-2006 23:47:33 -2.1 C 83 % -4.59 C
2590 04-03-2006 23:57:33 -2.1 C 82 % -4.75 C
2591 05-03-2006 00:07:34 -2.3 C 81 % -5.11 C
2592 05-03-2006 00:17:33 -2.4 C 81 % -5.21 C
2593 05-03-2006 00:27:33 -2.6 C 81 % -5.4 C
2594 05-03-2006 00:37:34 -2.9 C 81 % -5.7 C
2595 05-03-2006 00:47:34 -3.1 C 81 % -5.89 C
2596 05-03-2006 00:57:34 -3.4 C 81 % -6.18 C
2597 05-03-2006 01:07:34 -3.5 C 81 % -6.28 C
2598 05-03-2006 01:17:34 -3.5 C 82 % -6.12 C
2599 05-03-2006 01:27:34 -3.5 C 82 % -6.12 C
2600 05-03-2006 01:37:34 -3.4 C 83 % -5.87 C
Sensor: Nr:Datum:Temp:Feuchte:Taupunkt:
Aussen-T/F 2601 05-03-2006 01:47:33 -3.3 C 84 % -5.61 C
2602 05-03-2006 01:57:33 -3.3 C 84 % -5.61 C
2603 05-03-2006 02:07:34 -3.4 C 83 % -5.87 C
2604 05-03-2006 02:17:34 -3.5 C 83 % -5.96 C
2605 05-03-2006 02:27:34 -3.7 C 82 % -6.32 C
2606 05-03-2006 02:37:34 -3.8 C 82 % -6.41 C
2607 05-03-2006 02:48:35 -4 C 82 % -6.61 C
2608 05-03-2006 02:58:35 -4.2 C 82 % -6.81 C
2609 05-03-2006 03:08:36 -4.3 C 82 % -6.9 C
2610 05-03-2006 03:18:36 -4.4 C 83 % -6.84 C
2611 05-03-2006 03:28:36 -4.4 C 83 % -6.84 C
2612 05-03-2006 03:38:36 -4.7 C 83 % -7.14 C
2613 05-03-2006 03:48:36 -4.8 C 83 % -7.24 C
2614 05-03-2006 03:58:36 -5.1 C 83 % -7.53 C
2615 05-03-2006 04:08:36 -5.1 C 83 % -7.53 C
2616 05-03-2006 04:18:36 -5.1 C 84 % -7.38 C
2617 05-03-2006 04:28:36 -5.2 C 84 % -7.47 C
2618 05-03-2006 04:38:36 -5.6 C 84 % -7.87 C
2619 05-03-2006 04:48:36 -5.7 C 84 % -7.96 C
2620 05-03-2006 04:58:36 -6 C 83 % -8.41 C
2621 05-03-2006 05:08:36 -6 C 83 % -8.41 C
2622 05-03-2006 05:18:35 -6 C 83 % -8.41 C
2623 05-03-2006 05:28:35 -6 C 84 % -8.26 C
2624 05-03-2006 05:38:35 -5.9 C 84 % -8.16 C
2625 05-03-2006 05:48:35 -5.9 C 84 % -8.16 C
Sensor: Nr:Datum:Temp:Feuchte:Taupunkt:
Aussen-T/F 2626 05-03-2006 05:58:35 -6 C 83 % -8.41 C
2627 05-03-2006 06:08:35 -5.7 C 83 % -8.12 C
2628 05-03-2006 06:18:36 -5.6 C 83 % -8.02 C
2629 05-03-2006 06:28:36 -5.6 C 82 % -8.18 C
2630 05-03-2006 06:38:36 -5.6 C 82 % -8.18 C
2631 05-03-2006 06:48:36 -5.7 C 81 % -8.43 C
2632 05-03-2006 06:58:36 -5.8 C 81 % -8.53 C
2633 05-03-2006 07:08:36 -5.8 C 80 % -8.69 C
2634 05-03-2006 07:18:36 -5.7 C 81 % -8.43 C
2635 05-03-2006 07:28:36 -5.5 C 81 % -8.24 C
2636 05-03-2006 07:38:35 -5.6 C 80 % -8.49 C
2637 05-03-2006 07:48:36 -5.7 C 80 % -8.59 C
2638 05-03-2006 07:58:36 -5.7 C 79 % -8.75 C
2639 05-03-2006 08:08:36 -5.7 C 79 % -8.75 C
2640 05-03-2006 08:18:36 -5.5 C 79 % -8.56 C
2641 05-03-2006 08:28:36 -5.3 C 79 % -8.36 C
2642 05-03-2006 08:38:35 -5.2 C 79 % -8.26 C
2643 05-03-2006 08:48:36 -5.2 C 79 % -8.26 C
2644 05-03-2006 08:58:36 -5.2 C 79 % -8.26 C
2645 05-03-2006 09:08:36 -5.2 C 79 % -8.26 C
2646 05-03-2006 09:18:36 -4.9 C 79 % -7.97 C
2647 05-03-2006 09:28:36 -4.8 C 79 % -7.87 C
2648 05-03-2006 09:38:36 -4.3 C 79 % -7.39 C
2649 05-03-2006 09:48:36 -4 C 78 % -7.26 C
2650 05-03-2006 09:58:36 -3.6 C 77 % -7.04 C
Sensor: Nr:Datum:Temp:Feuchte:Taupunkt:
Aussen-T/F 2651 05-03-2006 10:08:36 -3.4 C 76 % -7.01 C
2652 05-03-2006 10:18:36 -3.1 C 75 % -6.89 C
2653 05-03-2006 10:28:37 -2.8 C 74 % -6.78 C
2654 05-03-2006 10:38:36 -2.4 C 73 % -6.57 C
2655 05-03-2006 10:48:36 -2.1 C 72 % -6.46 C
2656 05-03-2006 10:58:36 -1.8 C 71 % -6.35 C
2657 05-03-2006 11:08:36 -1.4 C 70 % -6.15 C
2658 05-03-2006 11:18:36 -1.1 C 70 % -5.86 C
2659 05-03-2006 11:28:36 -0.9 C 69 % -5.86 C
2660 05-03-2006 11:38:36 -0.6 C 69 % -5.57 C
2661 05-03-2006 11:48:37 -0.2 C 68 % -5.38 C
2662 05-03-2006 11:58:37 0.1 C 68 % -5.09 C
2663 05-03-2006 12:08:38 0.6 C 66 % -5 C
2664 05-03-2006 12:18:37 1 C 63 % -5.23 C
2665 05-03-2006 12:28:37 1.3 C 61 % -5.37 C
2666 05-03-2006 12:38:36 1.2 C 58 % -6.13 C
2667 05-03-2006 12:48:36 1.3 C 57 % -6.26 C
2668 05-03-2006 12:58:36 1.6 C 56 % -6.21 C
2669 05-03-2006 13:08:36 2 C 52 % -6.8 C
2670 05-03-2006 13:18:37 1.8 C 53 % -6.74 C
2671 05-03-2006 13:28:37 2 C 53 % -6.55 C
2672 05-03-2006 13:38:37 1.5 C 56 % -6.3 C
2673 05-03-2006 13:48:37 1.6 C 58 % -5.75 C
2674 05-03-2006 13:58:37 1.8 C 58 % -5.57 C
2675 05-03-2006 14:08:37 3 C 55 % -5.14 C
Sensor: Nr:Datum:Temp:Feuchte:Taupunkt:
Aussen-T/F 2676 05-03-2006 14:18:36 3.4 C 53 % -5.25 C
2677 05-03-2006 14:28:36 3.3 C 53 % -5.35 C
2678 05-03-2006 14:38:36 3 C 53 % -5.62 C
2679 05-03-2006 14:48:36 2.5 C 57 % -5.14 C
2680 05-03-2006 14:58:36 2.4 C 58 % -5 C
2681 05-03-2006 15:08:36 2.1 C 59 % -5.06 C
2682 05-03-2006 15:18:36 2.2 C 60 % -4.74 C
2683 05-03-2006 15:28:36 2.1 C 61 % -4.62 C
2684 05-03-2006 15:38:36 2 C 62 % -4.5 C
2685 05-03-2006 15:48:37 2.2 C 62 % -4.31 C
2686 05-03-2006 15:58:37 2.2 C 62 % -4.31 C
2687 05-03-2006 16:08:36 2 C 63 % -4.29 C
2688 05-03-2006 16:18:36 2.2 C 64 % -3.89 C
2689 05-03-2006 16:28:36 2.2 C 64 % -3.89 C
2690 05-03-2006 16:38:37 2 C 65 % -3.87 C
2691 05-03-2006 16:48:36 2 C 66 % -3.67 C
2692 05-03-2006 16:58:36 2.2 C 65 % -3.68 C
2693 05-03-2006 17:08:37 2.2 C 65 % -3.68 C
2694 05-03-2006 17:18:37 2 C 65 % -3.87 C
2695 05-03-2006 17:28:37 1.9 C 67 % -3.56 C
2696 05-03-2006 17:38:37 1.9 C 68 % -3.37 C
2697 05-03-2006 17:48:37 1.7 C 68 % -3.56 C
2698 05-03-2006 17:58:37 1.7 C 67 % -3.75 C
2699 05-03-2006 18:08:37 1.5 C 67 % -3.95 C
2700 05-03-2006 18:18:37 1.4 C 68 % -3.84 C
Sensor: Nr:Datum:Temp:Feuchte:Taupunkt:
Aussen-T/F 2701 05-03-2006 18:28:37 1.1 C 69 % -3.94 C
2702 05-03-2006 18:38:37 1 C 69 % -4.03 C
2703 05-03-2006 18:48:37 1 C 69 % -4.03 C
2704 05-03-2006 18:58:37 1.1 C 68 % -4.13 C
2705 05-03-2006 19:08:37 0.9 C 69 % -4.13 C
2706 05-03-2006 19:18:37 0.7 C 71 % -3.94 C
2707 05-03-2006 19:28:37 0.6 C 71 % -4.04 C
2708 05-03-2006 19:38:37 0.5 C 70 % -4.32 C
2709 05-03-2006 19:48:37 0.2 C 70 % -4.61 C
2710 05-03-2006 19:58:37 0.4 C 69 % -4.61 C
2711 05-03-2006 20:08:37 0.4 C 68 % -4.8 C
2712 05-03-2006 20:18:37 0.6 C 66 % -5 C
2713 05-03-2006 20:28:37 0.6 C 65 % -5.2 C
2714 05-03-2006 20:38:37 1 C 61 % -5.66 C
2715 05-03-2006 20:48:37 1.1 C 60 % -5.78 C
2716 05-03-2006 20:58:37 1.1 C 60 % -5.78 C
2717 05-03-2006 21:08:37 1 C 59 % -6.09 C
2718 05-03-2006 21:18:37 1.1 C 61 % -5.56 C
2719 05-03-2006 21:28:37 0.9 C 63 % -5.33 C
2720 05-03-2006 21:38:37 0.7 C 64 % -5.31 C
2721 05-03-2006 21:48:37 0.6 C 65 % -5.2 C
2722 05-03-2006 21:58:37 0.5 C 67 % -4.9 C
2723 05-03-2006 22:08:37 0.5 C 68 % -4.71 C
2724 05-03-2006 22:18:38 0.7 C 65 % -5.11 C
2725 05-03-2006 22:28:38 1 C 61 % -5.66 C
Sensor: Nr:Datum:Temp:Feuchte:Taupunkt:
Aussen-T/F 2726 05-03-2006 22:38:37 0.9 C 62 % -5.54 C
2727 05-03-2006 22:48:37 0.7 C 62 % -5.73 C
2728 05-03-2006 22:58:37 0.8 C 62 % -5.63 C
2729 05-03-2006 23:08:37 0.6 C 63 % -5.61 C
2730 05-03-2006 23:18:37 0.4 C 65 % -5.39 C
2731 05-03-2006 23:28:37 0.4 C 64 % -5.6 C
2732 05-03-2006 23:38:38 0.1 C 65 % -5.68 C
2733 05-03-2006 23:48:37 0 C 66 % -5.58 C
2734 05-03-2006 23:58:37 0 C 67 % -5.38 C
2735 06-03-2006 00:08:38 -0.4 C 68 % -5.57 C
2736 06-03-2006 00:18:38 -0.3 C 68 % -5.48 C
2737 06-03-2006 00:28:38 -0.3 C 69 % -5.29 C
2738 06-03-2006 00:38:37 0 C 68 % -5.18 C
2739 06-03-2006 00:48:38 0 C 68 % -5.18 C
2740 06-03-2006 00:58:38 0 C 69 % -4.99 C
2741 06-03-2006 01:08:38 0 C 70 % -4.8 C
2742 06-03-2006 01:18:38 0 C 71 % -4.61 C
2743 06-03-2006 01:28:38 -0.3 C 70 % -5.1 C
2744 06-03-2006 01:38:37 -0.4 C 70 % -5.19 C
2745 06-03-2006 01:48:38 -0.3 C 70 % -5.1 C
2746 06-03-2006 01:58:38 -0.5 C 70 % -5.29 C
2747 06-03-2006 02:08:38 -0.4 C 70 % -5.19 C
2748 06-03-2006 02:18:37 -0.3 C 70 % -5.1 C
2749 06-03-2006 02:28:37 -0.2 C 70 % -5 C
2750 06-03-2006 02:38:37 -0.1 C 69 % -5.09 C
Sensor: Nr:Datum:Temp:Feuchte:Taupunkt:
Aussen-T/F 2751 06-03-2006 02:49:39 -0.2 C 68 % -5.38 C
2752 06-03-2006 02:59:39 -0.2 C 69 % -5.19 C
2753 06-03-2006 03:09:39 -0.2 C 69 % -5.19 C
2754 06-03-2006 03:19:39 -0.2 C 68 % -5.38 C
2755 06-03-2006 03:29:39 -0.4 C 69 % -5.38 C
2756 06-03-2006 03:39:39 -0.3 C 69 % -5.29 C
2757 06-03-2006 03:49:39 -0.3 C 68 % -5.48 C
2758 06-03-2006 03:59:39 -0.3 C 68 % -5.48 C
2759 06-03-2006 04:09:40 -0.3 C 68 % -5.48 C
2760 06-03-2006 04:19:40 -0.4 C 69 % -5.38 C
2761 06-03-2006 04:29:40 -0.3 C 69 % -5.29 C
2762 06-03-2006 04:39:40 -0.3 C 68 % -5.48 C
2763 06-03-2006 04:49:40 -0.3 C 68 % -5.48 C
2764 06-03-2006 04:59:40 -0.3 C 67 % -5.67 C
2765 06-03-2006 05:09:39 -0.3 C 67 % -5.67 C
2766 06-03-2006 05:19:39 -0.3 C 67 % -5.67 C
2767 06-03-2006 05:29:39 -0.3 C 66 % -5.87 C
2768 06-03-2006 05:39:39 0 C 66 % -5.58 C
2769 06-03-2006 05:49:40 -0.4 C 67 % -5.77 C
2770 06-03-2006 05:59:40 -0.4 C 67 % -5.77 C
2771 06-03-2006 06:09:40 -0.4 C 66 % -5.96 C
2772 06-03-2006 06:19:39 -0.4 C 66 % -5.96 C
2773 06-03-2006 06:29:39 -0.4 C 66 % -5.96 C
2774 06-03-2006 06:39:39 -0.5 C 66 % -6.06 C
2775 06-03-2006 06:49:40 -0.5 C 66 % -6.06 C
Sensor: Nr:Datum:Temp:Feuchte:Taupunkt:
Aussen-T/F 2776 06-03-2006 06:59:40 -0.5 C 65 % -6.26 C
2777 06-03-2006 07:09:40 -0.6 C 65 % -6.35 C
2778 06-03-2006 07:19:39 -0.7 C 65 % -6.45 C
2779 06-03-2006 07:29:39 -0.8 C 65 % -6.54 C
2780 06-03-2006 07:39:40 -0.7 C 64 % -6.65 C
2781 06-03-2006 07:49:39 -0.7 C 64 % -6.65 C
2782 06-03-2006 07:59:39 -0.7 C 64 % -6.65 C
2783 06-03-2006 08:09:40 -0.7 C 63 % -6.86 C
2784 06-03-2006 08:19:40 -0.6 C 63 % -6.76 C
2785 06-03-2006 08:29:40 -0.5 C 62 % -6.87 C
2786 06-03-2006 08:39:40 -0.5 C 62 % -6.87 C
2787 06-03-2006 08:49:40 -0.5 C 62 % -6.87 C
2788 06-03-2006 08:59:40 -0.4 C 62 % -6.78 C
2789 06-03-2006 09:09:39 -0.3 C 61 % -6.9 C
2790 06-03-2006 09:19:40 -0.3 C 61 % -6.9 C
2791 06-03-2006 09:29:40 -0.3 C 61 % -6.9 C
2792 06-03-2006 09:39:40 0 C 61 % -6.6 C
2793 06-03-2006 09:49:40 0.7 C 59 % -6.38 C
2794 06-03-2006 09:59:40 0.9 C 58 % -6.41 C
2795 06-03-2006 10:09:40 1 C 56 % -6.77 C
2796 06-03-2006 10:19:40 1.2 C 56 % -6.59 C
2797 06-03-2006 10:29:40 1.2 C 55 % -6.82 C
2798 06-03-2006 10:39:40 1.1 C 55 % -6.91 C
2799 06-03-2006 10:49:40 1.2 C 55 % -6.82 C
2800 06-03-2006 10:59:40 1.2 C 56 % -6.59 C
Sensor: Nr:Datum:Temp:Feuchte:Taupunkt:
Aussen-T/F 2801 06-03-2006 11:09:40 1.5 C 56 % -6.3 C
2802 06-03-2006 11:19:40 1.8 C 56 % -6.02 C
2803 06-03-2006 11:29:40 2.2 C 55 % -5.89 C
2804 06-03-2006 11:39:40 2.2 C 55 % -5.89 C
2805 06-03-2006 11:49:40 2.3 C 55 % -5.79 C
2806 06-03-2006 11:59:40 2.6 C 55 % -5.51 C
2807 06-03-2006 12:09:40 2.7 C 55 % -5.42 C
2808 06-03-2006 12:19:40 3.1 C 54 % -5.29 C
2809 06-03-2006 12:29:40 3.6 C 52 % -5.32 C
2810 06-03-2006 12:39:40 4.4 C 49 % -5.36 C
2811 06-03-2006 12:49:40 4 C 48 % -6 C
2812 06-03-2006 12:59:40 3.9 C 50 % -5.55 C
2813 06-03-2006 13:09:41 3.8 C 51 % -5.39 C
2814 06-03-2006 13:19:41 4 C 49 % -5.73 C
2815 06-03-2006 13:29:41 3.6 C 51 % -5.57 C
2816 06-03-2006 13:39:40 3 C 60 % -3.99 C
2817 06-03-2006 13:49:40 2.7 C 66 % -3 C
2818 06-03-2006 13:59:40 3 C 64 % -3.13 C
2819 06-03-2006 14:09:40 2.7 C 66 % -3 C
2820 06-03-2006 14:19:40 2.9 C 64 % -3.22 C
2821 06-03-2006 14:29:40 3.4 C 61 % -3.39 C
2822 06-03-2006 14:39:41 3.7 C 59 % -3.55 C
2823 06-03-2006 14:49:40 4.4 C 56 % -3.59 C
2824 06-03-2006 14:59:40 4.7 C 53 % -4.05 C
2825 06-03-2006 15:09:41 4.7 C 50 % -4.82 C
Sensor: Nr:Datum:Temp:Feuchte:Taupunkt:
Aussen-T/F 2826 06-03-2006 15:19:41 4.5 C 50 % -5 C
2827 06-03-2006 15:29:42 3.9 C 53 % -4.79 C
2828 06-03-2006 15:39:40 3.9 C 54 % -4.54 C
2829 06-03-2006 15:49:40 3.5 C 55 % -4.67 C
2830 06-03-2006 15:59:40 3.5 C 57 % -4.2 C
2831 06-03-2006 16:09:40 3.8 C 55 % -4.39 C
2832 06-03-2006 16:19:41 3.9 C 49 % -5.82 C
2833 06-03-2006 16:29:41 3.7 C 47 % -6.55 C
2834 06-03-2006 16:39:41 3.5 C 47 % -6.73 C
2835 06-03-2006 16:49:41 3.4 C 49 % -6.28 C
2836 06-03-2006 16:59:41 3.4 C 52 % -5.5 C
2837 06-03-2006 17:09:41 2.9 C 56 % -4.99 C
2838 06-03-2006 17:19:40 2.7 C 58 % -4.72 C
2839 06-03-2006 17:29:40 2.7 C 57 % -4.95 C
2840 06-03-2006 17:39:41 2.2 C 62 % -4.31 C
2841 06-03-2006 17:49:41 1.8 C 70 % -3.07 C
2842 06-03-2006 17:59:41 1.5 C 73 % -2.8 C
2843 06-03-2006 18:09:41 1.3 C 74 % -2.81 C
2844 06-03-2006 18:19:40 1.1 C 74 % -3 C
2845 06-03-2006 18:29:40 1.1 C 74 % -3 C
2846 06-03-2006 18:39:41 1.3 C 72 % -3.18 C
2847 06-03-2006 18:49:41 1.4 C 69 % -3.65 C
2848 06-03-2006 18:59:41 1.5 C 68 % -3.75 C
2849 06-03-2006 19:09:40 1.5 C 68 % -3.75 C
2850 06-03-2006 19:19:41 1.6 C 66 % -4.05 C
Sensor: Nr:Datum:Temp:Feuchte:Taupunkt:
Aussen-T/F 2851 06-03-2006 19:29:41 1.5 C 65 % -4.35 C
2852 06-03-2006 19:39:41 1.5 C 64 % -4.55 C
2853 06-03-2006 19:49:41 1.6 C 64 % -4.46 C
2854 06-03-2006 19:59:41 1.7 C 63 % -4.57 C
2855 06-03-2006 20:09:41 1.6 C 63 % -4.67 C
2856 06-03-2006 20:19:41 1.7 C 63 % -4.57 C
2857 06-03-2006 20:29:41 1.6 C 63 % -4.67 C
2858 06-03-2006 20:39:41 1.7 C 63 % -4.57 C
2859 06-03-2006 20:49:41 1.7 C 63 % -4.57 C
2860 06-03-2006 20:59:41 1.8 C 63 % -4.48 C
2861 06-03-2006 21:09:41 1.6 C 65 % -4.25 C
2862 06-03-2006 21:19:41 1.4 C 68 % -3.84 C
2863 06-03-2006 21:29:41 1.4 C 68 % -3.84 C
2864 06-03-2006 21:39:41 1.4 C 68 % -3.84 C
2865 06-03-2006 21:49:42 1.5 C 68 % -3.75 C
2866 06-03-2006 21:59:42 1.5 C 68 % -3.75 C
2867 06-03-2006 22:09:41 1.5 C 68 % -3.75 C
2868 06-03-2006 22:19:41 1.4 C 68 % -3.84 C
2869 06-03-2006 22:29:42 1.1 C 73 % -3.19 C
2870 06-03-2006 22:39:41 1 C 75 % -2.92 C
2871 06-03-2006 22:49:41 1 C 75 % -2.92 C
2872 06-03-2006 22:59:41 1.1 C 74 % -3 C
2873 06-03-2006 23:09:41 1.2 C 74 % -2.91 C
2874 06-03-2006 23:19:42 1.1 C 74 % -3 C
2875 06-03-2006 23:29:42 1.1 C 75 % -2.82 C
Sensor: Nr:Datum:Temp:Feuchte:Taupunkt:
Aussen-T/F 2876 06-03-2006 23:39:41 1.2 C 74 % -2.91 C
2877 06-03-2006 23:49:42 1.3 C 73 % -2.99 C
2878 06-03-2006 23:59:42 1.6 C 72 % -2.89 C
2879 07-03-2006 00:09:41 1.7 C 71 % -2.98 C
2880 07-03-2006 00:19:42 1.5 C 71 % -3.17 C
2881 07-03-2006 00:29:42 1.5 C 71 % -3.17 C
2882 07-03-2006 00:39:41 1.5 C 70 % -3.36 C
2883 07-03-2006 00:49:41 1.4 C 71 % -3.27 C
2884 07-03-2006 00:59:41 1.3 C 71 % -3.36 C
2885 07-03-2006 01:09:41 1.4 C 71 % -3.27 C
2886 07-03-2006 01:19:41 1.5 C 70 % -3.36 C
2887 07-03-2006 01:29:41 1.4 C 70 % -3.46 C
2888 07-03-2006 01:39:41 1.3 C 71 % -3.36 C
2889 07-03-2006 01:49:42 1.3 C 71 % -3.36 C
2890 07-03-2006 01:59:42 1.3 C 71 % -3.36 C
2891 07-03-2006 02:09:42 1.2 C 71 % -3.46 C
2892 07-03-2006 02:19:42 1.3 C 70 % -3.55 C
2893 07-03-2006 02:29:42 1.4 C 70 % -3.46 C
2894 07-03-2006 02:39:42 1.3 C 70 % -3.55 C
2895 07-03-2006 02:50:43 1.3 C 72 % -3.18 C
2896 07-03-2006 03:00:43 1.1 C 73 % -3.19 C
2897 07-03-2006 03:10:43 1.1 C 73 % -3.19 C
2898 07-03-2006 03:20:44 1.2 C 73 % -3.09 C
2899 07-03-2006 03:30:44 1.1 C 72 % -3.37 C
2900 07-03-2006 03:40:43 1 C 72 % -3.47 C
Sensor: Nr:Datum:Temp:Feuchte:Taupunkt:
Aussen-T/F 2901 07-03-2006 03:50:43 0.9 C 70 % -3.94 C
2902 07-03-2006 04:00:43 0.9 C 70 % -3.94 C
2903 07-03-2006 04:10:43 0.6 C 70 % -4.23 C
2904 07-03-2006 04:20:43 0.4 C 71 % -4.23 C
2905 07-03-2006 04:30:43 0.4 C 72 % -4.04 C
2906 07-03-2006 04:40:44 0.3 C 73 % -3.96 C
2907 07-03-2006 04:50:43 0.4 C 73 % -3.86 C
2908 07-03-2006 05:00:43 0.5 C 72 % -3.95 C
2909 07-03-2006 05:10:43 0.6 C 71 % -4.04 C
2910 07-03-2006 05:20:43 0.4 C 72 % -4.04 C
2911 07-03-2006 05:30:43 0.5 C 72 % -3.95 C
2912 07-03-2006 05:40:43 0.5 C 71 % -4.13 C
2913 07-03-2006 05:50:43 0.5 C 71 % -4.13 C
2914 07-03-2006 06:00:43 0.5 C 71 % -4.13 C
2915 07-03-2006 06:10:43 0.5 C 70 % -4.32 C
2916 07-03-2006 06:20:43 0.5 C 72 % -3.95 C
2917 07-03-2006 06:30:43 0.5 C 72 % -3.95 C
2918 07-03-2006 06:40:43 0.6 C 72 % -3.85 C
2919 07-03-2006 06:50:43 0.5 C 72 % -3.95 C
2920 07-03-2006 07:00:44 0.5 C 72 % -3.95 C
2921 07-03-2006 07:10:43 0.6 C 71 % -4.04 C
2922 07-03-2006 07:20:43 0.5 C 71 % -4.13 C
2923 07-03-2006 07:30:43 0.5 C 71 % -4.13 C
2924 07-03-2006 07:40:43 0.4 C 72 % -4.04 C
2925 07-03-2006 07:50:44 0.3 C 72 % -4.14 C
Sensor: Nr:Datum:Temp:Feuchte:Taupunkt:
Aussen-T/F 2926 07-03-2006 08:00:44 0.6 C 72 % -3.85 C
2927 07-03-2006 08:10:43 0.8 C 71 % -3.85 C
2928 07-03-2006 08:20:43 0.8 C 70 % -4.03 C
2929 07-03-2006 08:30:43 1 C 70 % -3.84 C
2930 07-03-2006 08:40:43 1.1 C 70 % -3.75 C
2931 07-03-2006 08:50:43 1.5 C 69 % -3.55 C
2932 07-03-2006 09:00:43 1.4 C 66 % -4.24 C
2933 07-03-2006 09:10:44 1.3 C 65 % -4.54 C
2934 07-03-2006 09:20:43 1.4 C 65 % -4.44 C
2935 07-03-2006 09:30:43 1.4 C 64 % -4.65 C
2936 07-03-2006 09:40:43 1.5 C 64 % -4.55 C
2937 07-03-2006 09:50:43 1.6 C 65 % -4.25 C
2938 07-03-2006 10:00:43 1.8 C 65 % -4.06 C
2939 07-03-2006 10:10:43 2.6 C 62 % -3.93 C
2940 07-03-2006 10:20:43 2.5 C 59 % -4.68 C
2941 07-03-2006 10:30:43 2.5 C 61 % -4.24 C
2942 07-03-2006 10:40:44 2.6 C 61 % -4.15 C
2943 07-03-2006 10:50:43 2.7 C 60 % -4.27 C
2944 07-03-2006 11:00:43 3 C 58 % -4.44 C
2945 07-03-2006 11:10:44 3 C 54 % -5.38 C
2946 07-03-2006 11:20:44 3.4 C 51 % -5.76 C
2947 07-03-2006 11:30:45 3.1 C 49 % -6.56 C
2948 07-03-2006 11:40:43 3.3 C 56 % -4.62 C
2949 07-03-2006 11:50:43 4.6 C 53 % -4.14 C
2950 07-03-2006 12:00:43 4.4 C 48 % -5.63 C
Sensor: Nr:Datum:Temp:Feuchte:Taupunkt:
Aussen-T/F 2951 07-03-2006 12:10:43 5 C 47 % -5.35 C
2952 07-03-2006 12:20:44 4.7 C 45 % -6.2 C
2953 07-03-2006 12:30:44 3.8 C 46 % -6.73 C
2954 07-03-2006 12:40:44 3.7 C 48 % -6.27 C
2955 07-03-2006 12:50:44 4.5 C 48 % -5.54 C
2956 07-03-2006 13:00:44 4.5 C 47 % -5.81 C
2957 07-03-2006 13:10:44 5.2 C 45 % -5.74 C
2958 07-03-2006 13:20:43 4.6 C 44 % -6.58 C
2959 07-03-2006 13:30:43 4.1 C 47 % -6.18 C
2960 07-03-2006 13:40:43 4.8 C 45 % -6.11 C
2961 07-03-2006 13:50:43 5.4 C 42 % -6.46 C
2962 07-03-2006 14:00:43 6.2 C 39 % -6.7 C
2963 07-03-2006 14:10:44 5.3 C 36 % -8.54 C
2964 07-03-2006 14:20:44 5.6 C 36 % -8.27 C
2965 07-03-2006 14:30:44 5.4 C 37 % -8.1 C
2966 07-03-2006 14:40:44 5 C 38 % -8.11 C
2967 07-03-2006 14:50:44 5.6 C 35 % -8.63 C
2968 07-03-2006 15:00:44 5.4 C 35 % -8.81 C
2969 07-03-2006 15:10:44 5.4 C 35 % -8.81 C
2970 07-03-2006 15:20:43 5.8 C 35 % -8.45 C
2971 07-03-2006 15:30:43 5.9 C 32 % -9.5 C
2972 07-03-2006 15:40:44 6.3 C 31 % -9.56 C
2973 07-03-2006 15:50:43 6.1 C 30 % -10.14 C
2974 07-03-2006 16:00:43 6 C 30 % -10.23 C
2975 07-03-2006 16:10:44 6 C 31 % -9.82 C
Sensor: Nr:Datum:Temp:Feuchte:Taupunkt:
Aussen-T/F 2976 07-03-2006 16:20:44 6 C 32 % -9.42 C
2977 07-03-2006 16:30:44 5.7 C 33 % -9.29 C
2978 07-03-2006 16:40:44 5.4 C 33 % -9.55 C
2979 07-03-2006 16:50:44 5.3 C 35 % -8.9 C
2980 07-03-2006 17:00:44 5 C 35 % -9.16 C
2981 07-03-2006 17:10:44 4.9 C 39 % -7.87 C
2982 07-03-2006 17:20:44 4.5 C 41 % -7.58 C
2983 07-03-2006 17:30:44 4.3 C 43 % -7.15 C
2984 07-03-2006 17:40:45 4.1 C 44 % -7.04 C
2985 07-03-2006 17:50:44 3.7 C 46 % -6.83 C
2986 07-03-2006 18:00:44 3.4 C 45 % -7.38 C
2987 07-03-2006 18:10:44 2.9 C 48 % -7.01 C
2988 07-03-2006 18:20:45 2.6 C 48 % -7.28 C
2989 07-03-2006 18:30:45 2.3 C 50 % -7.03 C
2990 07-03-2006 18:40:44 1.8 C 52 % -6.99 C
2991 07-03-2006 18:50:45 1.5 C 54 % -6.78 C
2992 07-03-2006 19:00:45 1.5 C 53 % -7.02 C
2993 07-03-2006 19:10:44 1.4 C 53 % -7.11 C
2994 07-03-2006 19:20:44 1.3 C 54 % -6.96 C
2995 07-03-2006 19:30:44 1.2 C 55 % -6.82 C
2996 07-03-2006 19:40:44 1.1 C 55 % -6.91 C
2997 07-03-2006 19:50:44 1 C 55 % -7.01 C
2998 07-03-2006 20:00:44 1 C 55 % -7.01 C
2999 07-03-2006 20:10:44 0.9 C 56 % -6.87 C
3000 07-03-2006 20:20:44 0.8 C 58 % -6.5 C
Sensor: Nr:Datum:Temp:Feuchte:Taupunkt:
Aussen-T/F 3001 07-03-2006 20:30:44 0.7 C 57 % -6.82 C
3002 07-03-2006 20:40:45 0.6 C 58 % -6.69 C
3003 07-03-2006 20:50:44 0.4 C 58 % -6.88 C
3004 07-03-2006 21:00:45 0.4 C 59 % -6.66 C
3005 07-03-2006 21:10:44 0.3 C 59 % -6.75 C
3006 07-03-2006 21:20:44 0.3 C 59 % -6.75 C
3007 07-03-2006 21:30:44 0.2 C 60 % -6.63 C
3008 07-03-2006 21:40:45 0.1 C 60 % -6.72 C
3009 07-03-2006 21:50:44 0 C 60 % -6.82 C
3010 07-03-2006 22:00:44 -0.2 C 61 % -6.8 C
3011 07-03-2006 22:10:45 -0.4 C 62 % -6.78 C
3012 07-03-2006 22:20:45 -0.4 C 63 % -6.57 C
3013 07-03-2006 22:30:45 -0.2 C 61 % -6.8 C
3014 07-03-2006 22:40:44 -0.2 C 61 % -6.8 C
3015 07-03-2006 22:50:45 0.1 C 60 % -6.72 C
3016 07-03-2006 23:00:45 0.3 C 57 % -7.2 C
3017 07-03-2006 23:10:44 0.4 C 57 % -7.11 C
3018 07-03-2006 23:20:45 0.3 C 57 % -7.2 C
3019 07-03-2006 23:30:45 0.1 C 59 % -6.94 C
3020 07-03-2006 23:40:45 0.2 C 59 % -6.85 C
3021 07-03-2006 23:50:45 0.1 C 60 % -6.72 C
3022 08-03-2006 00:00:45 -0.1 C 61 % -6.71 C
3023 08-03-2006 00:10:45 -0.3 C 62 % -6.68 C
3024 08-03-2006 00:20:45 -0.4 C 62 % -6.78 C
3025 08-03-2006 00:30:45 -0.6 C 63 % -6.76 C
Sensor: Nr:Datum:Temp:Feuchte:Taupunkt:
Aussen-T/F 3026 08-03-2006 00:40:45 -0.8 C 64 % -6.75 C
3027 08-03-2006 00:50:44 -1 C 64 % -6.94 C
3028 08-03-2006 01:00:44 -1.1 C 64 % -7.03 C
3029 08-03-2006 01:10:45 -1.1 C 65 % -6.83 C
3030 08-03-2006 01:20:45 -1 C 65 % -6.74 C
3031 08-03-2006 01:30:45 -1.2 C 65 % -6.93 C
3032 08-03-2006 01:40:45 -1.1 C 66 % -6.63 C
3033 08-03-2006 01:50:45 -1 C 68 % -6.15 C
3034 08-03-2006 02:00:45 -1 C 68 % -6.15 C
3035 08-03-2006 02:10:46 -1 C 69 % -5.96 C
3036 08-03-2006 02:20:46 -1 C 69 % -5.96 C
3037 08-03-2006 02:30:46 -1 C 70 % -5.77 C
3038 08-03-2006 02:40:45 -1 C 70 % -5.77 C
3039 08-03-2006 02:51:46 -1 C 70 % -5.77 C
3040 08-03-2006 03:01:46 -1 C 70 % -5.77 C
3041 08-03-2006 03:11:47 -1.1 C 70 % -5.86 C
3042 08-03-2006 03:21:47 -1 C 71 % -5.58 C
3043 08-03-2006 03:31:47 -1.1 C 71 % -5.68 C
3044 08-03-2006 03:41:47 -1.1 C 71 % -5.68 C
3045 08-03-2006 03:51:47 -0.9 C 71 % -5.49 C
3046 08-03-2006 04:01:46 -1 C 71 % -5.58 C
3047 08-03-2006 04:11:46 -0.9 C 72 % -5.3 C
3048 08-03-2006 04:21:47 -0.6 C 72 % -5.01 C
3049 08-03-2006 04:31:46 -0.4 C 72 % -4.82 C
3050 08-03-2006 04:41:46 -0.4 C 71 % -5.01 C
Sensor: Nr:Datum:Temp:Feuchte:Taupunkt:
Aussen-T/F 3051 08-03-2006 04:51:46 -0.3 C 71 % -4.91 C
3052 08-03-2006 05:01:46 0.1 C 70 % -4.71 C
3053 08-03-2006 05:11:46 0.3 C 67 % -5.09 C
3054 08-03-2006 05:21:47 0.3 C 66 % -5.29 C
3055 08-03-2006 05:31:46 0.3 C 66 % -5.29 C
3056 08-03-2006 05:41:46 0 C 66 % -5.58 C
3057 08-03-2006 05:51:47 -0.1 C 66 % -5.68 C
3058 08-03-2006 06:01:47 -0.3 C 66 % -5.87 C
3059 08-03-2006 06:11:47 -0.3 C 66 % -5.87 C
3060 08-03-2006 06:21:47 -0.2 C 66 % -5.77 C
3061 08-03-2006 06:31:47 0 C 66 % -5.58 C
3062 08-03-2006 06:41:47 -0.2 C 66 % -5.77 C
3063 08-03-2006 06:51:47 -0.2 C 67 % -5.58 C
3064 08-03-2006 07:01:47 0 C 66 % -5.58 C
3065 08-03-2006 07:11:47 0.1 C 65 % -5.68 C
3066 08-03-2006 07:21:47 0.3 C 64 % -5.69 C
3067 08-03-2006 07:31:47 0.5 C 63 % -5.71 C
3068 08-03-2006 07:41:47 0.6 C 63 % -5.61 C
3069 08-03-2006 07:51:47 0.7 C 62 % -5.73 C
3070 08-03-2006 08:01:47 0.8 C 63 % -5.42 C
3071 08-03-2006 08:11:47 0.9 C 63 % -5.33 C
3072 08-03-2006 08:21:47 1 C 62 % -5.45 C
3073 08-03-2006 08:31:47 1.1 C 62 % -5.35 C
3074 08-03-2006 08:41:47 1.2 C 63 % -5.05 C
3075 08-03-2006 08:51:47 1.2 C 65 % -4.63 C
Sensor: Nr:Datum:Temp:Feuchte:Taupunkt:
Aussen-T/F 3076 08-03-2006 09:01:47 1.1 C 68 % -4.13 C
3077 08-03-2006 09:11:47 1.2 C 69 % -3.84 C
3078 08-03-2006 09:21:48 1.3 C 69 % -3.75 C
3079 08-03-2006 09:31:47 1.3 C 69 % -3.75 C
3080 08-03-2006 09:41:47 1.4 C 68 % -3.84 C
3081 08-03-2006 09:51:48 1.5 C 68 % -3.75 C
3082 08-03-2006 10:01:47 1.6 C 68 % -3.65 C
3083 08-03-2006 10:11:48 1.6 C 68 % -3.65 C
3084 08-03-2006 10:21:47 1.7 C 68 % -3.56 C
3085 08-03-2006 10:31:48 1.8 C 68 % -3.46 C
3086 08-03-2006 10:41:48 1.8 C 70 % -3.07 C
3087 08-03-2006 10:51:47 1.9 C 71 % -2.79 C
3088 08-03-2006 11:01:48 1.9 C 70 % -2.98 C
3089 08-03-2006 11:11:48 2.2 C 71 % -2.5 C
3090 08-03-2006 11:21:48 2.3 C 68 % -2.98 C
3091 08-03-2006 11:31:47 2.4 C 69 % -2.69 C
3092 08-03-2006 11:41:47 2.6 C 68 % -2.7 C
3093 08-03-2006 11:51:47 2.3 C 68 % -2.98 C
3094 08-03-2006 12:01:47 2.2 C 68 % -3.08 C
3095 08-03-2006 12:11:47 1.9 C 71 % -2.79 C
3096 08-03-2006 12:21:47 1.8 C 72 % -2.7 C
3097 08-03-2006 12:31:48 1.9 C 73 % -2.41 C
3098 08-03-2006 12:41:48 1.8 C 74 % -2.33 C
3099 08-03-2006 12:51:48 1.6 C 77 % -1.99 C
3100 08-03-2006 13:01:48 1.4 C 79 % -1.83 C
Sensor: Nr:Datum:Temp:Feuchte:Taupunkt:
Aussen-T/F 3101 08-03-2006 13:11:48 1.1 C 80 % -1.96 C
3102 08-03-2006 13:21:47 1.2 C 82 % -1.52 C
3103 08-03-2006 13:31:47 1.3 C 82 % -1.43 C
3104 08-03-2006 13:41:47 1.3 C 82 % -1.43 C
3105 08-03-2006 13:51:47 1.5 C 83 % -1.06 C
3106 08-03-2006 14:01:48 1.6 C 83 % -0.97 C
3107 08-03-2006 14:11:48 1.6 C 83 % -0.97 C
3108 08-03-2006 14:21:48 1.5 C 83 % -1.06 C
3109 08-03-2006 14:31:48 1.6 C 83 % -0.97 C
3110 08-03-2006 14:41:48 1.8 C 84 % -0.61 C
3111 08-03-2006 14:51:48 1.7 C 83 % -0.87 C
3112 08-03-2006 15:01:48 1.8 C 83 % -0.77 C
3113 08-03-2006 15:11:48 1.7 C 83 % -0.87 C
3114 08-03-2006 15:21:47 1.7 C 84 % -0.71 C
3115 08-03-2006 15:31:48 1.7 C 84 % -0.71 C
3116 08-03-2006 15:41:48 1.7 C 85 % -0.54 C
3117 08-03-2006 15:51:47 1.7 C 85 % -0.54 C
3118 08-03-2006 16:01:48 1.7 C 85 % -0.54 C
3119 08-03-2006 16:11:48 1.7 C 86 % -0.38 C
3120 08-03-2006 16:21:48 1.7 C 86 % -0.38 C
3121 08-03-2006 16:31:48 1.7 C 86 % -0.38 C
3122 08-03-2006 16:41:48 1.7 C 87 % -0.23 C
3123 08-03-2006 16:51:48 1.7 C 88 % -0.07 C
3124 08-03-2006 17:01:48 1.7 C 88 % -0.07 C
3125 08-03-2006 17:11:48 1.7 C 88 % -0.07 C
Sensor: Nr:Datum:Temp:Feuchte:Taupunkt:
Aussen-T/F 3126 08-03-2006 17:21:48 1.8 C 88 % 0.03 C
3127 08-03-2006 17:31:48 1.8 C 88 % 0.03 C
3128 08-03-2006 17:41:48 1.8 C 89 % 0.19 C
3129 08-03-2006 17:51:48 1.8 C 89 % 0.19 C
3130 08-03-2006 18:01:48 1.7 C 89 % 0.09 C
3131 08-03-2006 18:11:48 1.7 C 89 % 0.09 C
3132 08-03-2006 18:21:48 1.8 C 89 % 0.19 C
3133 08-03-2006 18:31:48 1.7 C 89 % 0.09 C
3134 08-03-2006 18:41:48 1.7 C 89 % 0.09 C
3135 08-03-2006 18:51:48 1.8 C 89 % 0.19 C
3136 08-03-2006 19:01:49 1.8 C 90 % 0.34 C
3137 08-03-2006 19:11:49 1.9 C 90 % 0.44 C
3138 08-03-2006 19:21:48 1.8 C 90 % 0.34 C
3139 08-03-2006 19:31:48 1.9 C 90 % 0.44 C
3140 08-03-2006 19:41:49 1.8 C 90 % 0.34 C
3141 08-03-2006 19:51:48 1.8 C 90 % 0.34 C
3142 08-03-2006 20:01:48 1.7 C 90 % 0.24 C
3143 08-03-2006 20:11:48 1.8 C 90 % 0.34 C
3144 08-03-2006 20:21:48 1.7 C 91 % 0.39 C
3145 08-03-2006 20:31:49 1.8 C 91 % 0.49 C
3146 08-03-2006 20:41:49 1.8 C 91 % 0.49 C
3147 08-03-2006 20:51:48 1.8 C 91 % 0.49 C
3148 08-03-2006 21:01:49 1.8 C 91 % 0.49 C
3149 08-03-2006 21:11:49 1.9 C 91 % 0.59 C
3150 08-03-2006 21:21:48 1.8 C 91 % 0.49 C
Sensor: Nr:Datum:Temp:Feuchte:Taupunkt:
Aussen-T/F 3151 08-03-2006 21:31:48 1.8 C 91 % 0.49 C
3152 08-03-2006 21:41:48 1.9 C 91 % 0.59 C
3153 08-03-2006 21:51:48 1.8 C 91 % 0.49 C
3154 08-03-2006 22:01:48 2 C 91 % 0.69 C
3155 08-03-2006 22:11:48 2 C 91 % 0.69 C
3156 08-03-2006 22:21:49 2 C 91 % 0.69 C
3157 08-03-2006 22:31:49 2 C 91 % 0.69 C
3158 08-03-2006 22:41:49 2.1 C 91 % 0.79 C
3159 08-03-2006 22:51:48 2.1 C 91 % 0.79 C
3160 08-03-2006 23:01:49 2.1 C 91 % 0.79 C
3161 08-03-2006 23:11:49 2.3 C 91 % 0.99 C
3162 08-03-2006 23:21:49 2.3 C 92 % 1.14 C
3163 08-03-2006 23:31:48 2.4 C 92 % 1.24 C
3164 08-03-2006 23:41:48 2.5 C 92 % 1.34 C
3165 08-03-2006 23:51:49 2.4 C 92 % 1.24 C
3166 09-03-2006 00:01:49 2.5 C 92 % 1.34 C
3167 09-03-2006 00:11:49 2.5 C 92 % 1.34 C
3168 09-03-2006 00:21:49 2.6 C 92 % 1.43 C
3169 09-03-2006 00:31:49 3.2 C 92 % 2.03 C
3170 09-03-2006 00:41:49 4.8 C 93 % 3.77 C
3171 09-03-2006 00:51:49 5 C 94 % 4.12 C
3172 09-03-2006 01:01:49 5.1 C 94 % 4.22 C
3173 09-03-2006 01:11:49 5.1 C 94 % 4.22 C
3174 09-03-2006 01:21:49 5.4 C 95 % 4.66 C
3175 09-03-2006 01:31:49 5.6 C 95 % 4.86 C
Sensor: Nr:Datum:Temp:Feuchte:Taupunkt:
Aussen-T/F 3176 09-03-2006 01:41:49 5.7 C 95 % 4.96 C
3177 09-03-2006 01:51:49 6 C 95 % 5.26 C
3178 09-03-2006 02:01:49 5.9 C 95 % 5.16 C
3179 09-03-2006 02:11:49 6 C 95 % 5.26 C
3180 09-03-2006 02:21:49 6 C 95 % 5.26 C
3181 09-03-2006 02:31:49 6 C 95 % 5.26 C
3182 09-03-2006 02:41:49 6 C 95 % 5.26 C
3183 09-03-2006 02:52:50 6.1 C 95 % 5.36 C
3184 09-03-2006 03:02:50 6.1 C 95 % 5.36 C
3185 09-03-2006 03:12:51 6.3 C 95 % 5.56 C
3186 09-03-2006 03:22:51 6.3 C 95 % 5.56 C
3187 09-03-2006 03:32:51 6.4 C 95 % 5.66 C
3188 09-03-2006 03:42:51 6.4 C 95 % 5.66 C
3189 09-03-2006 03:52:51 6.3 C 95 % 5.56 C
3190 09-03-2006 04:02:51 6.3 C 95 % 5.56 C
3191 09-03-2006 04:12:51 6.1 C 95 % 5.36 C
3192 09-03-2006 04:22:51 5.8 C 95 % 5.06 C
3193 09-03-2006 04:32:51 5.9 C 95 % 5.16 C
3194 09-03-2006 04:42:51 6.1 C 95 % 5.36 C
3195 09-03-2006 04:52:51 6.5 C 95 % 5.76 C
3196 09-03-2006 05:02:51 6.9 C 95 % 6.16 C
3197 09-03-2006 05:12:51 6.8 C 95 % 6.06 C
3198 09-03-2006 05:22:51 6.8 C 95 % 6.06 C
3199 09-03-2006 05:32:51 6.8 C 95 % 6.06 C
3200 09-03-2006 05:42:51 6.5 C 95 % 5.76 C
Sensor: Nr:Datum:Temp:Feuchte:Taupunkt:
Aussen-T/F 3201 09-03-2006 05:52:51 6.8 C 95 % 6.06 C
3202 09-03-2006 06:02:51 6.8 C 94 % 5.9 C
3203 09-03-2006 06:12:51 6.8 C 94 % 5.9 C
3204 09-03-2006 06:22:50 6.8 C 94 % 5.9 C
3205 09-03-2006 06:32:51 6.8 C 93 % 5.75 C
3206 09-03-2006 06:42:51 6.5 C 92 % 5.3 C
3207 09-03-2006 06:52:51 6.5 C 92 % 5.3 C
3208 09-03-2006 07:02:51 6.8 C 92 % 5.59 C
3209 09-03-2006 07:12:51 7 C 91 % 5.63 C
3210 09-03-2006 07:22:51 7 C 90 % 5.48 C
3211 09-03-2006 07:32:51 6.9 C 90 % 5.38 C
3212 09-03-2006 07:42:51 6.9 C 89 % 5.22 C
3213 09-03-2006 07:52:51 7 C 88 % 5.15 C
3214 09-03-2006 08:02:51 7.1 C 88 % 5.25 C
3215 09-03-2006 08:12:51 7.5 C 88 % 5.64 C
3216 09-03-2006 08:22:51 7.8 C 86 % 5.61 C
3217 09-03-2006 08:32:51 8.1 C 83 % 5.39 C
3218 09-03-2006 08:42:51 8.2 C 82 % 5.32 C
3219 09-03-2006 08:52:51 8.3 C 80 % 5.06 C
3220 09-03-2006 09:02:52 8.4 C 79 % 4.98 C
3221 09-03-2006 09:12:52 8.5 C 78 % 4.89 C
3222 09-03-2006 09:22:51 8.6 C 78 % 4.99 C
3223 09-03-2006 09:32:51 8.7 C 78 % 5.08 C
3224 09-03-2006 09:42:51 8.9 C 77 % 5.09 C
3225 09-03-2006 09:52:51 9 C 76 % 5 C
Sensor: Nr:Datum:Temp:Feuchte:Taupunkt:
Aussen-T/F 3226 09-03-2006 10:02:51 9 C 76 % 5 C
3227 09-03-2006 10:12:52 9.1 C 76 % 5.1 C
3228 09-03-2006 10:22:51 9.3 C 75 % 5.1 C
3229 09-03-2006 10:32:51 9.5 C 74 % 5.1 C
3230 09-03-2006 10:42:51 9.6 C 73 % 5.01 C
3231 09-03-2006 10:52:51 9.7 C 72 % 4.9 C
3232 09-03-2006 11:02:52 9.7 C 72 % 4.9 C
3233 09-03-2006 11:12:52 9.5 C 74 % 5.1 C
3234 09-03-2006 11:22:52 9.5 C 74 % 5.1 C
3235 09-03-2006 11:32:51 9.6 C 74 % 5.2 C
3236 09-03-2006 11:42:52 9.7 C 73 % 5.1 C
3237 09-03-2006 11:52:51 9.9 C 73 % 5.29 C
3238 09-03-2006 12:02:51 10.5 C 71 % 5.47 C
3239 09-03-2006 12:12:51 10.7 C 69 % 5.25 C
3240 09-03-2006 12:22:51 10.7 C 68 % 5.04 C
3241 09-03-2006 12:32:52 10.7 C 69 % 5.25 C
3242 09-03-2006 12:42:52 10.6 C 67 % 4.74 C
3243 09-03-2006 12:52:51 11 C 65 % 4.68 C
3244 09-03-2006 13:02:52 11.1 C 64 % 4.56 C
3245 09-03-2006 13:12:52 11 C 64 % 4.46 C
3246 09-03-2006 13:22:51 11 C 64 % 4.46 C
3247 09-03-2006 13:32:51 10.8 C 66 % 4.71 C
3248 09-03-2006 13:42:51 10.7 C 65 % 4.4 C
3249 09-03-2006 13:52:51 10.8 C 64 % 4.27 C
3250 09-03-2006 14:02:51 10.9 C 65 % 4.59 C
Sensor: Nr:Datum:Temp:Feuchte:Taupunkt:
Aussen-T/F 3251 09-03-2006 14:12:51 10.8 C 65 % 4.49 C
3252 09-03-2006 14:22:52 10.8 C 66 % 4.71 C
3253 09-03-2006 14:32:52 11 C 65 % 4.68 C
3254 09-03-2006 14:42:52 10.9 C 65 % 4.59 C
3255 09-03-2006 14:52:52 10.8 C 65 % 4.49 C
3256 09-03-2006 15:02:52 10.8 C 65 % 4.49 C
3257 09-03-2006 15:12:53 10.6 C 64 % 4.08 C
3258 09-03-2006 15:22:52 10.7 C 64 % 4.18 C
3259 09-03-2006 15:32:51 10.7 C 63 % 3.95 C
3260 09-03-2006 15:42:51 10.5 C 64 % 3.99 C
3261 09-03-2006 15:52:51 10.4 C 64 % 3.89 C
3262 09-03-2006 16:02:52 10.5 C 64 % 3.99 C
3263 09-03-2006 16:12:52 10.3 C 64 % 3.8 C
3264 09-03-2006 16:22:52 10.2 C 65 % 3.92 C
3265 09-03-2006 16:32:52 10.2 C 64 % 3.7 C
3266 09-03-2006 16:42:52 10.1 C 64 % 3.61 C
3267 09-03-2006 16:52:52 10 C 62 % 3.07 C
3268 09-03-2006 17:02:52 9.8 C 62 % 2.88 C
3269 09-03-2006 17:12:52 9.7 C 61 % 2.55 C
3270 09-03-2006 17:22:52 9.6 C 61 % 2.46 C
3271 09-03-2006 17:32:52 9.5 C 61 % 2.37 C
3272 09-03-2006 17:42:52 9.4 C 61 % 2.27 C
3273 09-03-2006 17:52:52 9.3 C 60 % 1.95 C
3274 09-03-2006 18:02:52 9.3 C 60 % 1.95 C
3275 09-03-2006 18:12:52 9.3 C 62 % 2.4 C
Sensor: Nr:Datum:Temp:Feuchte:Taupunkt:
Aussen-T/F 3276 09-03-2006 18:22:51 9.1 C 63 % 2.44 C
3277 09-03-2006 18:32:52 9 C 63 % 2.35 C
3278 09-03-2006 18:42:52 9 C 63 % 2.35 C
3279 09-03-2006 18:52:52 8.9 C 65 % 2.69 C
3280 09-03-2006 19:02:52 8.8 C 66 % 2.81 C
3281 09-03-2006 19:12:53 8.7 C 67 % 2.92 C
3282 09-03-2006 19:22:52 8.6 C 67 % 2.83 C
3283 09-03-2006 19:32:52 8.5 C 68 % 2.94 C
3284 09-03-2006 19:42:52 8.2 C 73 % 3.66 C
3285 09-03-2006 19:52:52 7.9 C 79 % 4.49 C
3286 09-03-2006 20:02:52 7.6 C 82 % 4.73 C
3287 09-03-2006 20:12:52 7.6 C 83 % 4.9 C
3288 09-03-2006 20:22:53 7.4 C 84 % 4.88 C
3289 09-03-2006 20:32:52 7.4 C 85 % 5.05 C
3290 09-03-2006 20:42:52 7.3 C 85 % 4.95 C
3291 09-03-2006 20:52:53 7.3 C 85 % 4.95 C
3292 09-03-2006 21:02:52 7.3 C 85 % 4.95 C
3293 09-03-2006 21:12:52 7.3 C 85 % 4.95 C
3294 09-03-2006 21:22:52 7.4 C 85 % 5.05 C
3295 09-03-2006 21:32:52 7.4 C 84 % 4.88 C
3296 09-03-2006 21:42:52 7.4 C 84 % 4.88 C
3297 09-03-2006 21:52:52 7.3 C 84 % 4.78 C
3298 09-03-2006 22:02:53 7.3 C 84 % 4.78 C
3299 09-03-2006 22:12:53 7.4 C 84 % 4.88 C
3300 09-03-2006 22:22:52 7.3 C 84 % 4.78 C
Sensor: Nr:Datum:Temp:Feuchte:Taupunkt:
Aussen-T/F 3301 09-03-2006 22:32:52 7.2 C 85 % 4.85 C
3302 09-03-2006 22:42:52 7.1 C 86 % 4.92 C
3303 09-03-2006 22:52:53 7 C 87 % 4.99 C
3304 09-03-2006 23:02:52 7.1 C 88 % 5.25 C
3305 09-03-2006 23:12:52 7 C 88 % 5.15 C
3306 09-03-2006 23:22:52 7 C 88 % 5.15 C
3307 09-03-2006 23:32:53 6.9 C 88 % 5.05 C
3308 09-03-2006 23:42:53 6.7 C 88 % 4.86 C
3309 09-03-2006 23:52:52 6.8 C 86 % 4.63 C
3310 10-03-2006 00:02:53 6.7 C 85 % 4.36 C
3311 10-03-2006 00:12:53 6.6 C 82 % 3.75 C
3312 10-03-2006 00:22:53 6.7 C 79 % 3.32 C
3313 10-03-2006 00:32:53 6.8 C 77 % 3.06 C
3314 10-03-2006 00:42:53 6.7 C 76 % 2.78 C
3315 10-03-2006 00:52:53 6.8 C 75 % 2.69 C
3316 10-03-2006 01:02:53 6.8 C 75 % 2.69 C
3317 10-03-2006 01:12:53 6.7 C 73 % 2.21 C
3318 10-03-2006 01:22:53 6.6 C 74 % 2.31 C
3319 10-03-2006 01:32:53 6.7 C 72 % 2.02 C
3320 10-03-2006 01:42:54 6.7 C 71 % 1.82 C
3321 10-03-2006 01:52:53 6.8 C 70 % 1.72 C
3322 10-03-2006 02:02:53 6.7 C 70 % 1.63 C
3323 10-03-2006 02:12:53 6.7 C 68 % 1.22 C
3324 10-03-2006 02:22:53 6.5 C 70 % 1.43 C
3325 10-03-2006 02:32:53 6.4 C 71 % 1.54 C
Sensor: Nr:Datum:Temp:Feuchte:Taupunkt:
Aussen-T/F 3326 10-03-2006 02:42:53 6.1 C 72 % 1.44 C
3327 10-03-2006 02:53:54 6.2 C 71 % 1.34 C
3328 10-03-2006 03:03:54 6.1 C 71 % 1.25 C
3329 10-03-2006 03:13:55 5.9 C 72 % 1.25 C
3330 10-03-2006 03:23:55 5.8 C 71 % 0.96 C
3331 10-03-2006 03:33:55 5.9 C 69 % 0.66 C
3332 10-03-2006 03:43:55 5.7 C 68 % 0.27 C
3333 10-03-2006 03:53:55 5.5 C 69 % 0.28 C
3334 10-03-2006 04:03:55 5.4 C 68 % -0.02 C
3335 10-03-2006 04:13:55 5.2 C 70 % 0.19 C
3336 10-03-2006 04:23:55 5.1 C 72 % 0.48 C
3337 10-03-2006 04:33:55 5.1 C 72 % 0.48 C
3338 10-03-2006 04:43:55 5.2 C 72 % 0.58 C
3339 10-03-2006 04:53:55 5.3 C 73 % 0.86 C
3340 10-03-2006 05:03:55 5.3 C 74 % 1.05 C
3341 10-03-2006 05:13:55 4.9 C 75 % 0.85 C
3342 10-03-2006 05:23:55 4.8 C 75 % 0.75 C
3343 10-03-2006 05:33:55 4.8 C 74 % 0.57 C
3344 10-03-2006 05:43:55 4.9 C 68 % -0.5 C
3345 10-03-2006 05:53:55 4.9 C 66 % -0.91 C
3346 10-03-2006 06:03:55 4.7 C 66 % -1.1 C
3347 10-03-2006 06:13:55 4.6 C 66 % -1.19 C
3348 10-03-2006 06:23:54 4.4 C 66 % -1.38 C
3349 10-03-2006 06:33:55 4.5 C 68 % -0.88 C
3350 10-03-2006 06:43:55 4.3 C 68 % -1.07 C
Sensor: Nr:Datum:Temp:Feuchte:Taupunkt:
Aussen-T/F 3351 10-03-2006 06:53:55 4.5 C 68 % -0.88 C
3352 10-03-2006 07:03:55 4.5 C 68 % -0.88 C
3353 10-03-2006 07:13:55 4.3 C 68 % -1.07 C
3354 10-03-2006 07:23:55 4.3 C 68 % -1.07 C
3355 10-03-2006 07:33:55 4.3 C 68 % -1.07 C
3356 10-03-2006 07:43:55 4.3 C 69 % -0.87 C
3357 10-03-2006 07:53:55 4.2 C 70 % -0.77 C
3358 10-03-2006 08:03:54 4.3 C 70 % -0.68 C
3359 10-03-2006 08:13:54 4.5 C 69 % -0.68 C
3360 10-03-2006 08:23:55 4.6 C 69 % -0.58 C
3361 10-03-2006 08:33:55 4.7 C 68 % -0.69 C
3362 10-03-2006 08:43:55 5 C 66 % -0.81 C
3363 10-03-2006 08:53:55 5.2 C 65 % -0.83 C
3364 10-03-2006 09:03:55 5.6 C 64 % -0.66 C
3365 10-03-2006 09:13:55 5.8 C 63 % -0.69 C
3366 10-03-2006 09:23:55 5.8 C 63 % -0.69 C
3367 10-03-2006 09:33:55 5.8 C 63 % -0.69 C
3368 10-03-2006 09:43:55 5.8 C 61 % -1.13 C
3369 10-03-2006 09:53:55 5.8 C 62 % -0.9 C
3370 10-03-2006 10:03:55 4.7 C 73 % 0.28 C
3371 10-03-2006 10:13:55 4.5 C 75 % 0.46 C
3372 10-03-2006 10:23:55 4.6 C 78 % 1.1 C
3373 10-03-2006 10:33:55 4.8 C 78 % 1.3 C
3374 10-03-2006 10:43:55 5 C 77 % 1.31 C
3375 10-03-2006 10:53:55 5.2 C 72 % 0.58 C
Sensor: Nr:Datum:Temp:Feuchte:Taupunkt:
Aussen-T/F 3376 10-03-2006 11:03:56 5.7 C 68 % 0.27 C
3377 10-03-2006 11:13:56 5.8 C 64 % -0.47 C
3378 10-03-2006 11:23:56 5.9 C 63 % -0.59 C
3379 10-03-2006 11:33:55 5.9 C 63 % -0.59 C
3380 10-03-2006 11:43:56 6.2 C 61 % -0.75 C
3381 10-03-2006 11:53:55 6.7 C 59 % -0.73 C
3382 10-03-2006 12:03:55 6.7 C 57 % -1.2 C
3383 10-03-2006 12:13:55 7.1 C 59 % -0.36 C
3384 10-03-2006 12:23:55 7.1 C 56 % -1.07 C
3385 10-03-2006 12:33:56 7.1 C 56 % -1.07 C
3386 10-03-2006 12:43:56 7.2 C 56 % -0.98 C
3387 10-03-2006 12:53:55 6.8 C 57 % -1.11 C
3388 10-03-2006 13:03:56 7.3 C 59 % -0.17 C
3389 10-03-2006 13:13:56 7.8 C 53 % -1.17 C
3390 10-03-2006 13:23:56 7.3 C 54 % -1.38 C
3391 10-03-2006 13:33:55 7.2 C 54 % -1.47 C
3392 10-03-2006 13:43:55 7.6 C 55 % -0.85 C
3393 10-03-2006 13:53:56 7.9 C 50 % -1.86 C
3394 10-03-2006 14:03:55 8.1 C 47 % -2.52 C
3395 10-03-2006 14:13:55 8.3 C 46 % -2.62 C
3396 10-03-2006 14:23:55 7.5 C 55 % -0.94 C
3397 10-03-2006 14:33:56 7 C 55 % -1.41 C
3398 10-03-2006 14:43:56 6.9 C 62 % 0.14 C
3399 10-03-2006 14:53:56 6.7 C 61 % -0.28 C
3400 10-03-2006 15:03:55 6.6 C 61 % -0.37 C
Sensor: Nr:Datum:Temp:Feuchte:Taupunkt:
Aussen-T/F 3401 10-03-2006 15:13:55 7 C 58 % -0.68 C
3402 10-03-2006 15:23:55 7.9 C 51 % -1.6 C
3403 10-03-2006 15:33:56 8.9 C 41 % -3.62 C
3404 10-03-2006 15:43:56 9.1 C 40 % -3.77 C
3405 10-03-2006 15:53:55 8.4 C 44 % -3.13 C
3406 10-03-2006 16:03:55 8.5 C 46 % -2.44 C
3407 10-03-2006 16:13:55 8.5 C 46 % -2.44 C
3408 10-03-2006 16:23:55 8.4 C 46 % -2.53 C
3409 10-03-2006 16:33:56 8.2 C 47 % -2.42 C
3410 10-03-2006 16:43:56 8.2 C 46 % -2.71 C
3411 10-03-2006 16:53:56 8 C 45 % -3.19 C
3412 10-03-2006 17:03:56 7.8 C 45 % -3.37 C
3413 10-03-2006 17:13:56 7 C 52 % -2.17 C
3414 10-03-2006 17:23:55 6.8 C 55 % -1.59 C
3415 10-03-2006 17:33:56 6.7 C 56 % -1.44 C
3416 10-03-2006 17:43:56 6.5 C 56 % -1.63 C
3417 10-03-2006 17:53:56 6.4 C 57 % -1.48 C
3418 10-03-2006 18:03:56 6.3 C 55 % -2.06 C
3419 10-03-2006 18:13:56 6.2 C 56 % -1.91 C
3420 10-03-2006 18:23:56 6.1 C 56 % -2 C
3421 10-03-2006 18:33:56 6 C 57 % -1.86 C
3422 10-03-2006 18:43:56 5.7 C 57 % -2.14 C
3423 10-03-2006 18:53:56 5.5 C 56 % -2.56 C
3424 10-03-2006 19:03:56 5.4 C 57 % -2.42 C
3425 10-03-2006 19:13:56 5.5 C 56 % -2.56 C
Sensor: Nr:Datum:Temp:Feuchte:Taupunkt:
Aussen-T/F 3426 10-03-2006 19:23:56 5.5 C 58 % -2.09 C
3427 10-03-2006 19:33:56 5.5 C 60 % -1.63 C
3428 10-03-2006 19:43:56 5.4 C 61 % -1.5 C
3429 10-03-2006 19:53:56 5.3 C 61 % -1.6 C
3430 10-03-2006 20:03:56 5.4 C 60 % -1.73 C
3431 10-03-2006 20:13:56 5.3 C 61 % -1.6 C
3432 10-03-2006 20:23:56 5.2 C 62 % -1.47 C
3433 10-03-2006 20:33:56 5.1 C 63 % -1.35 C
3434 10-03-2006 20:43:56 4.9 C 65 % -1.11 C
3435 10-03-2006 20:53:56 4.9 C 66 % -0.91 C
3436 10-03-2006 21:03:56 4.9 C 66 % -0.91 C
3437 10-03-2006 21:13:56 4.9 C 66 % -0.91 C
3438 10-03-2006 21:23:56 4.7 C 68 % -0.69 C
3439 10-03-2006 21:33:56 4.3 C 73 % -0.1 C
3440 10-03-2006 21:43:56 4.1 C 75 % 0.08 C
3441 10-03-2006 21:53:57 4 C 76 % 0.16 C
3442 10-03-2006 22:03:56 4 C 78 % 0.52 C
3443 10-03-2006 22:13:56 4 C 78 % 0.52 C
3444 10-03-2006 22:23:56 3.9 C 79 % 0.6 C
3445 10-03-2006 22:33:56 3.8 C 80 % 0.68 C
3446 10-03-2006 22:43:56 3.7 C 81 % 0.75 C
3447 10-03-2006 22:53:56 3.5 C 83 % 0.89 C
3448 10-03-2006 23:03:56 3.4 C 83 % 0.79 C
3449 10-03-2006 23:13:56 3.4 C 83 % 0.79 C
3450 10-03-2006 23:23:57 3.3 C 84 % 0.86 C
Sensor: Nr:Datum:Temp:Feuchte:Taupunkt:
Aussen-T/F 3451 10-03-2006 23:33:57 3.3 C 84 % 0.86 C
3452 10-03-2006 23:43:57 3.2 C 84 % 0.76 C
3453 10-03-2006 23:53:57 3.2 C 84 % 0.76 C
3454 11-03-2006 00:03:56 3.2 C 85 % 0.93 C
3455 11-03-2006 00:13:56 2.9 C 86 % 0.8 C
3456 11-03-2006 00:23:57 2.8 C 87 % 0.86 C
3457 11-03-2006 00:33:57 2.9 C 88 % 1.11 C
3458 11-03-2006 00:43:57 3 C 88 % 1.21 C
3459 11-03-2006 00:53:57 3.1 C 88 % 1.31 C
3460 11-03-2006 01:03:57 3.1 C 88 % 1.31 C
3461 11-03-2006 01:13:57 3.1 C 88 % 1.31 C
3462 11-03-2006 01:23:57 3.1 C 88 % 1.31 C
3463 11-03-2006 01:33:57 3.1 C 89 % 1.47 C
3464 11-03-2006 01:43:57 3.1 C 89 % 1.47 C
3465 11-03-2006 01:53:57 3.1 C 89 % 1.47 C
3466 11-03-2006 02:03:57 3 C 89 % 1.37 C
3467 11-03-2006 02:13:57 3 C 88 % 1.21 C
3468 11-03-2006 02:23:56 2.9 C 89 % 1.27 C
3469 11-03-2006 02:33:57 2.9 C 89 % 1.27 C
3470 11-03-2006 02:43:57 2.9 C 89 % 1.27 C
3471 11-03-2006 02:54:58 3 C 88 % 1.21 C
3472 11-03-2006 03:04:58 2.9 C 89 % 1.27 C
3473 11-03-2006 03:14:58 3 C 88 % 1.21 C
3474 11-03-2006 03:24:58 2.9 C 89 % 1.27 C
3475 11-03-2006 03:34:59 2.9 C 89 % 1.27 C
Sensor: Nr:Datum:Temp:Feuchte:Taupunkt:
Aussen-T/F 3476 11-03-2006 03:44:59 2.9 C 89 % 1.27 C
3477 11-03-2006 03:54:59 3 C 88 % 1.21 C
3478 11-03-2006 04:04:59 3 C 88 % 1.21 C
3479 11-03-2006 04:14:59 3 C 87 % 1.05 C
3480 11-03-2006 04:24:59 2.9 C 88 % 1.11 C
3481 11-03-2006 04:34:59 2.9 C 88 % 1.11 C
3482 11-03-2006 04:44:59 3 C 88 % 1.21 C
3483 11-03-2006 04:54:59 2.9 C 88 % 1.11 C
3484 11-03-2006 05:04:59 3 C 88 % 1.21 C
3485 11-03-2006 05:14:59 3 C 88 % 1.21 C
3486 11-03-2006 05:24:59 3 C 88 % 1.21 C
3487 11-03-2006 05:34:59 3 C 88 % 1.21 C
3488 11-03-2006 05:44:59 2.9 C 89 % 1.27 C
3489 11-03-2006 05:54:58 2.8 C 89 % 1.17 C
3490 11-03-2006 06:04:59 2.4 C 89 % 0.78 C
3491 11-03-2006 06:14:59 2.3 C 88 % 0.52 C
3492 11-03-2006 06:24:59 2.3 C 88 % 0.52 C
3493 11-03-2006 06:34:58 2.3 C 88 % 0.52 C
3494 11-03-2006 06:44:58 2.3 C 89 % 0.68 C
3495 11-03-2006 06:54:59 2.3 C 89 % 0.68 C
3496 11-03-2006 07:04:58 2.3 C 89 % 0.68 C
3497 11-03-2006 07:14:58 2.4 C 89 % 0.78 C
3498 11-03-2006 07:24:59 2.3 C 89 % 0.68 C
3499 11-03-2006 07:34:59 2.3 C 90 % 0.83 C
3500 11-03-2006 07:44:59 2.4 C 90 % 0.93 C
Sensor: Nr:Datum:Temp:Feuchte:Taupunkt:
Aussen-T/F 3501 11-03-2006 07:54:59 2.5 C 90 % 1.03 C
3502 11-03-2006 08:04:59 2.5 C 90 % 1.03 C
3503 11-03-2006 08:14:59 2.6 C 91 % 1.28 C
3504 11-03-2006 08:24:59 2.6 C 91 % 1.28 C
3505 11-03-2006 08:34:59 2.8 C 91 % 1.48 C
3506 11-03-2006 08:44:59 2.8 C 91 % 1.48 C
3507 11-03-2006 08:54:59 2.9 C 91 % 1.58 C
3508 11-03-2006 09:04:59 3.1 C 90 % 1.62 C
3509 11-03-2006 09:14:59 3.3 C 90 % 1.82 C
3510 11-03-2006 09:24:59 3.4 C 88 % 1.61 C
3511 11-03-2006 09:34:59 3.6 C 88 % 1.8 C
3512 11-03-2006 09:43:59 3.8 C 87 % 1.84 C
3513 11-03-2006 09:54:59 3.9 C 87 % 1.94 C
3514 11-03-2006 10:04:00 4.2 C 86 % 2.07 C
3515 11-03-2006 10:14:00 4.4 C 85 % 2.11 C
3516 11-03-2006 10:24:59 4.6 C 83 % 1.97 C
3517 11-03-2006 10:34:59 4.5 C 82 % 1.7 C
3518 11-03-2006 10:44:59 4.5 C 80 % 1.36 C
3519 11-03-2006 10:54:00 4.6 C 79 % 1.28 C
3520 11-03-2006 11:04:59 4.7 C 78 % 1.2 C
3521 11-03-2006 11:14:59 4.8 C 77 % 1.12 C
3522 11-03-2006 11:24:59 5.1 C 76 % 1.23 C
3523 11-03-2006 11:34:59 5 C 75 % 0.95 C
3524 11-03-2006 11:44:59 5.2 C 75 % 1.14 C
3525 11-03-2006 11:54:59 5.2 C 73 % 0.77 C
Sensor: Nr:Datum:Temp:Feuchte:Taupunkt:
Aussen-T/F 3526 11-03-2006 12:04:00 5.2 C 73 % 0.77 C
3527 11-03-2006 12:14:00 5.7 C 72 % 1.06 C
3528 11-03-2006 12:24:59 6 C 70 % 0.95 C
3529 11-03-2006 12:34:00 6.4 C 68 % 0.94 C
3530 11-03-2006 12:44:00 5.5 C 69 % 0.28 C
3531 11-03-2006 12:54:59 4.5 C 75 % 0.46 C
3532 11-03-2006 13:04:59 4.2 C 79 % 0.89 C
3533 11-03-2006 13:14:59 4.6 C 80 % 1.46 C
3534 11-03-2006 13:24:59 4.3 C 80 % 1.16 C
3535 11-03-2006 13:33:59 3.9 C 81 % 0.95 C
3536 11-03-2006 13:43:59 3.3 C 82 % 0.53 C
3537 11-03-2006 13:54:59 2.9 C 83 % 0.31 C
3538 11-03-2006 14:04:59 2.6 C 81 % -0.32 C
3539 11-03-2006 14:14:59 2.4 C 81 % -0.52 C
3540 11-03-2006 14:24:59 2.4 C 80 % -0.69 C
3541 11-03-2006 14:34:00 2 C 79 % -1.25 C
3542 11-03-2006 14:44:00 1.8 C 79 % -1.44 C
3543 11-03-2006 14:54:59 1.5 C 76 % -2.26 C
3544 11-03-2006 15:04:00 1.2 C 76 % -2.55 C
3545 11-03-2006 15:14:00 1.4 C 76 % -2.36 C
3546 11-03-2006 15:23:59 1.3 C 76 % -2.45 C
3547 11-03-2006 15:34:59 1.1 C 77 % -2.47 C
3548 11-03-2006 15:43:59 1.2 C 75 % -2.73 C
3549 11-03-2006 15:54:59 1 C 75 % -2.92 C
3550 11-03-2006 16:04:59 0.8 C 76 % -2.94 C
Sensor: Nr:Datum:Temp:Feuchte:Taupunkt:
Aussen-T/F 3551 11-03-2006 16:14:59 0.7 C 71 % -3.94 C
3552 11-03-2006 16:24:00 0.7 C 68 % -4.51 C
3553 11-03-2006 16:34:00 0.6 C 68 % -4.61 C
3554 11-03-2006 16:44:00 0.4 C 67 % -5 C
3555 11-03-2006 16:54:59 0.2 C 65 % -5.58 C
3556 11-03-2006 17:04:00 0.2 C 66 % -5.38 C
3557 11-03-2006 17:14:00 0.2 C 66 % -5.38 C
3558 11-03-2006 17:24:00 0 C 64 % -5.98 C
3559 11-03-2006 17:34:00 -0.1 C 63 % -6.29 C
3560 11-03-2006 17:44:00 0 C 65 % -5.78 C
3561 11-03-2006 17:54:00 0 C 64 % -5.98 C
3562 11-03-2006 18:04:00 -0.2 C 63 % -6.38 C
3563 11-03-2006 18:14:00 -0.4 C 65 % -6.16 C
3564 11-03-2006 18:24:00 -0.5 C 68 % -5.67 C
3565 11-03-2006 18:34:00 -0.6 C 67 % -5.96 C
3566 11-03-2006 18:44:00 -0.6 C 66 % -6.16 C
3567 11-03-2006 18:54:00 -0.5 C 63 % -6.67 C
3568 11-03-2006 19:04:00 -0.7 C 63 % -6.86 C
3569 11-03-2006 19:14:00 -1 C 69 % -5.96 C
3570 11-03-2006 19:24:00 -1.2 C 72 % -5.59 C
3571 11-03-2006 19:34:00 -1.1 C 70 % -5.86 C
3572 11-03-2006 19:44:00 -1.1 C 67 % -6.44 C
3573 11-03-2006 19:54:00 -1.2 C 67 % -6.53 C
3574 11-03-2006 20:04:00 -1.3 C 67 % -6.63 C
3575 11-03-2006 20:14:00 -1.4 C 68 % -6.53 C
Sensor: Nr:Datum:Temp:Feuchte:Taupunkt:
Aussen-T/F 3576 11-03-2006 20:24:01 -1.5 C 70 % -6.25 C
3577 11-03-2006 20:34:00 -1.7 C 70 % -6.44 C
3578 11-03-2006 20:44:00 -1.7 C 69 % -6.63 C
3579 11-03-2006 20:54:00 -1.8 C 69 % -6.72 C
3580 11-03-2006 21:04:00 -1.9 C 71 % -6.45 C
3581 11-03-2006 21:14:00 -2.1 C 72 % -6.46 C
3582 11-03-2006 21:24:00 -2.1 C 72 % -6.46 C
3583 11-03-2006 21:34:11 -2.1 C 70 % -6.83 C
3584 11-03-2006 21:44:07 -2 C 67 % -7.3 C
3585 11-03-2006 21:54:00 -2.1 C 69 % -7.01 C
3586 11-03-2006 22:04:00 -2.5 C 73 % -6.67 C
3587 11-03-2006 22:14:00 -2.5 C 72 % -6.84 C
3588 11-03-2006 22:24:01 -2.6 C 71 % -7.12 C
3589 11-03-2006 22:34:00 -2.6 C 66 % -8.06 C
3590 11-03-2006 22:44:00 -2.6 C 63 % -8.66 C
3591 11-03-2006 22:54:01 -2.8 C 61 % -9.26 C
3592 11-03-2006 23:04:00 -2.8 C 60 % -9.47 C
3593 11-03-2006 23:14:01 -2.9 C 60 % -9.57 C
3594 11-03-2006 23:24:00 -2.9 C 62 % -9.15 C
3595 11-03-2006 23:34:00 -3.2 C 70 % -7.88 C
3596 11-03-2006 23:44:00 -3.2 C 70 % -7.88 C
3597 11-03-2006 23:54:00 -3.3 C 65 % -8.93 C
3598 12-03-2006 00:04:01 -3.4 C 60 % -10.04 C
3599 12-03-2006 00:14:01 -3.3 C 59 % -10.16 C
3600 12-03-2006 00:24:01 -3.4 C 57 % -10.68 C
Sensor: Nr:Datum:Temp:Feuchte:Taupunkt:
Aussen-T/F 3601 12-03-2006 00:34:01 -3.4 C 57 % -10.68 C
3602 12-03-2006 00:44:01 -3.7 C 57 % -10.97 C
3603 12-03-2006 00:54:01 -3.8 C 58 % -10.84 C
3604 12-03-2006 01:04:00 -3.9 C 58 % -10.94 C
3605 12-03-2006 01:14:00 -4 C 58 % -11.03 C
3606 12-03-2006 01:24:00 -4.1 C 59 % -10.91 C
3607 12-03-2006 01:34:00 -4.3 C 60 % -10.89 C
3608 12-03-2006 01:44:00 -4.4 C 60 % -10.98 C
3609 12-03-2006 01:54:00 -4.3 C 60 % -10.89 C
3610 12-03-2006 02:04:00 -4.4 C 61 % -10.78 C
3611 12-03-2006 02:14:00 -4.6 C 62 % -10.76 C
3612 12-03-2006 02:24:01 -4.6 C 63 % -10.56 C
3613 12-03-2006 02:34:01 -4.7 C 63 % -10.66 C
3614 12-03-2006 02:44:01 -4.7 C 63 % -10.66 C
3615 12-03-2006 02:55:02 -4.9 C 63 % -10.85 C
3616 12-03-2006 03:05:02 -4.8 C 63 % -10.75 C
3617 12-03-2006 03:15:02 -4.8 C 64 % -10.55 C
3618 12-03-2006 03:25:02 -4.9 C 64 % -10.65 C
3619 12-03-2006 03:35:03 -4.9 C 64 % -10.65 C
3620 12-03-2006 03:45:03 -4.8 C 63 % -10.75 C
3621 12-03-2006 03:55:03 -4.9 C 63 % -10.85 C
3622 12-03-2006 04:05:02 -5 C 63 % -10.94 C
3623 12-03-2006 04:15:02 -5.1 C 63 % -11.04 C
3624 12-03-2006 04:25:02 -5.2 C 63 % -11.13 C
3625 12-03-2006 04:35:02 -5.3 C 62 % -11.43 C
Sensor: Nr:Datum:Temp:Feuchte:Taupunkt:
Aussen-T/F 3626 12-03-2006 04:45:02 -5.2 C 62 % -11.33 C
3627 12-03-2006 04:55:02 -5.1 C 62 % -11.24 C
3628 12-03-2006 05:05:02 -5.1 C 62 % -11.24 C
3629 12-03-2006 05:15:03 -5.3 C 63 % -11.23 C
3630 12-03-2006 05:25:03 -5.5 C 63 % -11.42 C
3631 12-03-2006 05:35:02 -5.7 C 64 % -11.41 C
3632 12-03-2006 05:45:02 -5.6 C 65 % -11.12 C
3633 12-03-2006 05:55:02 -5.7 C 65 % -11.22 C
3634 12-03-2006 06:05:02 -5.8 C 65 % -11.31 C
3635 12-03-2006 06:15:02 -5.6 C 65 % -11.12 C
3636 12-03-2006 06:25:03 -5.6 C 64 % -11.31 C
3637 12-03-2006 06:35:03 -5.6 C 63 % -11.51 C
3638 12-03-2006 06:45:03 -5.8 C 63 % -11.7 C
3639 12-03-2006 06:55:03 -5.7 C 63 % -11.61 C
3640 12-03-2006 07:05:03 -5.8 C 63 % -11.7 C
3641 12-03-2006 07:15:03 -5.8 C 63 % -11.7 C
3642 12-03-2006 07:25:03 -5.8 C 64 % -11.5 C
3643 12-03-2006 07:35:02 -5.8 C 63 % -11.7 C
3644 12-03-2006 07:45:02 -5.7 C 64 % -11.41 C
3645 12-03-2006 07:55:03 -5.4 C 64 % -11.12 C
3646 12-03-2006 08:05:03 -5.2 C 63 % -11.13 C
3647 12-03-2006 08:15:03 -5.2 C 62 % -11.33 C
3648 12-03-2006 08:25:03 -5.1 C 61 % -11.44 C
3649 12-03-2006 08:35:03 -5.1 C 61 % -11.44 C
3650 12-03-2006 08:45:04 -5 C 60 % -11.55 C
Sensor: Nr:Datum:Temp:Feuchte:Taupunkt:
Aussen-T/F 3651 12-03-2006 08:55:03 -5 C 59 % -11.76 C
3652 12-03-2006 09:05:03 -4.8 C 59 % -11.57 C
3653 12-03-2006 09:15:04 -4.5 C 58 % -11.5 C
3654 12-03-2006 09:25:03 -4.3 C 57 % -11.53 C
3655 12-03-2006 09:35:03 -4 C 55 % -11.69 C
3656 12-03-2006 09:45:03 -3.9 C 54 % -11.83 C
3657 12-03-2006 09:55:03 -3.7 C 53 % -11.87 C
3658 12-03-2006 10:05:03 -3.4 C 52 % -11.83 C
3659 12-03-2006 10:15:03 -3.1 C 51 % -11.79 C
3660 12-03-2006 10:25:03 -3 C 49 % -12.2 C
3661 12-03-2006 10:35:03 -2.5 C 48 % -11.99 C
3662 12-03-2006 10:45:03 -1.8 C 48 % -11.35 C
3663 12-03-2006 10:55:03 -1.2 C 45 % -11.6 C
3664 12-03-2006 11:05:03 -1.2 C 45 % -11.6 C
3665 12-03-2006 11:15:03 -1.1 C 43 % -12.08 C
3666 12-03-2006 11:25:03 -1.4 C 42 % -12.64 C
3667 12-03-2006 11:35:04 -1.4 C 43 % -12.35 C
3668 12-03-2006 11:45:05 -0.7 C 45 % -11.14 C
3669 12-03-2006 11:55:03 -0.7 C 42 % -12 C
3670 12-03-2006 12:05:03 -0.6 C 42 % -11.91 C
3671 12-03-2006 12:15:03 -0.2 C 42 % -11.55 C
3672 12-03-2006 12:25:04 -0.2 C 40 % -12.16 C
3673 12-03-2006 12:35:04 0.7 C 41 % -11.02 C
3674 12-03-2006 12:45:04 0.3 C 37 % -12.65 C
3675 12-03-2006 12:55:03 0.5 C 39 % -11.82 C
Sensor: Nr:Datum:Temp:Feuchte:Taupunkt:
Aussen-T/F 3676 12-03-2006 13:05:03 0.4 C 37 % -12.56 C
3677 12-03-2006 13:15:03 0.4 C 37 % -12.56 C
3678 12-03-2006 13:25:03 0.2 C 35 % -13.42 C
3679 12-03-2006 13:35:03 -0.2 C 37 % -13.12 C
3680 12-03-2006 13:45:03 0.5 C 37 % -12.47 C
3681 12-03-2006 13:55:04 1.8 C 36 % -11.65 C
3682 12-03-2006 14:05:03 3.1 C 31 % -12.35 C
3683 12-03-2006 14:15:03 2.4 C 28 % -14.21 C
3684 12-03-2006 14:25:03 2.2 C 26 % -15.28 C
3685 12-03-2006 14:35:03 2.4 C 25 % -15.58 C
3686 12-03-2006 14:45:03 2.1 C 25 % -15.84 C
3687 12-03-2006 14:55:03 1.4 C 27 % -15.51 C
3688 12-03-2006 15:05:03 2 C 25 % -15.92 C
3689 12-03-2006 15:15:03 1.5 C 21 % -18.41 C
3690 12-03-2006 15:25:04 1.8 C 25 % -16.09 C
3691 12-03-2006 15:35:04 2.3 C 21 % -17.73 C
3692 12-03-2006 15:45:04 3.1 C 20 % -17.64 C
3693 12-03-2006 15:55:04 1.9 C 20 % -18.64 C
3694 12-03-2006 16:05:04 2.2 C 20 % -18.39 C
3695 12-03-2006 16:15:05 3.1 C 20 % -17.64 C
3696 12-03-2006 16:25:03 1.7 C 25 % -16.18 C
3697 12-03-2006 16:35:03 1.4 C 27 % -15.51 C
3698 12-03-2006 16:45:03 1.4 C 25 % -16.43 C
3699 12-03-2006 16:55:03 0.9 C 27 % -15.95 C
3700 12-03-2006 17:05:03 0.2 C 34 % -13.78 C
Sensor: Nr:Datum:Temp:Feuchte:Taupunkt:
Aussen-T/F 3701 12-03-2006 17:15:03 0 C 34 % -13.95 C
3702 12-03-2006 17:25:03 0.2 C 36 % -13.08 C
3703 12-03-2006 17:35:04 0.4 C 35 % -13.24 C
3704 12-03-2006 17:45:04 0.4 C 31 % -14.72 C
3705 12-03-2006 17:55:04 0.5 C 30 % -15.03 C
3706 12-03-2006 18:05:04 0.4 C 29 % -15.52 C
3707 12-03-2006 18:15:04 0.1 C 30 % -15.38 C
3708 12-03-2006 18:25:03 -0.3 C 32 % -14.98 C
3709 12-03-2006 18:35:04 -0.7 C 36 % -13.9 C
3710 12-03-2006 18:45:04 -1 C 39 % -13.19 C
3711 12-03-2006 18:55:04 -1.2 C 42 % -12.46 C
3712 12-03-2006 19:05:04 -1.5 C 43 % -12.44 C
3713 12-03-2006 19:15:04 -1.6 C 46 % -11.69 C
3714 12-03-2006 19:25:04 -1.6 C 46 % -11.69 C
3715 12-03-2006 19:35:04 -1.6 C 47 % -11.43 C
3716 12-03-2006 19:45:04 -1.7 C 47 % -11.52 C
3717 12-03-2006 19:55:04 -1.8 C 46 % -11.88 C
3718 12-03-2006 20:05:04 -1.6 C 45 % -11.97 C
3719 12-03-2006 20:15:04 -1.6 C 46 % -11.69 C
3720 12-03-2006 20:25:04 -1.7 C 44 % -12.34 C
3721 12-03-2006 20:35:04 -1.9 C 45 % -12.24 C
3722 12-03-2006 20:45:04 -2 C 46 % -12.06 C
3723 12-03-2006 20:55:04 -1.9 C 46 % -11.97 C
3724 12-03-2006 21:05:04 -1.8 C 45 % -12.15 C
3725 12-03-2006 21:15:04 -1.9 C 46 % -11.97 C
Sensor: Nr:Datum:Temp:Feuchte:Taupunkt:
Aussen-T/F 3726 12-03-2006 21:25:05 -2 C 46 % -12.06 C
3727 12-03-2006 21:35:04 -2.2 C 46 % -12.24 C
3728 12-03-2006 21:45:04 -2.5 C 48 % -11.99 C
3729 12-03-2006 21:55:04 -2.7 C 49 % -11.92 C
3730 12-03-2006 22:05:04 -3.1 C 51 % -11.79 C
3731 12-03-2006 22:15:05 -3.2 C 51 % -11.89 C
3732 12-03-2006 22:25:04 -3.5 C 52 % -11.92 C
3733 12-03-2006 22:35:04 -3.6 C 52 % -12.02 C
3734 12-03-2006 22:45:04 -3.8 C 52 % -12.2 C
3735 12-03-2006 22:55:04 -4 C 53 % -12.15 C
3736 12-03-2006 23:05:05 -4.1 C 54 % -12.02 C
3737 12-03-2006 23:15:05 -4.3 C 54 % -12.2 C
3738 12-03-2006 23:25:05 -4.3 C 54 % -12.2 C
3739 12-03-2006 23:35:04 -4.3 C 54 % -12.2 C
3740 12-03-2006 23:45:05 -4.4 C 55 % -12.07 C
3741 12-03-2006 23:55:05 -4.4 C 54 % -12.3 C
3742 13-03-2006 00:05:04 -4.7 C 54 % -12.58 C
3743 13-03-2006 00:15:05 -4.8 C 55 % -12.44 C
3744 13-03-2006 00:25:04 -4.9 C 55 % -12.54 C
3745 13-03-2006 00:35:04 -4.9 C 56 % -12.31 C
3746 13-03-2006 00:45:04 -5 C 56 % -12.41 C
3747 13-03-2006 00:55:04 -5.2 C 56 % -12.59 C
3748 13-03-2006 01:05:04 -5.2 C 56 % -12.59 C
3749 13-03-2006 01:15:04 -5.3 C 56 % -12.69 C
3750 13-03-2006 01:25:05 -5.4 C 56 % -12.78 C
Sensor: Nr:Datum:Temp:Feuchte:Taupunkt:
Aussen-T/F 3751 13-03-2006 01:35:04 -5.5 C 57 % -12.66 C
3752 13-03-2006 01:45:04 -5.6 C 56 % -12.97 C
3753 13-03-2006 01:55:05 -5.7 C 57 % -12.85 C
3754 13-03-2006 02:05:05 -5.7 C 57 % -12.85 C
3755 13-03-2006 02:15:05 -5.8 C 57 % -12.94 C
3756 13-03-2006 02:25:04 -5.9 C 57 % -13.03 C
3757 13-03-2006 02:35:04 -5.9 C 58 % -12.82 C
3758 13-03-2006 02:45:04 -6 C 58 % -12.91 C
3759 13-03-2006 02:56:06 -6 C 58 % -12.91 C
3760 13-03-2006 03:06:06 -6.1 C 58 % -13.01 C
3761 13-03-2006 03:16:06 -6.3 C 58 % -13.2 C
3762 13-03-2006 03:26:06 -6.4 C 59 % -13.08 C
3763 13-03-2006 03:36:07 -6.5 C 59 % -13.17 C
3764 13-03-2006 03:46:07 -6.4 C 60 % -12.87 C
3765 13-03-2006 03:56:07 -6.4 C 60 % -12.87 C
3766 13-03-2006 04:06:07 -6.5 C 60 % -12.97 C
3767 13-03-2006 04:16:06 -6.6 C 60 % -13.06 C
3768 13-03-2006 04:26:06 -6.7 C 60 % -13.16 C
3769 13-03-2006 04:36:06 -6.6 C 61 % -12.86 C
3770 13-03-2006 04:46:06 -6.8 C 61 % -13.05 C
3771 13-03-2006 04:56:06 -6.7 C 62 % -12.75 C
3772 13-03-2006 05:06:07 -6.8 C 62 % -12.85 C
3773 13-03-2006 05:16:07 -7 C 62 % -13.04 C
3774 13-03-2006 05:26:07 -7.1 C 62 % -13.13 C
3775 13-03-2006 05:36:07 -7.1 C 63 % -12.94 C
Sensor: Nr:Datum:Temp:Feuchte:Taupunkt:
Aussen-T/F 3776 13-03-2006 05:46:07 -7.1 C 63 % -12.94 C
3777 13-03-2006 05:56:07 -7.1 C 64 % -12.74 C
3778 13-03-2006 06:06:06 -7.2 C 64 % -12.84 C
3779 13-03-2006 06:16:06 -7.3 C 65 % -12.74 C
3780 13-03-2006 06:26:06 -7.3 C 65 % -12.74 C
3781 13-03-2006 06:36:07 -7.4 C 65 % -12.84 C
3782 13-03-2006 06:46:07 -7.4 C 65 % -12.84 C
3783 13-03-2006 06:56:08 -7.5 C 65 % -12.93 C
3784 13-03-2006 07:06:06 -7.5 C 66 % -12.74 C
3785 13-03-2006 07:16:06 -7.5 C 67 % -12.56 C
3786 13-03-2006 07:26:06 -7.4 C 67 % -12.46 C
3787 13-03-2006 07:36:07 -7.4 C 67 % -12.46 C
3788 13-03-2006 07:46:06 -7.3 C 68 % -12.18 C
3789 13-03-2006 07:56:06 -7.1 C 68 % -11.99 C
3790 13-03-2006 08:06:07 -6.8 C 68 % -11.7 C
3791 13-03-2006 08:16:07 -6.8 C 68 % -11.7 C
3792 13-03-2006 08:26:08 -6.7 C 68 % -11.61 C
3793 13-03-2006 08:36:07 -6.4 C 68 % -11.32 C
3794 13-03-2006 08:46:07 -6.3 C 67 % -11.41 C
3795 13-03-2006 08:56:07 -6.1 C 67 % -11.22 C
3796 13-03-2006 09:06:06 -5.9 C 67 % -11.03 C
3797 13-03-2006 09:16:06 -5.6 C 67 % -10.74 C
3798 13-03-2006 09:26:06 -5.1 C 68 % -10.07 C
3799 13-03-2006 09:36:07 -4.6 C 67 % -9.78 C
3800 13-03-2006 09:46:07 -4.1 C 65 % -9.69 C
Sensor: Nr:Datum:Temp:Feuchte:Taupunkt:
Aussen-T/F 3801 13-03-2006 09:56:07 -3.4 C 60 % -10.04 C
3802 13-03-2006 10:06:07 -2.9 C 57 % -10.21 C
3803 13-03-2006 10:16:07 -2.4 C 53 % -10.66 C
3804 13-03-2006 10:26:07 -2.1 C 52 % -10.62 C
3805 13-03-2006 10:36:07 -1.8 C 50 % -10.84 C
3806 13-03-2006 10:46:07 -1.4 C 48 % -10.98 C
3807 13-03-2006 10:56:07 -1.2 C 47 % -11.06 C
3808 13-03-2006 11:06:07 -0.9 C 46 % -11.05 C
3809 13-03-2006 11:16:07 -0.6 C 45 % -11.05 C
3810 13-03-2006 11:26:07 -0.6 C 43 % -11.62 C
3811 13-03-2006 11:36:07 -0.3 C 42 % -11.64 C
3812 13-03-2006 11:46:07 0.1 C 41 % -11.56 C
3813 13-03-2006 11:56:08 0.2 C 40 % -11.78 C
3814 13-03-2006 12:06:07 0.6 C 40 % -11.42 C
3815 13-03-2006 12:16:07 0.8 C 39 % -11.55 C
3816 13-03-2006 12:26:07 1.2 C 37 % -11.85 C
3817 13-03-2006 12:36:07 1.6 C 38 % -11.16 C
3818 13-03-2006 12:46:07 2 C 35 % -11.82 C
3819 13-03-2006 12:56:07 2.5 C 35 % -11.38 C
3820 13-03-2006 13:06:07 3 C 32 % -12.05 C
3821 13-03-2006 13:16:07 3.3 C 30 % -12.58 C
3822 13-03-2006 13:26:08 3.8 C 30 % -12.15 C
3823 13-03-2006 13:36:07 3.9 C 28 % -12.91 C
3824 13-03-2006 13:46:07 4.4 C 26 % -13.39 C
3825 13-03-2006 13:56:07 4.7 C 26 % -13.13 C
Sensor: Nr:Datum:Temp:Feuchte:Taupunkt:
Aussen-T/F 3826 13-03-2006 14:06:07 5.1 C 23 % -14.29 C
3827 13-03-2006 14:16:08 5.3 C 21 % -15.22 C
3828 13-03-2006 14:26:08 5.5 C 21 % -15.05 C
3829 13-03-2006 14:36:07 5.8 C 21 % -14.8 C
3830 13-03-2006 14:46:08 6.3 C 23 % -13.27 C
3831 13-03-2006 14:56:08 6.3 C 20 % -14.97 C
3832 13-03-2006 15:06:07 6.5 C 23 % -13.1 C
3833 13-03-2006 15:16:07 6.8 C 25 % -11.82 C
3834 13-03-2006 15:26:07 7.2 C 21 % -13.63 C
3835 13-03-2006 15:36:08 7 C 20 % -14.39 C
3836 13-03-2006 15:46:07 6.7 C 20 % -14.64 C
3837 13-03-2006 15:56:07 6.8 C 20 % -14.55 C
3838 13-03-2006 16:06:08 6.6 C 20 % -14.72 C
3839 13-03-2006 16:16:08 6.7 C 20 % -14.64 C
3840 13-03-2006 16:26:08 6.9 C 20 % -14.47 C
3841 13-03-2006 16:36:08 6.5 C 20 % -14.8 C
3842 13-03-2006 16:46:08 6.2 C 20 % -15.05 C
3843 13-03-2006 16:56:08 6.2 C 20 % -15.05 C
3844 13-03-2006 17:06:08 5.8 C 23 % -13.69 C
3845 13-03-2006 17:16:07 6 C 21 % -14.63 C
3846 13-03-2006 17:26:07 5.8 C 21 % -14.8 C
3847 13-03-2006 18:06:11 3.7 C 31 % -11.83 C
3848 13-03-2006 18:16:11 3.1 C 32 % -11.96 C
3849 13-03-2006 18:26:11 2.1 C 35 % -11.73 C
3850 13-03-2006 18:36:11 1.5 C 38 % -11.25 C
Sensor: Nr:Datum:Temp:Feuchte:Taupunkt:
Aussen-T/F 3851 13-03-2006 18:46:08 1.1 C 40 % -10.96 C
3852 13-03-2006 18:56:07 0.7 C 41 % -11.02 C
3853 13-03-2006 19:06:08 0.4 C 43 % -10.69 C
3854 13-03-2006 19:16:08 0.1 C 45 % -10.4 C
3855 13-03-2006 19:26:08 0 C 47 % -9.94 C
3856 13-03-2006 19:36:07 -0.2 C 47 % -10.14 C
3857 13-03-2006 19:46:08 -0.4 C 48 % -10.06 C
3858 13-03-2006 19:56:08 -0.5 C 49 % -9.89 C
3859 13-03-2006 20:06:08 -0.7 C 49 % -10.07 C
3860 13-03-2006 20:16:08 -0.8 C 50 % -9.91 C
3861 13-03-2006 20:26:08 -0.9 C 51 % -9.75 C
3862 13-03-2006 20:36:08 -1.1 C 52 % -9.69 C
3863 13-03-2006 20:46:08 -1.2 C 51 % -10.03 C
3864 13-03-2006 20:56:08 -1.3 C 50 % -10.37 C
3865 13-03-2006 21:06:08 -1.5 C 51 % -10.31 C
3866 13-03-2006 21:16:08 -1.6 C 51 % -10.4 C
3867 13-03-2006 21:26:08 -1.7 C 51 % -10.5 C
3868 13-03-2006 21:36:08 -1.8 C 52 % -10.34 C
3869 13-03-2006 21:46:08 -1.7 C 51 % -10.5 C
3870 13-03-2006 21:56:08 -1.8 C 50 % -10.84 C
3871 13-03-2006 22:06:08 -1.9 C 51 % -10.68 C
3872 13-03-2006 22:16:08 -2 C 51 % -10.77 C
3873 13-03-2006 22:26:08 -2.1 C 51 % -10.87 C
3874 13-03-2006 22:36:08 -2.2 C 51 % -10.96 C
3875 13-03-2006 22:46:08 -2.2 C 52 % -10.72 C
Sensor: Nr:Datum:Temp:Feuchte:Taupunkt:
Aussen-T/F 3876 13-03-2006 22:56:08 -2.2 C 53 % -10.48 C
3877 13-03-2006 23:06:08 -2.5 C 53 % -10.76 C
3878 13-03-2006 23:16:08 -2.6 C 53 % -10.85 C
3879 13-03-2006 23:26:08 -2.7 C 54 % -10.71 C
3880 13-03-2006 23:36:09 -2.7 C 55 % -10.48 C
3881 13-03-2006 23:46:08 -2.9 C 54 % -10.89 C
3882 13-03-2006 23:56:08 -3 C 56 % -10.53 C
3883 14-03-2006 00:06:08 -3.2 C 56 % -10.72 C
3884 14-03-2006 00:16:09 -3.3 C 57 % -10.59 C
3885 14-03-2006 00:26:09 -3.4 C 57 % -10.68 C
3886 14-03-2006 00:36:08 -3.5 C 58 % -10.56 C
3887 14-03-2006 00:46:08 -3.7 C 59 % -10.53 C
3888 14-03-2006 00:56:08 -3.8 C 59 % -10.63 C
3889 14-03-2006 01:06:09 -3.9 C 59 % -10.72 C
3890 14-03-2006 01:16:08 -4.1 C 60 % -10.7 C
3891 14-03-2006 01:26:09 -4.2 C 60 % -10.79 C